<?xml version="1.0" encoding="UTF-8" standalone="no" ?>
<gpx xmlns="http://www.topografix.com/GPX/1/1" xmlns:xsi="http://www.w3.org/2001/XMLSchema-instance" xsi:schemaLocation="http://www.topografix.com/GPX/1/1 http://www.topografix.com/GPX/1/1/gpx.xsd" version="1.1" creator="VisuGPX - https://www.visugpx.com">
  <metadata>
    <name>Pic du midi</name>
    <desc><![CDATA[Montée au pic du midi depuis la face sud sur de la neige de printemps.
Panorama fabuleux !]]></desc>
  </metadata>
  <trk>
    <name><![CDATA[2018-04-19 14:06:38]]></name>
    <trkseg>
      <trkpt lat="42.90667" lon="0.13061">
        <ele>1792.34</ele>
        <time>2018-04-19T06:25:57Z</time>
      </trkpt>
      <trkpt lat="42.90667" lon="0.13061">
        <ele>1792.34</ele>
        <time>2018-04-19T06:25:58Z</time>
      </trkpt>
      <trkpt lat="42.90667" lon="0.1306">
        <ele>1729.1</ele>
        <time>2018-04-19T06:26:01Z</time>
      </trkpt>
      <trkpt lat="42.90667" lon="0.1306">
        <ele>1729.1</ele>
        <time>2018-04-19T06:26:02Z</time>
      </trkpt>
      <trkpt lat="42.90666" lon="0.13061">
        <ele>1730.78</ele>
        <time>2018-04-19T06:26:17Z</time>
      </trkpt>
      <trkpt lat="42.90668" lon="0.1306">
        <ele>1730.71</ele>
        <time>2018-04-19T06:26:44Z</time>
      </trkpt>
      <trkpt lat="42.90667" lon="0.1306">
        <ele>1730.02</ele>
        <time>2018-04-19T06:26:57Z</time>
      </trkpt>
      <trkpt lat="42.90669" lon="0.13058">
        <ele>1729.32</ele>
        <time>2018-04-19T06:27:10Z</time>
      </trkpt>
      <trkpt lat="42.90668" lon="0.13059">
        <ele>1729.09</ele>
        <time>2018-04-19T06:27:37Z</time>
      </trkpt>
      <trkpt lat="42.90667" lon="0.13058">
        <ele>1729.09</ele>
        <time>2018-04-19T06:28:16Z</time>
      </trkpt>
      <trkpt lat="42.90667" lon="0.13058">
        <ele>1728.81</ele>
        <time>2018-04-19T06:28:54Z</time>
      </trkpt>
      <trkpt lat="42.90667" lon="0.13058">
        <ele>1728.35</ele>
        <time>2018-04-19T06:29:28Z</time>
      </trkpt>
      <trkpt lat="42.90667" lon="0.13057">
        <ele>1728.94</ele>
        <time>2018-04-19T06:30:20Z</time>
      </trkpt>
      <trkpt lat="42.90668" lon="0.13058">
        <ele>1728.48</ele>
        <time>2018-04-19T06:31:15Z</time>
      </trkpt>
      <trkpt lat="42.90669" lon="0.13058">
        <ele>1728.58</ele>
        <time>2018-04-19T06:32:24Z</time>
      </trkpt>
      <trkpt lat="42.90668" lon="0.13058">
        <ele>1728.07</ele>
        <time>2018-04-19T06:32:56Z</time>
      </trkpt>
      <trkpt lat="42.90668" lon="0.13058">
        <ele>1728.43</ele>
        <time>2018-04-19T06:33:16Z</time>
      </trkpt>
      <trkpt lat="42.90668" lon="0.13059">
        <ele>1728.4</ele>
        <time>2018-04-19T06:33:30Z</time>
      </trkpt>
      <trkpt lat="42.90667" lon="0.13059">
        <ele>1729.95</ele>
        <time>2018-04-19T06:33:55Z</time>
      </trkpt>
      <trkpt lat="42.90666" lon="0.13059">
        <ele>1729.84</ele>
        <time>2018-04-19T06:34:14Z</time>
      </trkpt>
      <trkpt lat="42.90668" lon="0.13059">
        <ele>1729.04</ele>
        <time>2018-04-19T06:34:35Z</time>
      </trkpt>
      <trkpt lat="42.90669" lon="0.13057">
        <ele>1729.43</ele>
        <time>2018-04-19T06:34:47Z</time>
      </trkpt>
      <trkpt lat="42.90669" lon="0.13058">
        <ele>1729.29</ele>
        <time>2018-04-19T06:35:06Z</time>
      </trkpt>
      <trkpt lat="42.90669" lon="0.1306">
        <ele>1729.22</ele>
        <time>2018-04-19T06:35:25Z</time>
      </trkpt>
      <trkpt lat="42.90668" lon="0.13066">
        <ele>1729.06</ele>
        <time>2018-04-19T06:35:29Z</time>
      </trkpt>
      <trkpt lat="42.9066" lon="0.13105">
        <ele>1730.63</ele>
        <time>2018-04-19T06:35:52Z</time>
      </trkpt>
      <trkpt lat="42.90659" lon="0.13111">
        <ele>1730.8</ele>
        <time>2018-04-19T06:35:56Z</time>
      </trkpt>
      <trkpt lat="42.90637" lon="0.13145">
        <ele>1730.85</ele>
        <time>2018-04-19T06:36:20Z</time>
      </trkpt>
      <trkpt lat="42.90619" lon="0.13156">
        <ele>1730.69</ele>
        <time>2018-04-19T06:36:36Z</time>
      </trkpt>
      <trkpt lat="42.90621" lon="0.1317">
        <ele>1732.58</ele>
        <time>2018-04-19T06:36:49Z</time>
      </trkpt>
      <trkpt lat="42.90626" lon="0.13179">
        <ele>1732.64</ele>
        <time>2018-04-19T06:36:57Z</time>
      </trkpt>
      <trkpt lat="42.90637" lon="0.13186">
        <ele>1733.97</ele>
        <time>2018-04-19T06:37:12Z</time>
      </trkpt>
      <trkpt lat="42.90638" lon="0.13186">
        <ele>1734.38</ele>
        <time>2018-04-19T06:37:13Z</time>
      </trkpt>
      <trkpt lat="42.90643" lon="0.13184">
        <ele>1733.83</ele>
        <time>2018-04-19T06:37:31Z</time>
      </trkpt>
      <trkpt lat="42.90642" lon="0.13183">
        <ele>1732.65</ele>
        <time>2018-04-19T06:37:53Z</time>
      </trkpt>
      <trkpt lat="42.90641" lon="0.13181">
        <ele>1732.76</ele>
        <time>2018-04-19T06:38:32Z</time>
      </trkpt>
      <trkpt lat="42.90641" lon="0.13181">
        <ele>1733.67</ele>
        <time>2018-04-19T06:38:51Z</time>
      </trkpt>
      <trkpt lat="42.90642" lon="0.13182">
        <ele>1733.28</ele>
        <time>2018-04-19T06:39:04Z</time>
      </trkpt>
      <trkpt lat="42.90642" lon="0.13183">
        <ele>1733.25</ele>
        <time>2018-04-19T06:39:05Z</time>
      </trkpt>
      <trkpt lat="42.9064" lon="0.13188">
        <ele>1732.91</ele>
        <time>2018-04-19T06:39:09Z</time>
      </trkpt>
      <trkpt lat="42.90631" lon="0.13206">
        <ele>1734.15</ele>
        <time>2018-04-19T06:39:24Z</time>
      </trkpt>
      <trkpt lat="42.90632" lon="0.13207">
        <ele>1733.89</ele>
        <time>2018-04-19T06:39:45Z</time>
      </trkpt>
      <trkpt lat="42.90633" lon="0.132">
        <ele>1734.04</ele>
        <time>2018-04-19T06:40:00Z</time>
      </trkpt>
      <trkpt lat="42.90633" lon="0.13195">
        <ele>1734.03</ele>
        <time>2018-04-19T06:40:11Z</time>
      </trkpt>
      <trkpt lat="42.90635" lon="0.13188">
        <ele>1733.85</ele>
        <time>2018-04-19T06:40:16Z</time>
      </trkpt>
      <trkpt lat="42.90638" lon="0.13181">
        <ele>1733.93</ele>
        <time>2018-04-19T06:40:29Z</time>
      </trkpt>
      <trkpt lat="42.90636" lon="0.13178">
        <ele>1734.61</ele>
        <time>2018-04-19T06:40:55Z</time>
      </trkpt>
      <trkpt lat="42.90639" lon="0.13179">
        <ele>1734.21</ele>
        <time>2018-04-19T06:41:13Z</time>
      </trkpt>
      <trkpt lat="42.90641" lon="0.1318">
        <ele>1734.2</ele>
        <time>2018-04-19T06:41:47Z</time>
      </trkpt>
      <trkpt lat="42.90641" lon="0.1318">
        <ele>1734.01</ele>
        <time>2018-04-19T06:42:22Z</time>
      </trkpt>
      <trkpt lat="42.90643" lon="0.13178">
        <ele>1734.81</ele>
        <time>2018-04-19T06:42:56Z</time>
      </trkpt>
      <trkpt lat="42.90645" lon="0.13182">
        <ele>1735.42</ele>
        <time>2018-04-19T06:43:15Z</time>
      </trkpt>
      <trkpt lat="42.90644" lon="0.1318">
        <ele>1735.3</ele>
        <time>2018-04-19T06:43:37Z</time>
      </trkpt>
      <trkpt lat="42.90652" lon="0.13186">
        <ele>1736.68</ele>
        <time>2018-04-19T06:44:02Z</time>
      </trkpt>
      <trkpt lat="42.90659" lon="0.13182">
        <ele>1740.18</ele>
        <time>2018-04-19T06:44:15Z</time>
      </trkpt>
      <trkpt lat="42.90667" lon="0.13176">
        <ele>1743.46</ele>
        <time>2018-04-19T06:44:30Z</time>
      </trkpt>
      <trkpt lat="42.90672" lon="0.13174">
        <ele>1745.04</ele>
        <time>2018-04-19T06:44:47Z</time>
      </trkpt>
      <trkpt lat="42.90677" lon="0.1317">
        <ele>1745.85</ele>
        <time>2018-04-19T06:45:04Z</time>
      </trkpt>
      <trkpt lat="42.90675" lon="0.13157">
        <ele>1747.71</ele>
        <time>2018-04-19T06:45:21Z</time>
      </trkpt>
      <trkpt lat="42.90685" lon="0.13161">
        <ele>1748.81</ele>
        <time>2018-04-19T06:45:37Z</time>
      </trkpt>
      <trkpt lat="42.90689" lon="0.13162">
        <ele>1748.65</ele>
        <time>2018-04-19T06:46:08Z</time>
      </trkpt>
      <trkpt lat="42.90692" lon="0.13156">
        <ele>1749.23</ele>
        <time>2018-04-19T06:46:26Z</time>
      </trkpt>
      <trkpt lat="42.90691" lon="0.13157">
        <ele>1749.46</ele>
        <time>2018-04-19T06:47:09Z</time>
      </trkpt>
      <trkpt lat="42.90696" lon="0.1316">
        <ele>1751.23</ele>
        <time>2018-04-19T06:47:26Z</time>
      </trkpt>
      <trkpt lat="42.90705" lon="0.13169">
        <ele>1754.45</ele>
        <time>2018-04-19T06:47:41Z</time>
      </trkpt>
      <trkpt lat="42.90714" lon="0.13179">
        <ele>1757.72</ele>
        <time>2018-04-19T06:47:58Z</time>
      </trkpt>
      <trkpt lat="42.90721" lon="0.13187">
        <ele>1761.1</ele>
        <time>2018-04-19T06:48:14Z</time>
      </trkpt>
      <trkpt lat="42.90729" lon="0.13199">
        <ele>1763.55</ele>
        <time>2018-04-19T06:48:30Z</time>
      </trkpt>
      <trkpt lat="42.90729" lon="0.13201">
        <ele>1764.11</ele>
        <time>2018-04-19T06:48:51Z</time>
      </trkpt>
      <trkpt lat="42.90736" lon="0.13205">
        <ele>1766.77</ele>
        <time>2018-04-19T06:49:06Z</time>
      </trkpt>
      <trkpt lat="42.90744" lon="0.13192">
        <ele>1768.92</ele>
        <time>2018-04-19T06:49:22Z</time>
      </trkpt>
      <trkpt lat="42.90754" lon="0.13182">
        <ele>1770.67</ele>
        <time>2018-04-19T06:49:39Z</time>
      </trkpt>
      <trkpt lat="42.90763" lon="0.13173">
        <ele>1773.8</ele>
        <time>2018-04-19T06:49:55Z</time>
      </trkpt>
      <trkpt lat="42.90769" lon="0.13161">
        <ele>1776.87</ele>
        <time>2018-04-19T06:50:12Z</time>
      </trkpt>
      <trkpt lat="42.90777" lon="0.13155">
        <ele>1778.6</ele>
        <time>2018-04-19T06:50:24Z</time>
      </trkpt>
      <trkpt lat="42.90781" lon="0.13153">
        <ele>1779.12</ele>
        <time>2018-04-19T06:50:42Z</time>
      </trkpt>
      <trkpt lat="42.90787" lon="0.13161">
        <ele>1780.79</ele>
        <time>2018-04-19T06:50:56Z</time>
      </trkpt>
      <trkpt lat="42.90789" lon="0.13165">
        <ele>1781.98</ele>
        <time>2018-04-19T06:51:15Z</time>
      </trkpt>
      <trkpt lat="42.9079" lon="0.13164">
        <ele>1782.61</ele>
        <time>2018-04-19T06:51:33Z</time>
      </trkpt>
      <trkpt lat="42.90791" lon="0.13165">
        <ele>1782.66</ele>
        <time>2018-04-19T06:51:46Z</time>
      </trkpt>
      <trkpt lat="42.90798" lon="0.13173">
        <ele>1785.06</ele>
        <time>2018-04-19T06:51:58Z</time>
      </trkpt>
      <trkpt lat="42.90806" lon="0.13187">
        <ele>1787.88</ele>
        <time>2018-04-19T06:52:15Z</time>
      </trkpt>
      <trkpt lat="42.90811" lon="0.13199">
        <ele>1790.9</ele>
        <time>2018-04-19T06:52:30Z</time>
      </trkpt>
      <trkpt lat="42.90816" lon="0.13212">
        <ele>1794.26</ele>
        <time>2018-04-19T06:52:48Z</time>
      </trkpt>
      <trkpt lat="42.90823" lon="0.13219">
        <ele>1795.91</ele>
        <time>2018-04-19T06:53:06Z</time>
      </trkpt>
      <trkpt lat="42.90824" lon="0.13219">
        <ele>1795.99</ele>
        <time>2018-04-19T06:53:42Z</time>
      </trkpt>
      <trkpt lat="42.90825" lon="0.13217">
        <ele>1796.06</ele>
        <time>2018-04-19T06:54:01Z</time>
      </trkpt>
      <trkpt lat="42.90828" lon="0.13213">
        <ele>1797.49</ele>
        <time>2018-04-19T06:54:22Z</time>
      </trkpt>
      <trkpt lat="42.90833" lon="0.13209">
        <ele>1798.93</ele>
        <time>2018-04-19T06:54:28Z</time>
      </trkpt>
      <trkpt lat="42.9084" lon="0.13196">
        <ele>1801.48</ele>
        <time>2018-04-19T06:54:45Z</time>
      </trkpt>
      <trkpt lat="42.90849" lon="0.13184">
        <ele>1804.88</ele>
        <time>2018-04-19T06:55:04Z</time>
      </trkpt>
      <trkpt lat="42.90861" lon="0.13171">
        <ele>1808.05</ele>
        <time>2018-04-19T06:55:25Z</time>
      </trkpt>
      <trkpt lat="42.90869" lon="0.13162">
        <ele>1810.68</ele>
        <time>2018-04-19T06:55:41Z</time>
      </trkpt>
      <trkpt lat="42.90872" lon="0.13157">
        <ele>1812.9</ele>
        <time>2018-04-19T06:56:00Z</time>
      </trkpt>
      <trkpt lat="42.90873" lon="0.13155">
        <ele>1813.53</ele>
        <time>2018-04-19T06:56:22Z</time>
      </trkpt>
      <trkpt lat="42.90882" lon="0.13147">
        <ele>1816.57</ele>
        <time>2018-04-19T06:56:38Z</time>
      </trkpt>
      <trkpt lat="42.9089" lon="0.13136">
        <ele>1819.38</ele>
        <time>2018-04-19T06:56:55Z</time>
      </trkpt>
      <trkpt lat="42.90896" lon="0.13128">
        <ele>1822.64</ele>
        <time>2018-04-19T06:57:10Z</time>
      </trkpt>
      <trkpt lat="42.90904" lon="0.13115">
        <ele>1825.94</ele>
        <time>2018-04-19T06:57:27Z</time>
      </trkpt>
      <trkpt lat="42.9091" lon="0.13108">
        <ele>1827.96</ele>
        <time>2018-04-19T06:57:45Z</time>
      </trkpt>
      <trkpt lat="42.90916" lon="0.13103">
        <ele>1830.12</ele>
        <time>2018-04-19T06:58:12Z</time>
      </trkpt>
      <trkpt lat="42.90923" lon="0.13096">
        <ele>1832.2</ele>
        <time>2018-04-19T06:58:24Z</time>
      </trkpt>
      <trkpt lat="42.9093" lon="0.13088">
        <ele>1835.3</ele>
        <time>2018-04-19T06:58:42Z</time>
      </trkpt>
      <trkpt lat="42.90933" lon="0.13097">
        <ele>1837.47</ele>
        <time>2018-04-19T06:59:01Z</time>
      </trkpt>
      <trkpt lat="42.90934" lon="0.13102">
        <ele>1838.16</ele>
        <time>2018-04-19T06:59:15Z</time>
      </trkpt>
      <trkpt lat="42.90939" lon="0.13113">
        <ele>1841.48</ele>
        <time>2018-04-19T06:59:35Z</time>
      </trkpt>
      <trkpt lat="42.90948" lon="0.13125">
        <ele>1844.42</ele>
        <time>2018-04-19T06:59:54Z</time>
      </trkpt>
      <trkpt lat="42.90955" lon="0.13111">
        <ele>1847.69</ele>
        <time>2018-04-19T07:00:12Z</time>
      </trkpt>
      <trkpt lat="42.90963" lon="0.13098">
        <ele>1850.68</ele>
        <time>2018-04-19T07:00:31Z</time>
      </trkpt>
      <trkpt lat="42.90966" lon="0.13091">
        <ele>1852.21</ele>
        <time>2018-04-19T07:00:46Z</time>
      </trkpt>
      <trkpt lat="42.90971" lon="0.13081">
        <ele>1855.37</ele>
        <time>2018-04-19T07:01:01Z</time>
      </trkpt>
      <trkpt lat="42.90977" lon="0.13069">
        <ele>1858.43</ele>
        <time>2018-04-19T07:01:18Z</time>
      </trkpt>
      <trkpt lat="42.90982" lon="0.13063">
        <ele>1860.7</ele>
        <time>2018-04-19T07:01:36Z</time>
      </trkpt>
      <trkpt lat="42.90984" lon="0.13067">
        <ele>1861.95</ele>
        <time>2018-04-19T07:02:05Z</time>
      </trkpt>
      <trkpt lat="42.90989" lon="0.13079">
        <ele>1864.38</ele>
        <time>2018-04-19T07:02:21Z</time>
      </trkpt>
      <trkpt lat="42.90993" lon="0.13091">
        <ele>1866.5</ele>
        <time>2018-04-19T07:02:35Z</time>
      </trkpt>
      <trkpt lat="42.90994" lon="0.13091">
        <ele>1866.21</ele>
        <time>2018-04-19T07:02:36Z</time>
      </trkpt>
      <trkpt lat="42.91001" lon="0.13104">
        <ele>1869.36</ele>
        <time>2018-04-19T07:02:52Z</time>
      </trkpt>
      <trkpt lat="42.91007" lon="0.13117">
        <ele>1872.44</ele>
        <time>2018-04-19T07:03:09Z</time>
      </trkpt>
      <trkpt lat="42.91015" lon="0.13127">
        <ele>1874.57</ele>
        <time>2018-04-19T07:03:32Z</time>
      </trkpt>
      <trkpt lat="42.91019" lon="0.13132">
        <ele>1875.8</ele>
        <time>2018-04-19T07:04:01Z</time>
      </trkpt>
      <trkpt lat="42.91022" lon="0.13138">
        <ele>1877.58</ele>
        <time>2018-04-19T07:04:16Z</time>
      </trkpt>
      <trkpt lat="42.91028" lon="0.13148">
        <ele>1880.38</ele>
        <time>2018-04-19T07:04:33Z</time>
      </trkpt>
      <trkpt lat="42.91034" lon="0.1316">
        <ele>1882.8</ele>
        <time>2018-04-19T07:04:50Z</time>
      </trkpt>
      <trkpt lat="42.9104" lon="0.13169">
        <ele>1884.85</ele>
        <time>2018-04-19T07:05:03Z</time>
      </trkpt>
      <trkpt lat="42.91046" lon="0.13173">
        <ele>1884.86</ele>
        <time>2018-04-19T07:05:23Z</time>
      </trkpt>
      <trkpt lat="42.91049" lon="0.13171">
        <ele>1885.3</ele>
        <time>2018-04-19T07:05:48Z</time>
      </trkpt>
      <trkpt lat="42.91056" lon="0.13178">
        <ele>1887.84</ele>
        <time>2018-04-19T07:06:04Z</time>
      </trkpt>
      <trkpt lat="42.91059" lon="0.1318">
        <ele>1889.26</ele>
        <time>2018-04-19T07:06:11Z</time>
      </trkpt>
      <trkpt lat="42.91064" lon="0.13168">
        <ele>1890.67</ele>
        <time>2018-04-19T07:06:24Z</time>
      </trkpt>
      <trkpt lat="42.91066" lon="0.1315">
        <ele>1893.71</ele>
        <time>2018-04-19T07:06:42Z</time>
      </trkpt>
      <trkpt lat="42.91069" lon="0.13131">
        <ele>1896.56</ele>
        <time>2018-04-19T07:07:01Z</time>
      </trkpt>
      <trkpt lat="42.91077" lon="0.13113">
        <ele>1898.77</ele>
        <time>2018-04-19T07:07:20Z</time>
      </trkpt>
      <trkpt lat="42.91086" lon="0.13096">
        <ele>1902.3</ele>
        <time>2018-04-19T07:07:40Z</time>
      </trkpt>
      <trkpt lat="42.91094" lon="0.13087">
        <ele>1905.5</ele>
        <time>2018-04-19T07:07:58Z</time>
      </trkpt>
      <trkpt lat="42.91103" lon="0.131">
        <ele>1907.28</ele>
        <time>2018-04-19T07:08:15Z</time>
      </trkpt>
      <trkpt lat="42.9111" lon="0.13112">
        <ele>1910.19</ele>
        <time>2018-04-19T07:08:31Z</time>
      </trkpt>
      <trkpt lat="42.91115" lon="0.13127">
        <ele>1912.51</ele>
        <time>2018-04-19T07:08:49Z</time>
      </trkpt>
      <trkpt lat="42.91121" lon="0.13138">
        <ele>1914.87</ele>
        <time>2018-04-19T07:09:05Z</time>
      </trkpt>
      <trkpt lat="42.91124" lon="0.13151">
        <ele>1917.28</ele>
        <time>2018-04-19T07:09:22Z</time>
      </trkpt>
      <trkpt lat="42.91128" lon="0.13163">
        <ele>1919.86</ele>
        <time>2018-04-19T07:09:39Z</time>
      </trkpt>
      <trkpt lat="42.91131" lon="0.13173">
        <ele>1921.69</ele>
        <time>2018-04-19T07:09:52Z</time>
      </trkpt>
      <trkpt lat="42.91136" lon="0.13186">
        <ele>1924.23</ele>
        <time>2018-04-19T07:10:08Z</time>
      </trkpt>
      <trkpt lat="42.91142" lon="0.13199">
        <ele>1926.32</ele>
        <time>2018-04-19T07:10:24Z</time>
      </trkpt>
      <trkpt lat="42.91149" lon="0.13207">
        <ele>1927.84</ele>
        <time>2018-04-19T07:10:41Z</time>
      </trkpt>
      <trkpt lat="42.91152" lon="0.13197">
        <ele>1930.47</ele>
        <time>2018-04-19T07:11:01Z</time>
      </trkpt>
      <trkpt lat="42.91157" lon="0.13186">
        <ele>1931.75</ele>
        <time>2018-04-19T07:11:19Z</time>
      </trkpt>
      <trkpt lat="42.91158" lon="0.13186">
        <ele>1930.86</ele>
        <time>2018-04-19T07:11:38Z</time>
      </trkpt>
      <trkpt lat="42.91156" lon="0.13185">
        <ele>1931.32</ele>
        <time>2018-04-19T07:12:39Z</time>
      </trkpt>
      <trkpt lat="42.91157" lon="0.13184">
        <ele>1931.38</ele>
        <time>2018-04-19T07:13:26Z</time>
      </trkpt>
      <trkpt lat="42.91157" lon="0.13185">
        <ele>1932.63</ele>
        <time>2018-04-19T07:14:04Z</time>
      </trkpt>
      <trkpt lat="42.91157" lon="0.13185">
        <ele>1932.95</ele>
        <time>2018-04-19T07:14:26Z</time>
      </trkpt>
      <trkpt lat="42.91157" lon="0.13184">
        <ele>1933</ele>
        <time>2018-04-19T07:14:56Z</time>
      </trkpt>
      <trkpt lat="42.91157" lon="0.13185">
        <ele>1932.41</ele>
        <time>2018-04-19T07:15:15Z</time>
      </trkpt>
      <trkpt lat="42.91157" lon="0.13185">
        <ele>1933.01</ele>
        <time>2018-04-19T07:15:54Z</time>
      </trkpt>
      <trkpt lat="42.91159" lon="0.13179">
        <ele>1933.29</ele>
        <time>2018-04-19T07:16:14Z</time>
      </trkpt>
      <trkpt lat="42.9116" lon="0.13177">
        <ele>1932.6</ele>
        <time>2018-04-19T07:16:16Z</time>
      </trkpt>
      <trkpt lat="42.91164" lon="0.13156">
        <ele>1931.42</ele>
        <time>2018-04-19T07:16:32Z</time>
      </trkpt>
      <trkpt lat="42.91165" lon="0.13151">
        <ele>1930.83</ele>
        <time>2018-04-19T07:16:37Z</time>
      </trkpt>
      <trkpt lat="42.91165" lon="0.13147">
        <ele>1930.53</ele>
        <time>2018-04-19T07:16:40Z</time>
      </trkpt>
      <trkpt lat="42.91166" lon="0.13119">
        <ele>1929.38</ele>
        <time>2018-04-19T07:16:58Z</time>
      </trkpt>
      <trkpt lat="42.91177" lon="0.13102">
        <ele>1926.26</ele>
        <time>2018-04-19T07:17:13Z</time>
      </trkpt>
      <trkpt lat="42.91189" lon="0.13091">
        <ele>1924.69</ele>
        <time>2018-04-19T07:17:26Z</time>
      </trkpt>
      <trkpt lat="42.91205" lon="0.13085">
        <ele>1926.92</ele>
        <time>2018-04-19T07:17:42Z</time>
      </trkpt>
      <trkpt lat="42.91219" lon="0.13082">
        <ele>1928.6</ele>
        <time>2018-04-19T07:17:58Z</time>
      </trkpt>
      <trkpt lat="42.91229" lon="0.13083">
        <ele>1930.23</ele>
        <time>2018-04-19T07:18:12Z</time>
      </trkpt>
      <trkpt lat="42.91239" lon="0.13083">
        <ele>1932.03</ele>
        <time>2018-04-19T07:18:27Z</time>
      </trkpt>
      <trkpt lat="42.9124" lon="0.13083">
        <ele>1932.43</ele>
        <time>2018-04-19T07:18:29Z</time>
      </trkpt>
      <trkpt lat="42.91249" lon="0.13083">
        <ele>1933.21</ele>
        <time>2018-04-19T07:18:39Z</time>
      </trkpt>
      <trkpt lat="42.91257" lon="0.13079">
        <ele>1935.13</ele>
        <time>2018-04-19T07:18:56Z</time>
      </trkpt>
      <trkpt lat="42.91266" lon="0.13078">
        <ele>1938.16</ele>
        <time>2018-04-19T07:19:12Z</time>
      </trkpt>
      <trkpt lat="42.91275" lon="0.13078">
        <ele>1941.17</ele>
        <time>2018-04-19T07:19:30Z</time>
      </trkpt>
      <trkpt lat="42.91283" lon="0.13079">
        <ele>1942.9</ele>
        <time>2018-04-19T07:19:47Z</time>
      </trkpt>
      <trkpt lat="42.91291" lon="0.13079">
        <ele>1945.23</ele>
        <time>2018-04-19T07:20:00Z</time>
      </trkpt>
      <trkpt lat="42.91297" lon="0.13079">
        <ele>1946.01</ele>
        <time>2018-04-19T07:20:15Z</time>
      </trkpt>
      <trkpt lat="42.91308" lon="0.13076">
        <ele>1948.89</ele>
        <time>2018-04-19T07:20:33Z</time>
      </trkpt>
      <trkpt lat="42.91317" lon="0.13076">
        <ele>1950.9</ele>
        <time>2018-04-19T07:20:48Z</time>
      </trkpt>
      <trkpt lat="42.91325" lon="0.13078">
        <ele>1953.55</ele>
        <time>2018-04-19T07:21:05Z</time>
      </trkpt>
      <trkpt lat="42.91335" lon="0.13078">
        <ele>1956.09</ele>
        <time>2018-04-19T07:21:23Z</time>
      </trkpt>
      <trkpt lat="42.91341" lon="0.13081">
        <ele>1957.97</ele>
        <time>2018-04-19T07:21:38Z</time>
      </trkpt>
      <trkpt lat="42.91347" lon="0.13087">
        <ele>1959.41</ele>
        <time>2018-04-19T07:21:52Z</time>
      </trkpt>
      <trkpt lat="42.91357" lon="0.13093">
        <ele>1961.75</ele>
        <time>2018-04-19T07:22:10Z</time>
      </trkpt>
      <trkpt lat="42.91364" lon="0.13098">
        <ele>1964.03</ele>
        <time>2018-04-19T07:22:25Z</time>
      </trkpt>
      <trkpt lat="42.91371" lon="0.13105">
        <ele>1965.75</ele>
        <time>2018-04-19T07:22:40Z</time>
      </trkpt>
      <trkpt lat="42.9138" lon="0.13111">
        <ele>1968.56</ele>
        <time>2018-04-19T07:22:55Z</time>
      </trkpt>
      <trkpt lat="42.91388" lon="0.13117">
        <ele>1970.98</ele>
        <time>2018-04-19T07:23:12Z</time>
      </trkpt>
      <trkpt lat="42.91394" lon="0.13114">
        <ele>1973.33</ele>
        <time>2018-04-19T07:23:28Z</time>
      </trkpt>
      <trkpt lat="42.91402" lon="0.13107">
        <ele>1975.97</ele>
        <time>2018-04-19T07:23:45Z</time>
      </trkpt>
      <trkpt lat="42.91409" lon="0.13097">
        <ele>1978.76</ele>
        <time>2018-04-19T07:24:03Z</time>
      </trkpt>
      <trkpt lat="42.91417" lon="0.13094">
        <ele>1981.09</ele>
        <time>2018-04-19T07:24:22Z</time>
      </trkpt>
      <trkpt lat="42.91427" lon="0.13101">
        <ele>1983.15</ele>
        <time>2018-04-19T07:24:40Z</time>
      </trkpt>
      <trkpt lat="42.91435" lon="0.13107">
        <ele>1984.98</ele>
        <time>2018-04-19T07:24:55Z</time>
      </trkpt>
      <trkpt lat="42.91445" lon="0.13113">
        <ele>1987.24</ele>
        <time>2018-04-19T07:25:11Z</time>
      </trkpt>
      <trkpt lat="42.91452" lon="0.13118">
        <ele>1988.95</ele>
        <time>2018-04-19T07:25:25Z</time>
      </trkpt>
      <trkpt lat="42.9146" lon="0.13127">
        <ele>1991.97</ele>
        <time>2018-04-19T07:25:43Z</time>
      </trkpt>
      <trkpt lat="42.91465" lon="0.13127">
        <ele>1992.63</ele>
        <time>2018-04-19T07:26:13Z</time>
      </trkpt>
      <trkpt lat="42.91474" lon="0.13125">
        <ele>1995.97</ele>
        <time>2018-04-19T07:26:30Z</time>
      </trkpt>
      <trkpt lat="42.91481" lon="0.13129">
        <ele>1997.09</ele>
        <time>2018-04-19T07:26:48Z</time>
      </trkpt>
      <trkpt lat="42.91487" lon="0.13132">
        <ele>1998.75</ele>
        <time>2018-04-19T07:27:01Z</time>
      </trkpt>
      <trkpt lat="42.91496" lon="0.13131">
        <ele>2000.9</ele>
        <time>2018-04-19T07:27:19Z</time>
      </trkpt>
      <trkpt lat="42.91506" lon="0.13133">
        <ele>2003.56</ele>
        <time>2018-04-19T07:27:36Z</time>
      </trkpt>
      <trkpt lat="42.91514" lon="0.13132">
        <ele>2005.4</ele>
        <time>2018-04-19T07:27:52Z</time>
      </trkpt>
      <trkpt lat="42.91517" lon="0.13131">
        <ele>2006.44</ele>
        <time>2018-04-19T07:28:08Z</time>
      </trkpt>
      <trkpt lat="42.91529" lon="0.13131">
        <ele>2009.48</ele>
        <time>2018-04-19T07:28:25Z</time>
      </trkpt>
      <trkpt lat="42.91542" lon="0.1313">
        <ele>2011.09</ele>
        <time>2018-04-19T07:28:45Z</time>
      </trkpt>
      <trkpt lat="42.91553" lon="0.13132">
        <ele>2014.44</ele>
        <time>2018-04-19T07:29:02Z</time>
      </trkpt>
      <trkpt lat="42.91563" lon="0.13135">
        <ele>2016.52</ele>
        <time>2018-04-19T07:29:19Z</time>
      </trkpt>
      <trkpt lat="42.91571" lon="0.13139">
        <ele>2017.63</ele>
        <time>2018-04-19T07:29:37Z</time>
      </trkpt>
      <trkpt lat="42.91578" lon="0.13143">
        <ele>2019.02</ele>
        <time>2018-04-19T07:29:58Z</time>
      </trkpt>
      <trkpt lat="42.91585" lon="0.13143">
        <ele>2021.79</ele>
        <time>2018-04-19T07:30:16Z</time>
      </trkpt>
      <trkpt lat="42.91587" lon="0.13137">
        <ele>2023.95</ele>
        <time>2018-04-19T07:30:34Z</time>
      </trkpt>
      <trkpt lat="42.91591" lon="0.1314">
        <ele>2024.93</ele>
        <time>2018-04-19T07:30:42Z</time>
      </trkpt>
      <trkpt lat="42.91598" lon="0.13151">
        <ele>2026.89</ele>
        <time>2018-04-19T07:30:59Z</time>
      </trkpt>
      <trkpt lat="42.91603" lon="0.13166">
        <ele>2029.21</ele>
        <time>2018-04-19T07:31:18Z</time>
      </trkpt>
      <trkpt lat="42.91607" lon="0.13162">
        <ele>2030.77</ele>
        <time>2018-04-19T07:31:36Z</time>
      </trkpt>
      <trkpt lat="42.91611" lon="0.13152">
        <ele>2032.24</ele>
        <time>2018-04-19T07:31:53Z</time>
      </trkpt>
      <trkpt lat="42.91615" lon="0.13147">
        <ele>2034.86</ele>
        <time>2018-04-19T07:32:14Z</time>
      </trkpt>
      <trkpt lat="42.9162" lon="0.13156">
        <ele>2037.2</ele>
        <time>2018-04-19T07:32:27Z</time>
      </trkpt>
      <trkpt lat="42.91622" lon="0.13165">
        <ele>2039.73</ele>
        <time>2018-04-19T07:32:44Z</time>
      </trkpt>
      <trkpt lat="42.91628" lon="0.13158">
        <ele>2041.07</ele>
        <time>2018-04-19T07:33:02Z</time>
      </trkpt>
      <trkpt lat="42.91629" lon="0.13157">
        <ele>2042.06</ele>
        <time>2018-04-19T07:33:23Z</time>
      </trkpt>
      <trkpt lat="42.91633" lon="0.13159">
        <ele>2044.01</ele>
        <time>2018-04-19T07:33:43Z</time>
      </trkpt>
      <trkpt lat="42.91635" lon="0.13161">
        <ele>2043.65</ele>
        <time>2018-04-19T07:33:59Z</time>
      </trkpt>
      <trkpt lat="42.9164" lon="0.13167">
        <ele>2046.3</ele>
        <time>2018-04-19T07:34:13Z</time>
      </trkpt>
      <trkpt lat="42.91645" lon="0.13158">
        <ele>2048.07</ele>
        <time>2018-04-19T07:34:28Z</time>
      </trkpt>
      <trkpt lat="42.91646" lon="0.13148">
        <ele>2051.09</ele>
        <time>2018-04-19T07:34:42Z</time>
      </trkpt>
      <trkpt lat="42.9165" lon="0.13149">
        <ele>2051.9</ele>
        <time>2018-04-19T07:35:03Z</time>
      </trkpt>
      <trkpt lat="42.91657" lon="0.13161">
        <ele>2054.61</ele>
        <time>2018-04-19T07:35:20Z</time>
      </trkpt>
      <trkpt lat="42.9166" lon="0.13157">
        <ele>2055.76</ele>
        <time>2018-04-19T07:35:37Z</time>
      </trkpt>
      <trkpt lat="42.91663" lon="0.13145">
        <ele>2058.49</ele>
        <time>2018-04-19T07:35:58Z</time>
      </trkpt>
      <trkpt lat="42.91666" lon="0.13147">
        <ele>2060.22</ele>
        <time>2018-04-19T07:36:14Z</time>
      </trkpt>
      <trkpt lat="42.91671" lon="0.13151">
        <ele>2060.71</ele>
        <time>2018-04-19T07:36:33Z</time>
      </trkpt>
      <trkpt lat="42.91676" lon="0.13156">
        <ele>2062.33</ele>
        <time>2018-04-19T07:36:46Z</time>
      </trkpt>
      <trkpt lat="42.91678" lon="0.13165">
        <ele>2064.42</ele>
        <time>2018-04-19T07:37:01Z</time>
      </trkpt>
      <trkpt lat="42.91683" lon="0.13157">
        <ele>2066.41</ele>
        <time>2018-04-19T07:37:17Z</time>
      </trkpt>
      <trkpt lat="42.91687" lon="0.13149">
        <ele>2068.68</ele>
        <time>2018-04-19T07:37:29Z</time>
      </trkpt>
      <trkpt lat="42.91691" lon="0.13151">
        <ele>2070.2</ele>
        <time>2018-04-19T07:37:45Z</time>
      </trkpt>
      <trkpt lat="42.91697" lon="0.13164">
        <ele>2072.65</ele>
        <time>2018-04-19T07:38:01Z</time>
      </trkpt>
      <trkpt lat="42.917" lon="0.13169">
        <ele>2073.14</ele>
        <time>2018-04-19T07:38:13Z</time>
      </trkpt>
      <trkpt lat="42.91705" lon="0.1316">
        <ele>2075.58</ele>
        <time>2018-04-19T07:38:29Z</time>
      </trkpt>
      <trkpt lat="42.91707" lon="0.13149">
        <ele>2078.76</ele>
        <time>2018-04-19T07:38:47Z</time>
      </trkpt>
      <trkpt lat="42.91708" lon="0.13146">
        <ele>2079.55</ele>
        <time>2018-04-19T07:39:05Z</time>
      </trkpt>
      <trkpt lat="42.91709" lon="0.13149">
        <ele>2079.76</ele>
        <time>2018-04-19T07:39:22Z</time>
      </trkpt>
      <trkpt lat="42.91713" lon="0.13161">
        <ele>2081.47</ele>
        <time>2018-04-19T07:39:35Z</time>
      </trkpt>
      <trkpt lat="42.91719" lon="0.13173">
        <ele>2083.91</ele>
        <time>2018-04-19T07:39:53Z</time>
      </trkpt>
      <trkpt lat="42.91722" lon="0.1317">
        <ele>2085.89</ele>
        <time>2018-04-19T07:40:09Z</time>
      </trkpt>
      <trkpt lat="42.91726" lon="0.13167">
        <ele>2086.53</ele>
        <time>2018-04-19T07:40:27Z</time>
      </trkpt>
      <trkpt lat="42.91726" lon="0.13167">
        <ele>2086.35</ele>
        <time>2018-04-19T07:40:56Z</time>
      </trkpt>
      <trkpt lat="42.91726" lon="0.13168">
        <ele>2086.45</ele>
        <time>2018-04-19T07:41:28Z</time>
      </trkpt>
      <trkpt lat="42.91727" lon="0.13163">
        <ele>2087.45</ele>
        <time>2018-04-19T07:41:47Z</time>
      </trkpt>
      <trkpt lat="42.9173" lon="0.13159">
        <ele>2089.41</ele>
        <time>2018-04-19T07:42:05Z</time>
      </trkpt>
      <trkpt lat="42.91731" lon="0.13161">
        <ele>2089.93</ele>
        <time>2018-04-19T07:42:07Z</time>
      </trkpt>
      <trkpt lat="42.91735" lon="0.13171">
        <ele>2092.16</ele>
        <time>2018-04-19T07:42:22Z</time>
      </trkpt>
      <trkpt lat="42.91736" lon="0.13182">
        <ele>2094.79</ele>
        <time>2018-04-19T07:42:39Z</time>
      </trkpt>
      <trkpt lat="42.91743" lon="0.13175">
        <ele>2095.84</ele>
        <time>2018-04-19T07:42:59Z</time>
      </trkpt>
      <trkpt lat="42.9175" lon="0.13161">
        <ele>2097.91</ele>
        <time>2018-04-19T07:43:19Z</time>
      </trkpt>
      <trkpt lat="42.91752" lon="0.13156">
        <ele>2100.08</ele>
        <time>2018-04-19T07:43:36Z</time>
      </trkpt>
      <trkpt lat="42.91755" lon="0.13162">
        <ele>2102.11</ele>
        <time>2018-04-19T07:43:54Z</time>
      </trkpt>
      <trkpt lat="42.91759" lon="0.1317">
        <ele>2103.45</ele>
        <time>2018-04-19T07:44:10Z</time>
      </trkpt>
      <trkpt lat="42.91761" lon="0.1318">
        <ele>2105.41</ele>
        <time>2018-04-19T07:44:33Z</time>
      </trkpt>
      <trkpt lat="42.91761" lon="0.13193">
        <ele>2107.95</ele>
        <time>2018-04-19T07:44:51Z</time>
      </trkpt>
      <trkpt lat="42.9176" lon="0.13205">
        <ele>2110.46</ele>
        <time>2018-04-19T07:45:08Z</time>
      </trkpt>
      <trkpt lat="42.91765" lon="0.13202">
        <ele>2111.45</ele>
        <time>2018-04-19T07:45:22Z</time>
      </trkpt>
      <trkpt lat="42.91773" lon="0.13194">
        <ele>2114</ele>
        <time>2018-04-19T07:45:45Z</time>
      </trkpt>
      <trkpt lat="42.91778" lon="0.13182">
        <ele>2117.36</ele>
        <time>2018-04-19T07:46:01Z</time>
      </trkpt>
      <trkpt lat="42.91779" lon="0.13174">
        <ele>2118.76</ele>
        <time>2018-04-19T07:46:17Z</time>
      </trkpt>
      <trkpt lat="42.91779" lon="0.13164">
        <ele>2121.17</ele>
        <time>2018-04-19T07:46:36Z</time>
      </trkpt>
      <trkpt lat="42.91781" lon="0.13152">
        <ele>2123.44</ele>
        <time>2018-04-19T07:46:56Z</time>
      </trkpt>
      <trkpt lat="42.91781" lon="0.13147">
        <ele>2123.83</ele>
        <time>2018-04-19T07:47:18Z</time>
      </trkpt>
      <trkpt lat="42.91783" lon="0.13145">
        <ele>2125.19</ele>
        <time>2018-04-19T07:47:31Z</time>
      </trkpt>
      <trkpt lat="42.91788" lon="0.13156">
        <ele>2127.21</ele>
        <time>2018-04-19T07:47:48Z</time>
      </trkpt>
      <trkpt lat="42.91791" lon="0.13163">
        <ele>2128.74</ele>
        <time>2018-04-19T07:48:02Z</time>
      </trkpt>
      <trkpt lat="42.91798" lon="0.13174">
        <ele>2131.21</ele>
        <time>2018-04-19T07:48:19Z</time>
      </trkpt>
      <trkpt lat="42.91802" lon="0.1318">
        <ele>2132.25</ele>
        <time>2018-04-19T07:48:38Z</time>
      </trkpt>
      <trkpt lat="42.91806" lon="0.13186">
        <ele>2133.93</ele>
        <time>2018-04-19T07:48:54Z</time>
      </trkpt>
      <trkpt lat="42.91807" lon="0.13186">
        <ele>2134.01</ele>
        <time>2018-04-19T07:49:41Z</time>
      </trkpt>
      <trkpt lat="42.91807" lon="0.13187">
        <ele>2134.5</ele>
        <time>2018-04-19T07:50:31Z</time>
      </trkpt>
      <trkpt lat="42.9181" lon="0.13196">
        <ele>2136.71</ele>
        <time>2018-04-19T07:50:45Z</time>
      </trkpt>
      <trkpt lat="42.91814" lon="0.13201">
        <ele>2138.08</ele>
        <time>2018-04-19T07:51:03Z</time>
      </trkpt>
      <trkpt lat="42.91824" lon="0.13206">
        <ele>2140.34</ele>
        <time>2018-04-19T07:51:18Z</time>
      </trkpt>
      <trkpt lat="42.91834" lon="0.13206">
        <ele>2142.35</ele>
        <time>2018-04-19T07:51:32Z</time>
      </trkpt>
      <trkpt lat="42.91846" lon="0.13205">
        <ele>2143.67</ele>
        <time>2018-04-19T07:51:48Z</time>
      </trkpt>
      <trkpt lat="42.91848" lon="0.13204">
        <ele>2144.16</ele>
        <time>2018-04-19T07:52:04Z</time>
      </trkpt>
      <trkpt lat="42.91862" lon="0.13202">
        <ele>2146.6</ele>
        <time>2018-04-19T07:52:22Z</time>
      </trkpt>
      <trkpt lat="42.91875" lon="0.13204">
        <ele>2149.16</ele>
        <time>2018-04-19T07:52:40Z</time>
      </trkpt>
      <trkpt lat="42.91888" lon="0.13204">
        <ele>2150.75</ele>
        <time>2018-04-19T07:52:57Z</time>
      </trkpt>
      <trkpt lat="42.91889" lon="0.13205">
        <ele>2151.54</ele>
        <time>2018-04-19T07:53:16Z</time>
      </trkpt>
      <trkpt lat="42.91893" lon="0.13205">
        <ele>2152.5</ele>
        <time>2018-04-19T07:53:20Z</time>
      </trkpt>
      <trkpt lat="42.91894" lon="0.13205">
        <ele>2152.7</ele>
        <time>2018-04-19T07:53:22Z</time>
      </trkpt>
      <trkpt lat="42.91908" lon="0.13211">
        <ele>2153.65</ele>
        <time>2018-04-19T07:53:39Z</time>
      </trkpt>
      <trkpt lat="42.91916" lon="0.13219">
        <ele>2155.48</ele>
        <time>2018-04-19T07:53:54Z</time>
      </trkpt>
      <trkpt lat="42.91926" lon="0.13224">
        <ele>2157.22</ele>
        <time>2018-04-19T07:54:10Z</time>
      </trkpt>
      <trkpt lat="42.9193" lon="0.13226">
        <ele>2157.84</ele>
        <time>2018-04-19T07:54:15Z</time>
      </trkpt>
      <trkpt lat="42.91937" lon="0.13228">
        <ele>2159.35</ele>
        <time>2018-04-19T07:54:30Z</time>
      </trkpt>
      <trkpt lat="42.91946" lon="0.13234">
        <ele>2160.96</ele>
        <time>2018-04-19T07:54:44Z</time>
      </trkpt>
      <trkpt lat="42.91955" lon="0.13238">
        <ele>2163.03</ele>
        <time>2018-04-19T07:55:00Z</time>
      </trkpt>
      <trkpt lat="42.91964" lon="0.13244">
        <ele>2165.25</ele>
        <time>2018-04-19T07:55:16Z</time>
      </trkpt>
      <trkpt lat="42.91973" lon="0.13248">
        <ele>2167.75</ele>
        <time>2018-04-19T07:55:35Z</time>
      </trkpt>
      <trkpt lat="42.91977" lon="0.13247">
        <ele>2168.76</ele>
        <time>2018-04-19T07:56:00Z</time>
      </trkpt>
      <trkpt lat="42.91989" lon="0.13247">
        <ele>2171.61</ele>
        <time>2018-04-19T07:56:16Z</time>
      </trkpt>
      <trkpt lat="42.92" lon="0.13239">
        <ele>2174.02</ele>
        <time>2018-04-19T07:56:34Z</time>
      </trkpt>
      <trkpt lat="42.9201" lon="0.13234">
        <ele>2175.56</ele>
        <time>2018-04-19T07:56:47Z</time>
      </trkpt>
      <trkpt lat="42.92018" lon="0.13233">
        <ele>2176.64</ele>
        <time>2018-04-19T07:56:58Z</time>
      </trkpt>
      <trkpt lat="42.92027" lon="0.13238">
        <ele>2177.45</ele>
        <time>2018-04-19T07:57:13Z</time>
      </trkpt>
      <trkpt lat="42.92039" lon="0.13234">
        <ele>2178.97</ele>
        <time>2018-04-19T07:57:31Z</time>
      </trkpt>
      <trkpt lat="42.92042" lon="0.13233">
        <ele>2179.76</ele>
        <time>2018-04-19T07:58:04Z</time>
      </trkpt>
      <trkpt lat="42.92042" lon="0.13233">
        <ele>2178.75</ele>
        <time>2018-04-19T07:58:10Z</time>
      </trkpt>
      <trkpt lat="42.92048" lon="0.1323">
        <ele>2179.93</ele>
        <time>2018-04-19T07:58:15Z</time>
      </trkpt>
      <trkpt lat="42.92052" lon="0.13232">
        <ele>2180.07</ele>
        <time>2018-04-19T07:58:29Z</time>
      </trkpt>
      <trkpt lat="42.92051" lon="0.13232">
        <ele>2178.86</ele>
        <time>2018-04-19T07:58:52Z</time>
      </trkpt>
      <trkpt lat="42.92051" lon="0.13233">
        <ele>2178.86</ele>
        <time>2018-04-19T07:59:49Z</time>
      </trkpt>
      <trkpt lat="42.9205" lon="0.13235">
        <ele>2178.92</ele>
        <time>2018-04-19T08:00:21Z</time>
      </trkpt>
      <trkpt lat="42.92051" lon="0.13235">
        <ele>2179.72</ele>
        <time>2018-04-19T08:00:50Z</time>
      </trkpt>
      <trkpt lat="42.92051" lon="0.13235">
        <ele>2179.26</ele>
        <time>2018-04-19T08:01:11Z</time>
      </trkpt>
      <trkpt lat="42.92051" lon="0.13236">
        <ele>2180.28</ele>
        <time>2018-04-19T08:01:27Z</time>
      </trkpt>
      <trkpt lat="42.9205" lon="0.13238">
        <ele>2180.24</ele>
        <time>2018-04-19T08:01:51Z</time>
      </trkpt>
      <trkpt lat="42.92049" lon="0.13241">
        <ele>2180.53</ele>
        <time>2018-04-19T08:02:17Z</time>
      </trkpt>
      <trkpt lat="42.9205" lon="0.13237">
        <ele>2179.56</ele>
        <time>2018-04-19T08:02:55Z</time>
      </trkpt>
      <trkpt lat="42.92052" lon="0.13234">
        <ele>2179.95</ele>
        <time>2018-04-19T08:03:31Z</time>
      </trkpt>
      <trkpt lat="42.9205" lon="0.13236">
        <ele>2181.04</ele>
        <time>2018-04-19T08:03:51Z</time>
      </trkpt>
      <trkpt lat="42.92048" lon="0.13238">
        <ele>2181.46</ele>
        <time>2018-04-19T08:04:22Z</time>
      </trkpt>
      <trkpt lat="42.92049" lon="0.13236">
        <ele>2181.26</ele>
        <time>2018-04-19T08:04:46Z</time>
      </trkpt>
      <trkpt lat="42.9205" lon="0.13233">
        <ele>2181.51</ele>
        <time>2018-04-19T08:05:11Z</time>
      </trkpt>
      <trkpt lat="42.9205" lon="0.13232">
        <ele>2181.41</ele>
        <time>2018-04-19T08:05:40Z</time>
      </trkpt>
      <trkpt lat="42.9205" lon="0.13232">
        <ele>2182</ele>
        <time>2018-04-19T08:06:09Z</time>
      </trkpt>
      <trkpt lat="42.9205" lon="0.13231">
        <ele>2181.77</ele>
        <time>2018-04-19T08:06:39Z</time>
      </trkpt>
      <trkpt lat="42.9205" lon="0.13232">
        <ele>2182.25</ele>
        <time>2018-04-19T08:06:59Z</time>
      </trkpt>
      <trkpt lat="42.92052" lon="0.13233">
        <ele>2181.94</ele>
        <time>2018-04-19T08:07:38Z</time>
      </trkpt>
      <trkpt lat="42.92055" lon="0.13233">
        <ele>2182.22</ele>
        <time>2018-04-19T08:08:13Z</time>
      </trkpt>
      <trkpt lat="42.92056" lon="0.13234">
        <ele>2182.31</ele>
        <time>2018-04-19T08:08:14Z</time>
      </trkpt>
      <trkpt lat="42.92076" lon="0.13238">
        <ele>2182.21</ele>
        <time>2018-04-19T08:08:33Z</time>
      </trkpt>
      <trkpt lat="42.92095" lon="0.13237">
        <ele>2183.22</ele>
        <time>2018-04-19T08:08:53Z</time>
      </trkpt>
      <trkpt lat="42.92115" lon="0.13242">
        <ele>2184.74</ele>
        <time>2018-04-19T08:09:13Z</time>
      </trkpt>
      <trkpt lat="42.92124" lon="0.13246">
        <ele>2185.82</ele>
        <time>2018-04-19T08:09:28Z</time>
      </trkpt>
      <trkpt lat="42.92125" lon="0.13246">
        <ele>2185.71</ele>
        <time>2018-04-19T08:09:30Z</time>
      </trkpt>
      <trkpt lat="42.92127" lon="0.13246">
        <ele>2185.91</ele>
        <time>2018-04-19T08:09:32Z</time>
      </trkpt>
      <trkpt lat="42.92146" lon="0.13252">
        <ele>2187.03</ele>
        <time>2018-04-19T08:09:52Z</time>
      </trkpt>
      <trkpt lat="42.92153" lon="0.13256">
        <ele>2186.93</ele>
        <time>2018-04-19T08:10:04Z</time>
      </trkpt>
      <trkpt lat="42.92157" lon="0.1326">
        <ele>2186.82</ele>
        <time>2018-04-19T08:10:09Z</time>
      </trkpt>
      <trkpt lat="42.9217" lon="0.13274">
        <ele>2187.2</ele>
        <time>2018-04-19T08:10:26Z</time>
      </trkpt>
      <trkpt lat="42.92185" lon="0.13283">
        <ele>2186.6</ele>
        <time>2018-04-19T08:10:43Z</time>
      </trkpt>
      <trkpt lat="42.92188" lon="0.13285">
        <ele>2187.09</ele>
        <time>2018-04-19T08:10:47Z</time>
      </trkpt>
      <trkpt lat="42.92196" lon="0.13312">
        <ele>2187.79</ele>
        <time>2018-04-19T08:11:09Z</time>
      </trkpt>
      <trkpt lat="42.92205" lon="0.13313">
        <ele>2189.18</ele>
        <time>2018-04-19T08:11:24Z</time>
      </trkpt>
      <trkpt lat="42.92211" lon="0.13312">
        <ele>2190.14</ele>
        <time>2018-04-19T08:11:30Z</time>
      </trkpt>
      <trkpt lat="42.92225" lon="0.13307">
        <ele>2192.43</ele>
        <time>2018-04-19T08:11:46Z</time>
      </trkpt>
      <trkpt lat="42.92235" lon="0.13303">
        <ele>2193.23</ele>
        <time>2018-04-19T08:12:05Z</time>
      </trkpt>
      <trkpt lat="42.92236" lon="0.13303">
        <ele>2193.91</ele>
        <time>2018-04-19T08:12:08Z</time>
      </trkpt>
      <trkpt lat="42.9224" lon="0.13302">
        <ele>2194.27</ele>
        <time>2018-04-19T08:12:12Z</time>
      </trkpt>
      <trkpt lat="42.92256" lon="0.133">
        <ele>2196.37</ele>
        <time>2018-04-19T08:12:29Z</time>
      </trkpt>
      <trkpt lat="42.92271" lon="0.133">
        <ele>2198.51</ele>
        <time>2018-04-19T08:12:45Z</time>
      </trkpt>
      <trkpt lat="42.92272" lon="0.133">
        <ele>2198.73</ele>
        <time>2018-04-19T08:12:46Z</time>
      </trkpt>
      <trkpt lat="42.92287" lon="0.13302">
        <ele>2201.69</ele>
        <time>2018-04-19T08:13:05Z</time>
      </trkpt>
      <trkpt lat="42.92301" lon="0.13305">
        <ele>2204.46</ele>
        <time>2018-04-19T08:13:25Z</time>
      </trkpt>
      <trkpt lat="42.92313" lon="0.13308">
        <ele>2207.57</ele>
        <time>2018-04-19T08:13:41Z</time>
      </trkpt>
      <trkpt lat="42.92327" lon="0.13313">
        <ele>2209.64</ele>
        <time>2018-04-19T08:14:00Z</time>
      </trkpt>
      <trkpt lat="42.92332" lon="0.13315">
        <ele>2210.09</ele>
        <time>2018-04-19T08:14:30Z</time>
      </trkpt>
      <trkpt lat="42.92349" lon="0.13324">
        <ele>2211.47</ele>
        <time>2018-04-19T08:14:50Z</time>
      </trkpt>
      <trkpt lat="42.92363" lon="0.13332">
        <ele>2213.77</ele>
        <time>2018-04-19T08:15:09Z</time>
      </trkpt>
      <trkpt lat="42.92378" lon="0.13342">
        <ele>2215.46</ele>
        <time>2018-04-19T08:15:28Z</time>
      </trkpt>
      <trkpt lat="42.9239" lon="0.13349">
        <ele>2216.96</ele>
        <time>2018-04-19T08:15:43Z</time>
      </trkpt>
      <trkpt lat="42.92397" lon="0.13351">
        <ele>2217.75</ele>
        <time>2018-04-19T08:16:00Z</time>
      </trkpt>
      <trkpt lat="42.92398" lon="0.13351">
        <ele>2217.73</ele>
        <time>2018-04-19T08:16:04Z</time>
      </trkpt>
      <trkpt lat="42.92416" lon="0.13359">
        <ele>2219.76</ele>
        <time>2018-04-19T08:16:25Z</time>
      </trkpt>
      <trkpt lat="42.92433" lon="0.13374">
        <ele>2221.8</ele>
        <time>2018-04-19T08:16:46Z</time>
      </trkpt>
      <trkpt lat="42.92447" lon="0.13384">
        <ele>2224.34</ele>
        <time>2018-04-19T08:17:05Z</time>
      </trkpt>
      <trkpt lat="42.92459" lon="0.13393">
        <ele>2226.92</ele>
        <time>2018-04-19T08:17:23Z</time>
      </trkpt>
      <trkpt lat="42.92477" lon="0.13404">
        <ele>2228.8</ele>
        <time>2018-04-19T08:17:44Z</time>
      </trkpt>
      <trkpt lat="42.9249" lon="0.1341">
        <ele>2230.51</ele>
        <time>2018-04-19T08:18:01Z</time>
      </trkpt>
      <trkpt lat="42.92492" lon="0.13411">
        <ele>2230.69</ele>
        <time>2018-04-19T08:18:16Z</time>
      </trkpt>
      <trkpt lat="42.92494" lon="0.13413">
        <ele>2230.61</ele>
        <time>2018-04-19T08:18:19Z</time>
      </trkpt>
      <trkpt lat="42.92498" lon="0.13418">
        <ele>2230.21</ele>
        <time>2018-04-19T08:18:26Z</time>
      </trkpt>
      <trkpt lat="42.92497" lon="0.13433">
        <ele>2232.3</ele>
        <time>2018-04-19T08:18:38Z</time>
      </trkpt>
      <trkpt lat="42.92496" lon="0.13446">
        <ele>2235.43</ele>
        <time>2018-04-19T08:18:51Z</time>
      </trkpt>
      <trkpt lat="42.92495" lon="0.13462">
        <ele>2238.35</ele>
        <time>2018-04-19T08:19:08Z</time>
      </trkpt>
      <trkpt lat="42.92504" lon="0.13469">
        <ele>2240.35</ele>
        <time>2018-04-19T08:19:24Z</time>
      </trkpt>
      <trkpt lat="42.92515" lon="0.13474">
        <ele>2243.42</ele>
        <time>2018-04-19T08:19:42Z</time>
      </trkpt>
      <trkpt lat="42.92523" lon="0.13479">
        <ele>2245.89</ele>
        <time>2018-04-19T08:19:57Z</time>
      </trkpt>
      <trkpt lat="42.92533" lon="0.13483">
        <ele>2248.42</ele>
        <time>2018-04-19T08:20:13Z</time>
      </trkpt>
      <trkpt lat="42.9254" lon="0.13487">
        <ele>2250.33</ele>
        <time>2018-04-19T08:20:29Z</time>
      </trkpt>
      <trkpt lat="42.92546" lon="0.1349">
        <ele>2251.79</ele>
        <time>2018-04-19T08:20:52Z</time>
      </trkpt>
      <trkpt lat="42.92552" lon="0.13494">
        <ele>2255.46</ele>
        <time>2018-04-19T08:21:04Z</time>
      </trkpt>
      <trkpt lat="42.92561" lon="0.13498">
        <ele>2258.51</ele>
        <time>2018-04-19T08:21:22Z</time>
      </trkpt>
      <trkpt lat="42.92569" lon="0.13503">
        <ele>2261.05</ele>
        <time>2018-04-19T08:21:37Z</time>
      </trkpt>
      <trkpt lat="42.92578" lon="0.13507">
        <ele>2263.61</ele>
        <time>2018-04-19T08:21:53Z</time>
      </trkpt>
      <trkpt lat="42.92587" lon="0.13512">
        <ele>2265.88</ele>
        <time>2018-04-19T08:22:11Z</time>
      </trkpt>
      <trkpt lat="42.92591" lon="0.13514">
        <ele>2267.35</ele>
        <time>2018-04-19T08:22:42Z</time>
      </trkpt>
      <trkpt lat="42.92602" lon="0.13519">
        <ele>2270.32</ele>
        <time>2018-04-19T08:22:59Z</time>
      </trkpt>
      <trkpt lat="42.92609" lon="0.13527">
        <ele>2273.06</ele>
        <time>2018-04-19T08:23:16Z</time>
      </trkpt>
      <trkpt lat="42.92617" lon="0.13533">
        <ele>2276.1</ele>
        <time>2018-04-19T08:23:32Z</time>
      </trkpt>
      <trkpt lat="42.92619" lon="0.13535">
        <ele>2277.18</ele>
        <time>2018-04-19T08:23:37Z</time>
      </trkpt>
      <trkpt lat="42.92624" lon="0.1354">
        <ele>2277.55</ele>
        <time>2018-04-19T08:23:52Z</time>
      </trkpt>
      <trkpt lat="42.9263" lon="0.13548">
        <ele>2279.79</ele>
        <time>2018-04-19T08:24:13Z</time>
      </trkpt>
      <trkpt lat="42.92639" lon="0.1356">
        <ele>2282.8</ele>
        <time>2018-04-19T08:24:31Z</time>
      </trkpt>
      <trkpt lat="42.92639" lon="0.13571">
        <ele>2286.03</ele>
        <time>2018-04-19T08:24:46Z</time>
      </trkpt>
      <trkpt lat="42.92637" lon="0.13586">
        <ele>2288.94</ele>
        <time>2018-04-19T08:25:05Z</time>
      </trkpt>
      <trkpt lat="42.92643" lon="0.13591">
        <ele>2290.76</ele>
        <time>2018-04-19T08:25:18Z</time>
      </trkpt>
      <trkpt lat="42.92646" lon="0.13601">
        <ele>2292.52</ele>
        <time>2018-04-19T08:25:43Z</time>
      </trkpt>
      <trkpt lat="42.92644" lon="0.13615">
        <ele>2295.35</ele>
        <time>2018-04-19T08:25:58Z</time>
      </trkpt>
      <trkpt lat="42.92656" lon="0.13626">
        <ele>2298.35</ele>
        <time>2018-04-19T08:26:18Z</time>
      </trkpt>
      <trkpt lat="42.92657" lon="0.13627">
        <ele>2299.06</ele>
        <time>2018-04-19T08:26:35Z</time>
      </trkpt>
      <trkpt lat="42.9266" lon="0.13632">
        <ele>2299.26</ele>
        <time>2018-04-19T08:26:55Z</time>
      </trkpt>
      <trkpt lat="42.92664" lon="0.13643">
        <ele>2300.76</ele>
        <time>2018-04-19T08:27:13Z</time>
      </trkpt>
      <trkpt lat="42.92665" lon="0.13651">
        <ele>2301.42</ele>
        <time>2018-04-19T08:27:29Z</time>
      </trkpt>
      <trkpt lat="42.92665" lon="0.13651">
        <ele>2301.39</ele>
        <time>2018-04-19T08:27:47Z</time>
      </trkpt>
      <trkpt lat="42.92663" lon="0.13667">
        <ele>2304.18</ele>
        <time>2018-04-19T08:28:03Z</time>
      </trkpt>
      <trkpt lat="42.92661" lon="0.13677">
        <ele>2305.54</ele>
        <time>2018-04-19T08:28:21Z</time>
      </trkpt>
      <trkpt lat="42.92656" lon="0.13691">
        <ele>2309.07</ele>
        <time>2018-04-19T08:28:38Z</time>
      </trkpt>
      <trkpt lat="42.92651" lon="0.13702">
        <ele>2311.6</ele>
        <time>2018-04-19T08:28:58Z</time>
      </trkpt>
      <trkpt lat="42.92653" lon="0.13705">
        <ele>2313.08</ele>
        <time>2018-04-19T08:29:14Z</time>
      </trkpt>
      <trkpt lat="42.92664" lon="0.13712">
        <ele>2316.28</ele>
        <time>2018-04-19T08:29:31Z</time>
      </trkpt>
      <trkpt lat="42.92669" lon="0.13715">
        <ele>2318.41</ele>
        <time>2018-04-19T08:29:49Z</time>
      </trkpt>
      <trkpt lat="42.92666" lon="0.1372">
        <ele>2319.31</ele>
        <time>2018-04-19T08:30:08Z</time>
      </trkpt>
      <trkpt lat="42.92664" lon="0.13728">
        <ele>2322.48</ele>
        <time>2018-04-19T08:30:25Z</time>
      </trkpt>
      <trkpt lat="42.92674" lon="0.13735">
        <ele>2325.86</ele>
        <time>2018-04-19T08:30:43Z</time>
      </trkpt>
      <trkpt lat="42.92679" lon="0.1374">
        <ele>2328.86</ele>
        <time>2018-04-19T08:31:00Z</time>
      </trkpt>
      <trkpt lat="42.92675" lon="0.13749">
        <ele>2331.34</ele>
        <time>2018-04-19T08:31:19Z</time>
      </trkpt>
      <trkpt lat="42.92679" lon="0.13754">
        <ele>2333.53</ele>
        <time>2018-04-19T08:31:38Z</time>
      </trkpt>
      <trkpt lat="42.92686" lon="0.13758">
        <ele>2335.38</ele>
        <time>2018-04-19T08:31:59Z</time>
      </trkpt>
      <trkpt lat="42.92696" lon="0.1376">
        <ele>2336</ele>
        <time>2018-04-19T08:32:21Z</time>
      </trkpt>
      <trkpt lat="42.92705" lon="0.13765">
        <ele>2336.83</ele>
        <time>2018-04-19T08:32:38Z</time>
      </trkpt>
      <trkpt lat="42.92712" lon="0.13772">
        <ele>2338.26</ele>
        <time>2018-04-19T08:32:53Z</time>
      </trkpt>
      <trkpt lat="42.92719" lon="0.13778">
        <ele>2339.81</ele>
        <time>2018-04-19T08:33:11Z</time>
      </trkpt>
      <trkpt lat="42.92725" lon="0.13781">
        <ele>2340.67</ele>
        <time>2018-04-19T08:33:27Z</time>
      </trkpt>
      <trkpt lat="42.92736" lon="0.13785">
        <ele>2341.11</ele>
        <time>2018-04-19T08:33:45Z</time>
      </trkpt>
      <trkpt lat="42.92744" lon="0.13789">
        <ele>2343.3</ele>
        <time>2018-04-19T08:34:06Z</time>
      </trkpt>
      <trkpt lat="42.92752" lon="0.13793">
        <ele>2344.9</ele>
        <time>2018-04-19T08:34:23Z</time>
      </trkpt>
      <trkpt lat="42.92762" lon="0.13798">
        <ele>2346.24</ele>
        <time>2018-04-19T08:34:44Z</time>
      </trkpt>
      <trkpt lat="42.92771" lon="0.13802">
        <ele>2347.72</ele>
        <time>2018-04-19T08:35:03Z</time>
      </trkpt>
      <trkpt lat="42.92775" lon="0.13805">
        <ele>2347.92</ele>
        <time>2018-04-19T08:35:24Z</time>
      </trkpt>
      <trkpt lat="42.92784" lon="0.1381">
        <ele>2349.44</ele>
        <time>2018-04-19T08:35:42Z</time>
      </trkpt>
      <trkpt lat="42.92791" lon="0.13815">
        <ele>2350.28</ele>
        <time>2018-04-19T08:35:57Z</time>
      </trkpt>
      <trkpt lat="42.92798" lon="0.13818">
        <ele>2351.92</ele>
        <time>2018-04-19T08:36:15Z</time>
      </trkpt>
      <trkpt lat="42.92805" lon="0.13823">
        <ele>2353.29</ele>
        <time>2018-04-19T08:36:47Z</time>
      </trkpt>
      <trkpt lat="42.92816" lon="0.1383">
        <ele>2354.81</ele>
        <time>2018-04-19T08:37:07Z</time>
      </trkpt>
      <trkpt lat="42.92828" lon="0.13837">
        <ele>2357.08</ele>
        <time>2018-04-19T08:37:25Z</time>
      </trkpt>
      <trkpt lat="42.92837" lon="0.13841">
        <ele>2358.17</ele>
        <time>2018-04-19T08:37:41Z</time>
      </trkpt>
      <trkpt lat="42.92851" lon="0.13846">
        <ele>2359.76</ele>
        <time>2018-04-19T08:38:01Z</time>
      </trkpt>
      <trkpt lat="42.92856" lon="0.13847">
        <ele>2360.17</ele>
        <time>2018-04-19T08:38:15Z</time>
      </trkpt>
      <trkpt lat="42.92864" lon="0.13849">
        <ele>2361.18</ele>
        <time>2018-04-19T08:38:29Z</time>
      </trkpt>
      <trkpt lat="42.9287" lon="0.13851">
        <ele>2362.08</ele>
        <time>2018-04-19T08:38:44Z</time>
      </trkpt>
      <trkpt lat="42.92883" lon="0.13855">
        <ele>2363.36</ele>
        <time>2018-04-19T08:39:02Z</time>
      </trkpt>
      <trkpt lat="42.92887" lon="0.13855">
        <ele>2364.12</ele>
        <time>2018-04-19T08:39:18Z</time>
      </trkpt>
      <trkpt lat="42.92891" lon="0.13855">
        <ele>2364.31</ele>
        <time>2018-04-19T08:39:36Z</time>
      </trkpt>
      <trkpt lat="42.92893" lon="0.13855">
        <ele>2365.13</ele>
        <time>2018-04-19T08:39:53Z</time>
      </trkpt>
      <trkpt lat="42.92902" lon="0.13854">
        <ele>2365.56</ele>
        <time>2018-04-19T08:40:10Z</time>
      </trkpt>
      <trkpt lat="42.92907" lon="0.13852">
        <ele>2366.38</ele>
        <time>2018-04-19T08:40:28Z</time>
      </trkpt>
      <trkpt lat="42.92909" lon="0.13851">
        <ele>2366.77</ele>
        <time>2018-04-19T08:40:47Z</time>
      </trkpt>
      <trkpt lat="42.92909" lon="0.1385">
        <ele>2366.02</ele>
        <time>2018-04-19T08:41:10Z</time>
      </trkpt>
      <trkpt lat="42.92911" lon="0.13853">
        <ele>2366.56</ele>
        <time>2018-04-19T08:41:27Z</time>
      </trkpt>
      <trkpt lat="42.92909" lon="0.1385">
        <ele>2367</ele>
        <time>2018-04-19T08:42:06Z</time>
      </trkpt>
      <trkpt lat="42.92908" lon="0.13848">
        <ele>2367.38</ele>
        <time>2018-04-19T08:42:29Z</time>
      </trkpt>
      <trkpt lat="42.92907" lon="0.13846">
        <ele>2367.53</ele>
        <time>2018-04-19T08:43:04Z</time>
      </trkpt>
      <trkpt lat="42.92907" lon="0.13848">
        <ele>2367.13</ele>
        <time>2018-04-19T08:43:46Z</time>
      </trkpt>
      <trkpt lat="42.92908" lon="0.13849">
        <ele>2367.47</ele>
        <time>2018-04-19T08:44:26Z</time>
      </trkpt>
      <trkpt lat="42.92912" lon="0.13848">
        <ele>2367.8</ele>
        <time>2018-04-19T08:44:42Z</time>
      </trkpt>
      <trkpt lat="42.92913" lon="0.13848">
        <ele>2367.36</ele>
        <time>2018-04-19T08:45:10Z</time>
      </trkpt>
      <trkpt lat="42.92916" lon="0.13847">
        <ele>2367.75</ele>
        <time>2018-04-19T08:45:32Z</time>
      </trkpt>
      <trkpt lat="42.92919" lon="0.13846">
        <ele>2368.1</ele>
        <time>2018-04-19T08:45:49Z</time>
      </trkpt>
      <trkpt lat="42.92922" lon="0.13844">
        <ele>2368.82</ele>
        <time>2018-04-19T08:46:05Z</time>
      </trkpt>
      <trkpt lat="42.92927" lon="0.13844">
        <ele>2369.26</ele>
        <time>2018-04-19T08:46:22Z</time>
      </trkpt>
      <trkpt lat="42.92939" lon="0.13844">
        <ele>2371.52</ele>
        <time>2018-04-19T08:46:39Z</time>
      </trkpt>
      <trkpt lat="42.92944" lon="0.13843">
        <ele>2372.83</ele>
        <time>2018-04-19T08:46:54Z</time>
      </trkpt>
      <trkpt lat="42.92955" lon="0.13842">
        <ele>2374.74</ele>
        <time>2018-04-19T08:47:13Z</time>
      </trkpt>
      <trkpt lat="42.9297" lon="0.13841">
        <ele>2376.86</ele>
        <time>2018-04-19T08:47:31Z</time>
      </trkpt>
      <trkpt lat="42.92978" lon="0.13842">
        <ele>2377.53</ele>
        <time>2018-04-19T08:47:51Z</time>
      </trkpt>
      <trkpt lat="42.92984" lon="0.13842">
        <ele>2378.8</ele>
        <time>2018-04-19T08:48:07Z</time>
      </trkpt>
      <trkpt lat="42.92987" lon="0.13842">
        <ele>2378.75</ele>
        <time>2018-04-19T08:48:16Z</time>
      </trkpt>
      <trkpt lat="42.9299" lon="0.13842">
        <ele>2379.37</ele>
        <time>2018-04-19T08:48:20Z</time>
      </trkpt>
      <trkpt lat="42.92997" lon="0.13843">
        <ele>2381</ele>
        <time>2018-04-19T08:48:35Z</time>
      </trkpt>
      <trkpt lat="42.93005" lon="0.13844">
        <ele>2382.82</ele>
        <time>2018-04-19T08:48:51Z</time>
      </trkpt>
      <trkpt lat="42.93018" lon="0.13846">
        <ele>2384.62</ele>
        <time>2018-04-19T08:49:11Z</time>
      </trkpt>
      <trkpt lat="42.93032" lon="0.13851">
        <ele>2385.99</ele>
        <time>2018-04-19T08:49:30Z</time>
      </trkpt>
      <trkpt lat="42.93042" lon="0.13855">
        <ele>2387.08</ele>
        <time>2018-04-19T08:49:45Z</time>
      </trkpt>
      <trkpt lat="42.93049" lon="0.13857">
        <ele>2387.41</ele>
        <time>2018-04-19T08:50:01Z</time>
      </trkpt>
      <trkpt lat="42.93053" lon="0.13858">
        <ele>2387.56</ele>
        <time>2018-04-19T08:50:21Z</time>
      </trkpt>
      <trkpt lat="42.93053" lon="0.13858">
        <ele>2387.67</ele>
        <time>2018-04-19T08:50:51Z</time>
      </trkpt>
      <trkpt lat="42.93054" lon="0.13858">
        <ele>2386.47</ele>
        <time>2018-04-19T08:51:17Z</time>
      </trkpt>
      <trkpt lat="42.93053" lon="0.13858">
        <ele>2386.58</ele>
        <time>2018-04-19T08:51:34Z</time>
      </trkpt>
      <trkpt lat="42.93052" lon="0.13858">
        <ele>2387.39</ele>
        <time>2018-04-19T08:52:06Z</time>
      </trkpt>
      <trkpt lat="42.93053" lon="0.13858">
        <ele>2386.28</ele>
        <time>2018-04-19T08:52:23Z</time>
      </trkpt>
      <trkpt lat="42.93054" lon="0.13857">
        <ele>2387.46</ele>
        <time>2018-04-19T08:52:45Z</time>
      </trkpt>
      <trkpt lat="42.93054" lon="0.13858">
        <ele>2387.5</ele>
        <time>2018-04-19T08:53:19Z</time>
      </trkpt>
      <trkpt lat="42.93054" lon="0.13858">
        <ele>2387.04</ele>
        <time>2018-04-19T08:53:38Z</time>
      </trkpt>
      <trkpt lat="42.93056" lon="0.13858">
        <ele>2387.05</ele>
        <time>2018-04-19T08:53:58Z</time>
      </trkpt>
      <trkpt lat="42.93058" lon="0.13858">
        <ele>2386.91</ele>
        <time>2018-04-19T08:54:12Z</time>
      </trkpt>
      <trkpt lat="42.9306" lon="0.13858">
        <ele>2386.49</ele>
        <time>2018-04-19T08:54:22Z</time>
      </trkpt>
      <trkpt lat="42.93072" lon="0.13859">
        <ele>2386.58</ele>
        <time>2018-04-19T08:54:40Z</time>
      </trkpt>
      <trkpt lat="42.93073" lon="0.13859">
        <ele>2386.46</ele>
        <time>2018-04-19T08:54:44Z</time>
      </trkpt>
      <trkpt lat="42.93088" lon="0.13858">
        <ele>2386.34</ele>
        <time>2018-04-19T08:55:01Z</time>
      </trkpt>
      <trkpt lat="42.93106" lon="0.13857">
        <ele>2386.5</ele>
        <time>2018-04-19T08:55:19Z</time>
      </trkpt>
      <trkpt lat="42.93121" lon="0.13856">
        <ele>2388.74</ele>
        <time>2018-04-19T08:55:36Z</time>
      </trkpt>
      <trkpt lat="42.93136" lon="0.13854">
        <ele>2390.87</ele>
        <time>2018-04-19T08:55:53Z</time>
      </trkpt>
      <trkpt lat="42.93136" lon="0.13854">
        <ele>2391.15</ele>
        <time>2018-04-19T08:56:11Z</time>
      </trkpt>
      <trkpt lat="42.93146" lon="0.1385">
        <ele>2393.95</ele>
        <time>2018-04-19T08:56:27Z</time>
      </trkpt>
      <trkpt lat="42.93154" lon="0.13847">
        <ele>2395.3</ele>
        <time>2018-04-19T08:56:40Z</time>
      </trkpt>
      <trkpt lat="42.93155" lon="0.13856">
        <ele>2398.38</ele>
        <time>2018-04-19T08:56:54Z</time>
      </trkpt>
      <trkpt lat="42.93155" lon="0.13862">
        <ele>2399.69</ele>
        <time>2018-04-19T08:57:12Z</time>
      </trkpt>
      <trkpt lat="42.93163" lon="0.13849">
        <ele>2401.5</ele>
        <time>2018-04-19T08:57:29Z</time>
      </trkpt>
      <trkpt lat="42.93168" lon="0.13839">
        <ele>2403.42</ele>
        <time>2018-04-19T08:57:48Z</time>
      </trkpt>
      <trkpt lat="42.93168" lon="0.13848">
        <ele>2404.65</ele>
        <time>2018-04-19T08:58:08Z</time>
      </trkpt>
      <trkpt lat="42.93169" lon="0.13854">
        <ele>2406.19</ele>
        <time>2018-04-19T08:58:25Z</time>
      </trkpt>
      <trkpt lat="42.9317" lon="0.13866">
        <ele>2408.11</ele>
        <time>2018-04-19T08:58:40Z</time>
      </trkpt>
      <trkpt lat="42.93169" lon="0.13868">
        <ele>2408.44</ele>
        <time>2018-04-19T08:59:00Z</time>
      </trkpt>
      <trkpt lat="42.93175" lon="0.13857">
        <ele>2410.94</ele>
        <time>2018-04-19T08:59:17Z</time>
      </trkpt>
      <trkpt lat="42.93178" lon="0.13851">
        <ele>2412.39</ele>
        <time>2018-04-19T08:59:33Z</time>
      </trkpt>
      <trkpt lat="42.9318" lon="0.13845">
        <ele>2413.99</ele>
        <time>2018-04-19T08:59:50Z</time>
      </trkpt>
      <trkpt lat="42.93181" lon="0.13847">
        <ele>2413.76</ele>
        <time>2018-04-19T09:00:05Z</time>
      </trkpt>
      <trkpt lat="42.93181" lon="0.13849">
        <ele>2414.43</ele>
        <time>2018-04-19T09:00:34Z</time>
      </trkpt>
      <trkpt lat="42.93183" lon="0.13858">
        <ele>2415.91</ele>
        <time>2018-04-19T09:00:53Z</time>
      </trkpt>
      <trkpt lat="42.93184" lon="0.13868">
        <ele>2417.31</ele>
        <time>2018-04-19T09:01:16Z</time>
      </trkpt>
      <trkpt lat="42.93185" lon="0.13876">
        <ele>2418.82</ele>
        <time>2018-04-19T09:01:29Z</time>
      </trkpt>
      <trkpt lat="42.93186" lon="0.13875">
        <ele>2419.45</ele>
        <time>2018-04-19T09:01:48Z</time>
      </trkpt>
      <trkpt lat="42.93188" lon="0.13871">
        <ele>2419.04</ele>
        <time>2018-04-19T09:02:25Z</time>
      </trkpt>
      <trkpt lat="42.93192" lon="0.13858">
        <ele>2421.19</ele>
        <time>2018-04-19T09:02:44Z</time>
      </trkpt>
      <trkpt lat="42.93193" lon="0.13854">
        <ele>2423.14</ele>
        <time>2018-04-19T09:02:59Z</time>
      </trkpt>
      <trkpt lat="42.93194" lon="0.13856">
        <ele>2423.12</ele>
        <time>2018-04-19T09:03:19Z</time>
      </trkpt>
      <trkpt lat="42.93196" lon="0.13866">
        <ele>2424.4</ele>
        <time>2018-04-19T09:03:34Z</time>
      </trkpt>
      <trkpt lat="42.93196" lon="0.13872">
        <ele>2425.09</ele>
        <time>2018-04-19T09:03:56Z</time>
      </trkpt>
      <trkpt lat="42.93197" lon="0.13868">
        <ele>2425.38</ele>
        <time>2018-04-19T09:04:13Z</time>
      </trkpt>
      <trkpt lat="42.93198" lon="0.13862">
        <ele>2425.69</ele>
        <time>2018-04-19T09:04:37Z</time>
      </trkpt>
      <trkpt lat="42.932" lon="0.13856">
        <ele>2427.32</ele>
        <time>2018-04-19T09:04:51Z</time>
      </trkpt>
      <trkpt lat="42.93202" lon="0.13851">
        <ele>2428.68</ele>
        <time>2018-04-19T09:05:06Z</time>
      </trkpt>
      <trkpt lat="42.93202" lon="0.13853">
        <ele>2428.95</ele>
        <time>2018-04-19T09:05:27Z</time>
      </trkpt>
      <trkpt lat="42.93203" lon="0.1386">
        <ele>2429.83</ele>
        <time>2018-04-19T09:05:40Z</time>
      </trkpt>
      <trkpt lat="42.93204" lon="0.13866">
        <ele>2430.63</ele>
        <time>2018-04-19T09:05:55Z</time>
      </trkpt>
      <trkpt lat="42.93205" lon="0.13875">
        <ele>2431.91</ele>
        <time>2018-04-19T09:06:12Z</time>
      </trkpt>
      <trkpt lat="42.93205" lon="0.13879">
        <ele>2433.44</ele>
        <time>2018-04-19T09:06:26Z</time>
      </trkpt>
      <trkpt lat="42.93205" lon="0.13877">
        <ele>2433.37</ele>
        <time>2018-04-19T09:06:46Z</time>
      </trkpt>
      <trkpt lat="42.93208" lon="0.13867">
        <ele>2435.17</ele>
        <time>2018-04-19T09:07:04Z</time>
      </trkpt>
      <trkpt lat="42.93211" lon="0.13863">
        <ele>2436.36</ele>
        <time>2018-04-19T09:07:27Z</time>
      </trkpt>
      <trkpt lat="42.93213" lon="0.13857">
        <ele>2437.8</ele>
        <time>2018-04-19T09:07:43Z</time>
      </trkpt>
      <trkpt lat="42.93214" lon="0.13857">
        <ele>2438.88</ele>
        <time>2018-04-19T09:07:59Z</time>
      </trkpt>
      <trkpt lat="42.93214" lon="0.13865">
        <ele>2439.04</ele>
        <time>2018-04-19T09:08:31Z</time>
      </trkpt>
      <trkpt lat="42.93215" lon="0.13871">
        <ele>2440.66</ele>
        <time>2018-04-19T09:08:47Z</time>
      </trkpt>
      <trkpt lat="42.93216" lon="0.13867">
        <ele>2441.42</ele>
        <time>2018-04-19T09:09:05Z</time>
      </trkpt>
      <trkpt lat="42.93219" lon="0.13859">
        <ele>2443.27</ele>
        <time>2018-04-19T09:09:23Z</time>
      </trkpt>
      <trkpt lat="42.93222" lon="0.13853">
        <ele>2444.7</ele>
        <time>2018-04-19T09:09:39Z</time>
      </trkpt>
      <trkpt lat="42.93223" lon="0.13854">
        <ele>2444.93</ele>
        <time>2018-04-19T09:09:59Z</time>
      </trkpt>
      <trkpt lat="42.93224" lon="0.13863">
        <ele>2445.77</ele>
        <time>2018-04-19T09:10:35Z</time>
      </trkpt>
      <trkpt lat="42.93224" lon="0.13869">
        <ele>2446.78</ele>
        <time>2018-04-19T09:10:48Z</time>
      </trkpt>
      <trkpt lat="42.93225" lon="0.13877">
        <ele>2447.85</ele>
        <time>2018-04-19T09:11:05Z</time>
      </trkpt>
      <trkpt lat="42.93225" lon="0.13876">
        <ele>2448.32</ele>
        <time>2018-04-19T09:11:22Z</time>
      </trkpt>
      <trkpt lat="42.93229" lon="0.13867">
        <ele>2449.8</ele>
        <time>2018-04-19T09:11:41Z</time>
      </trkpt>
      <trkpt lat="42.93231" lon="0.13862">
        <ele>2450.84</ele>
        <time>2018-04-19T09:12:00Z</time>
      </trkpt>
      <trkpt lat="42.93232" lon="0.13862">
        <ele>2451.68</ele>
        <time>2018-04-19T09:12:19Z</time>
      </trkpt>
      <trkpt lat="42.93233" lon="0.1387">
        <ele>2453.05</ele>
        <time>2018-04-19T09:12:38Z</time>
      </trkpt>
      <trkpt lat="42.93233" lon="0.13876">
        <ele>2454.11</ele>
        <time>2018-04-19T09:12:53Z</time>
      </trkpt>
      <trkpt lat="42.93233" lon="0.13882">
        <ele>2455.17</ele>
        <time>2018-04-19T09:13:06Z</time>
      </trkpt>
      <trkpt lat="42.93234" lon="0.13879">
        <ele>2455.97</ele>
        <time>2018-04-19T09:13:22Z</time>
      </trkpt>
      <trkpt lat="42.93236" lon="0.13875">
        <ele>2456.68</ele>
        <time>2018-04-19T09:13:42Z</time>
      </trkpt>
      <trkpt lat="42.9324" lon="0.13867">
        <ele>2458.9</ele>
        <time>2018-04-19T09:14:01Z</time>
      </trkpt>
      <trkpt lat="42.93242" lon="0.13865">
        <ele>2460.27</ele>
        <time>2018-04-19T09:14:17Z</time>
      </trkpt>
      <trkpt lat="42.93243" lon="0.13875">
        <ele>2461.22</ele>
        <time>2018-04-19T09:14:39Z</time>
      </trkpt>
      <trkpt lat="42.93243" lon="0.13885">
        <ele>2461.97</ele>
        <time>2018-04-19T09:14:52Z</time>
      </trkpt>
      <trkpt lat="42.93244" lon="0.13893">
        <ele>2463.98</ele>
        <time>2018-04-19T09:15:07Z</time>
      </trkpt>
      <trkpt lat="42.93246" lon="0.1389">
        <ele>2464.3</ele>
        <time>2018-04-19T09:15:24Z</time>
      </trkpt>
      <trkpt lat="42.93251" lon="0.13875">
        <ele>2467.37</ele>
        <time>2018-04-19T09:15:44Z</time>
      </trkpt>
      <trkpt lat="42.93255" lon="0.13867">
        <ele>2468.88</ele>
        <time>2018-04-19T09:16:11Z</time>
      </trkpt>
      <trkpt lat="42.93255" lon="0.1387">
        <ele>2468.98</ele>
        <time>2018-04-19T09:16:30Z</time>
      </trkpt>
      <trkpt lat="42.93256" lon="0.13881">
        <ele>2470.77</ele>
        <time>2018-04-19T09:16:48Z</time>
      </trkpt>
      <trkpt lat="42.93258" lon="0.13893">
        <ele>2472.81</ele>
        <time>2018-04-19T09:17:04Z</time>
      </trkpt>
      <trkpt lat="42.93259" lon="0.13897">
        <ele>2473.42</ele>
        <time>2018-04-19T09:17:20Z</time>
      </trkpt>
      <trkpt lat="42.93262" lon="0.13887">
        <ele>2475.1</ele>
        <time>2018-04-19T09:17:34Z</time>
      </trkpt>
      <trkpt lat="42.93269" lon="0.13874">
        <ele>2477.67</ele>
        <time>2018-04-19T09:17:52Z</time>
      </trkpt>
      <trkpt lat="42.93272" lon="0.13869">
        <ele>2478.98</ele>
        <time>2018-04-19T09:18:15Z</time>
      </trkpt>
      <trkpt lat="42.93276" lon="0.13862">
        <ele>2480.75</ele>
        <time>2018-04-19T09:18:35Z</time>
      </trkpt>
      <trkpt lat="42.93276" lon="0.13867">
        <ele>2481.2</ele>
        <time>2018-04-19T09:18:52Z</time>
      </trkpt>
      <trkpt lat="42.93278" lon="0.13877">
        <ele>2482.49</ele>
        <time>2018-04-19T09:19:09Z</time>
      </trkpt>
      <trkpt lat="42.93279" lon="0.13883">
        <ele>2484.12</ele>
        <time>2018-04-19T09:19:28Z</time>
      </trkpt>
      <trkpt lat="42.93279" lon="0.13881">
        <ele>2484.26</ele>
        <time>2018-04-19T09:19:51Z</time>
      </trkpt>
      <trkpt lat="42.93283" lon="0.13873">
        <ele>2486.57</ele>
        <time>2018-04-19T09:20:24Z</time>
      </trkpt>
      <trkpt lat="42.93285" lon="0.13868">
        <ele>2487.21</ele>
        <time>2018-04-19T09:20:40Z</time>
      </trkpt>
      <trkpt lat="42.9329" lon="0.13858">
        <ele>2490.03</ele>
        <time>2018-04-19T09:20:59Z</time>
      </trkpt>
      <trkpt lat="42.93294" lon="0.13852">
        <ele>2491.65</ele>
        <time>2018-04-19T09:21:23Z</time>
      </trkpt>
      <trkpt lat="42.93295" lon="0.13859">
        <ele>2491.78</ele>
        <time>2018-04-19T09:21:39Z</time>
      </trkpt>
      <trkpt lat="42.93296" lon="0.13867">
        <ele>2493.58</ele>
        <time>2018-04-19T09:21:57Z</time>
      </trkpt>
      <trkpt lat="42.93297" lon="0.13874">
        <ele>2494.6</ele>
        <time>2018-04-19T09:22:12Z</time>
      </trkpt>
      <trkpt lat="42.93298" lon="0.1387">
        <ele>2494.97</ele>
        <time>2018-04-19T09:22:29Z</time>
      </trkpt>
      <trkpt lat="42.93301" lon="0.13861">
        <ele>2496.88</ele>
        <time>2018-04-19T09:22:45Z</time>
      </trkpt>
      <trkpt lat="42.93304" lon="0.13853">
        <ele>2498.49</ele>
        <time>2018-04-19T09:23:06Z</time>
      </trkpt>
      <trkpt lat="42.93306" lon="0.13848">
        <ele>2499.48</ele>
        <time>2018-04-19T09:23:24Z</time>
      </trkpt>
      <trkpt lat="42.93307" lon="0.13853">
        <ele>2499.95</ele>
        <time>2018-04-19T09:23:41Z</time>
      </trkpt>
      <trkpt lat="42.93307" lon="0.1386">
        <ele>2500.82</ele>
        <time>2018-04-19T09:23:57Z</time>
      </trkpt>
      <trkpt lat="42.93309" lon="0.13871">
        <ele>2503.41</ele>
        <time>2018-04-19T09:24:20Z</time>
      </trkpt>
      <trkpt lat="42.9331" lon="0.1387">
        <ele>2503.25</ele>
        <time>2018-04-19T09:24:35Z</time>
      </trkpt>
      <trkpt lat="42.93314" lon="0.13856">
        <ele>2505.98</ele>
        <time>2018-04-19T09:24:54Z</time>
      </trkpt>
      <trkpt lat="42.93315" lon="0.13852">
        <ele>2506.99</ele>
        <time>2018-04-19T09:25:11Z</time>
      </trkpt>
      <trkpt lat="42.93319" lon="0.13841">
        <ele>2508.83</ele>
        <time>2018-04-19T09:25:35Z</time>
      </trkpt>
      <trkpt lat="42.9332" lon="0.13837">
        <ele>2509.51</ele>
        <time>2018-04-19T09:25:54Z</time>
      </trkpt>
      <trkpt lat="42.93322" lon="0.1383">
        <ele>2511.31</ele>
        <time>2018-04-19T09:26:14Z</time>
      </trkpt>
      <trkpt lat="42.93324" lon="0.13826">
        <ele>2512.22</ele>
        <time>2018-04-19T09:26:32Z</time>
      </trkpt>
      <trkpt lat="42.93323" lon="0.13829">
        <ele>2512.65</ele>
        <time>2018-04-19T09:26:48Z</time>
      </trkpt>
      <trkpt lat="42.93324" lon="0.13838">
        <ele>2513.62</ele>
        <time>2018-04-19T09:27:04Z</time>
      </trkpt>
      <trkpt lat="42.93325" lon="0.13843">
        <ele>2514.79</ele>
        <time>2018-04-19T09:27:20Z</time>
      </trkpt>
      <trkpt lat="42.93326" lon="0.13848">
        <ele>2515.53</ele>
        <time>2018-04-19T09:27:40Z</time>
      </trkpt>
      <trkpt lat="42.93327" lon="0.13842">
        <ele>2516.4</ele>
        <time>2018-04-19T09:27:58Z</time>
      </trkpt>
      <trkpt lat="42.93328" lon="0.13834">
        <ele>2516.91</ele>
        <time>2018-04-19T09:28:14Z</time>
      </trkpt>
      <trkpt lat="42.9333" lon="0.13825">
        <ele>2519.1</ele>
        <time>2018-04-19T09:28:32Z</time>
      </trkpt>
      <trkpt lat="42.9333" lon="0.13826">
        <ele>2519.15</ele>
        <time>2018-04-19T09:28:52Z</time>
      </trkpt>
      <trkpt lat="42.93331" lon="0.13826">
        <ele>2519.94</ele>
        <time>2018-04-19T09:29:19Z</time>
      </trkpt>
      <trkpt lat="42.93332" lon="0.13834">
        <ele>2521.22</ele>
        <time>2018-04-19T09:29:35Z</time>
      </trkpt>
      <trkpt lat="42.93333" lon="0.1384">
        <ele>2522.25</ele>
        <time>2018-04-19T09:29:51Z</time>
      </trkpt>
      <trkpt lat="42.93333" lon="0.13842">
        <ele>2523.13</ele>
        <time>2018-04-19T09:30:13Z</time>
      </trkpt>
      <trkpt lat="42.93335" lon="0.13834">
        <ele>2524.33</ele>
        <time>2018-04-19T09:30:29Z</time>
      </trkpt>
      <trkpt lat="42.93337" lon="0.13825">
        <ele>2525.58</ele>
        <time>2018-04-19T09:30:52Z</time>
      </trkpt>
      <trkpt lat="42.93339" lon="0.13819">
        <ele>2526.96</ele>
        <time>2018-04-19T09:31:13Z</time>
      </trkpt>
      <trkpt lat="42.93341" lon="0.1381">
        <ele>2528.19</ele>
        <time>2018-04-19T09:31:32Z</time>
      </trkpt>
      <trkpt lat="42.93343" lon="0.13805">
        <ele>2529.66</ele>
        <time>2018-04-19T09:31:48Z</time>
      </trkpt>
      <trkpt lat="42.93345" lon="0.13798">
        <ele>2531.45</ele>
        <time>2018-04-19T09:32:14Z</time>
      </trkpt>
      <trkpt lat="42.93346" lon="0.13792">
        <ele>2533.02</ele>
        <time>2018-04-19T09:32:34Z</time>
      </trkpt>
      <trkpt lat="42.93349" lon="0.13786">
        <ele>2534.31</ele>
        <time>2018-04-19T09:32:51Z</time>
      </trkpt>
      <trkpt lat="42.93349" lon="0.13787">
        <ele>2534.92</ele>
        <time>2018-04-19T09:33:07Z</time>
      </trkpt>
      <trkpt lat="42.93352" lon="0.13798">
        <ele>2537.38</ele>
        <time>2018-04-19T09:33:31Z</time>
      </trkpt>
      <trkpt lat="42.93354" lon="0.1381">
        <ele>2538.9</ele>
        <time>2018-04-19T09:33:52Z</time>
      </trkpt>
      <trkpt lat="42.93356" lon="0.13819">
        <ele>2540.38</ele>
        <time>2018-04-19T09:34:09Z</time>
      </trkpt>
      <trkpt lat="42.93357" lon="0.13817">
        <ele>2541.5</ele>
        <time>2018-04-19T09:34:27Z</time>
      </trkpt>
      <trkpt lat="42.93359" lon="0.13808">
        <ele>2543.2</ele>
        <time>2018-04-19T09:34:39Z</time>
      </trkpt>
      <trkpt lat="42.93361" lon="0.13802">
        <ele>2544.35</ele>
        <time>2018-04-19T09:35:00Z</time>
      </trkpt>
      <trkpt lat="42.93361" lon="0.13801">
        <ele>2543.49</ele>
        <time>2018-04-19T09:35:26Z</time>
      </trkpt>
      <trkpt lat="42.93363" lon="0.13793">
        <ele>2545.41</ele>
        <time>2018-04-19T09:35:54Z</time>
      </trkpt>
      <trkpt lat="42.93366" lon="0.13788">
        <ele>2547.07</ele>
        <time>2018-04-19T09:36:12Z</time>
      </trkpt>
      <trkpt lat="42.93368" lon="0.13797">
        <ele>2548.4</ele>
        <time>2018-04-19T09:36:30Z</time>
      </trkpt>
      <trkpt lat="42.93369" lon="0.13805">
        <ele>2550.32</ele>
        <time>2018-04-19T09:36:46Z</time>
      </trkpt>
      <trkpt lat="42.93371" lon="0.1381">
        <ele>2552.09</ele>
        <time>2018-04-19T09:37:06Z</time>
      </trkpt>
      <trkpt lat="42.93372" lon="0.13816">
        <ele>2553.82</ele>
        <time>2018-04-19T09:37:26Z</time>
      </trkpt>
      <trkpt lat="42.93372" lon="0.13816">
        <ele>2553.05</ele>
        <time>2018-04-19T09:37:47Z</time>
      </trkpt>
      <trkpt lat="42.93375" lon="0.13812">
        <ele>2553.93</ele>
        <time>2018-04-19T09:38:15Z</time>
      </trkpt>
      <trkpt lat="42.93379" lon="0.13802">
        <ele>2555.88</ele>
        <time>2018-04-19T09:38:33Z</time>
      </trkpt>
      <trkpt lat="42.93383" lon="0.13788">
        <ele>2559.14</ele>
        <time>2018-04-19T09:38:51Z</time>
      </trkpt>
      <trkpt lat="42.93385" lon="0.13782">
        <ele>2561.04</ele>
        <time>2018-04-19T09:39:09Z</time>
      </trkpt>
      <trkpt lat="42.93386" lon="0.13777">
        <ele>2562.28</ele>
        <time>2018-04-19T09:39:25Z</time>
      </trkpt>
      <trkpt lat="42.93388" lon="0.13766">
        <ele>2564.53</ele>
        <time>2018-04-19T09:39:42Z</time>
      </trkpt>
      <trkpt lat="42.93391" lon="0.13753">
        <ele>2566.14</ele>
        <time>2018-04-19T09:40:05Z</time>
      </trkpt>
      <trkpt lat="42.93392" lon="0.13748">
        <ele>2567.53</ele>
        <time>2018-04-19T09:40:24Z</time>
      </trkpt>
      <trkpt lat="42.93395" lon="0.13741">
        <ele>2569.91</ele>
        <time>2018-04-19T09:40:34Z</time>
      </trkpt>
      <trkpt lat="42.93397" lon="0.13738">
        <ele>2570.87</ele>
        <time>2018-04-19T09:40:52Z</time>
      </trkpt>
      <trkpt lat="42.93397" lon="0.13745">
        <ele>2571.21</ele>
        <time>2018-04-19T09:41:28Z</time>
      </trkpt>
      <trkpt lat="42.934" lon="0.13761">
        <ele>2573.88</ele>
        <time>2018-04-19T09:41:48Z</time>
      </trkpt>
      <trkpt lat="42.93402" lon="0.13766">
        <ele>2575.51</ele>
        <time>2018-04-19T09:42:01Z</time>
      </trkpt>
      <trkpt lat="42.93402" lon="0.13765">
        <ele>2575.44</ele>
        <time>2018-04-19T09:42:18Z</time>
      </trkpt>
      <trkpt lat="42.93407" lon="0.13749">
        <ele>2578.5</ele>
        <time>2018-04-19T09:42:38Z</time>
      </trkpt>
      <trkpt lat="42.93408" lon="0.1374">
        <ele>2580.09</ele>
        <time>2018-04-19T09:42:57Z</time>
      </trkpt>
      <trkpt lat="42.9341" lon="0.13729">
        <ele>2582.92</ele>
        <time>2018-04-19T09:43:14Z</time>
      </trkpt>
      <trkpt lat="42.93411" lon="0.1372">
        <ele>2584.67</ele>
        <time>2018-04-19T09:43:35Z</time>
      </trkpt>
      <trkpt lat="42.93411" lon="0.13717">
        <ele>2586.44</ele>
        <time>2018-04-19T09:43:55Z</time>
      </trkpt>
      <trkpt lat="42.93412" lon="0.13718">
        <ele>2586.09</ele>
        <time>2018-04-19T09:44:30Z</time>
      </trkpt>
      <trkpt lat="42.93415" lon="0.13724">
        <ele>2586.79</ele>
        <time>2018-04-19T09:44:48Z</time>
      </trkpt>
      <trkpt lat="42.93418" lon="0.1373">
        <ele>2588.9</ele>
        <time>2018-04-19T09:45:05Z</time>
      </trkpt>
      <trkpt lat="42.9342" lon="0.13736">
        <ele>2589.6</ele>
        <time>2018-04-19T09:45:22Z</time>
      </trkpt>
      <trkpt lat="42.93426" lon="0.13749">
        <ele>2591.59</ele>
        <time>2018-04-19T09:45:38Z</time>
      </trkpt>
      <trkpt lat="42.93429" lon="0.13758">
        <ele>2593.09</ele>
        <time>2018-04-19T09:45:58Z</time>
      </trkpt>
      <trkpt lat="42.93431" lon="0.13759">
        <ele>2594.45</ele>
        <time>2018-04-19T09:46:15Z</time>
      </trkpt>
      <trkpt lat="42.93434" lon="0.13751">
        <ele>2595.57</ele>
        <time>2018-04-19T09:46:33Z</time>
      </trkpt>
      <trkpt lat="42.93435" lon="0.13747">
        <ele>2595.91</ele>
        <time>2018-04-19T09:46:56Z</time>
      </trkpt>
      <trkpt lat="42.93436" lon="0.13733">
        <ele>2599.1</ele>
        <time>2018-04-19T09:47:14Z</time>
      </trkpt>
      <trkpt lat="42.93437" lon="0.13716">
        <ele>2602.03</ele>
        <time>2018-04-19T09:47:34Z</time>
      </trkpt>
      <trkpt lat="42.93437" lon="0.13714">
        <ele>2602.24</ele>
        <time>2018-04-19T09:48:00Z</time>
      </trkpt>
      <trkpt lat="42.93438" lon="0.13699">
        <ele>2605.43</ele>
        <time>2018-04-19T09:48:17Z</time>
      </trkpt>
      <trkpt lat="42.93438" lon="0.13688">
        <ele>2608.26</ele>
        <time>2018-04-19T09:48:35Z</time>
      </trkpt>
      <trkpt lat="42.93438" lon="0.13689">
        <ele>2608.43</ele>
        <time>2018-04-19T09:49:01Z</time>
      </trkpt>
      <trkpt lat="42.93446" lon="0.13695">
        <ele>2610.3</ele>
        <time>2018-04-19T09:49:21Z</time>
      </trkpt>
      <trkpt lat="42.93456" lon="0.13702">
        <ele>2612.09</ele>
        <time>2018-04-19T09:49:40Z</time>
      </trkpt>
      <trkpt lat="42.93456" lon="0.13694">
        <ele>2613.48</ele>
        <time>2018-04-19T09:50:07Z</time>
      </trkpt>
      <trkpt lat="42.93455" lon="0.13678">
        <ele>2615.71</ele>
        <time>2018-04-19T09:50:29Z</time>
      </trkpt>
      <trkpt lat="42.93452" lon="0.13664">
        <ele>2618.75</ele>
        <time>2018-04-19T09:50:44Z</time>
      </trkpt>
      <trkpt lat="42.93451" lon="0.13658">
        <ele>2620.54</ele>
        <time>2018-04-19T09:51:00Z</time>
      </trkpt>
      <trkpt lat="42.93451" lon="0.13659">
        <ele>2620.86</ele>
        <time>2018-04-19T09:51:21Z</time>
      </trkpt>
      <trkpt lat="42.9346" lon="0.13664">
        <ele>2621.94</ele>
        <time>2018-04-19T09:51:39Z</time>
      </trkpt>
      <trkpt lat="42.93462" lon="0.13657">
        <ele>2624.42</ele>
        <time>2018-04-19T09:51:56Z</time>
      </trkpt>
      <trkpt lat="42.93464" lon="0.13656">
        <ele>2624.75</ele>
        <time>2018-04-19T09:52:12Z</time>
      </trkpt>
      <trkpt lat="42.93464" lon="0.13654">
        <ele>2624.84</ele>
        <time>2018-04-19T09:52:26Z</time>
      </trkpt>
      <trkpt lat="42.93468" lon="0.13649">
        <ele>2627.48</ele>
        <time>2018-04-19T09:52:41Z</time>
      </trkpt>
      <trkpt lat="42.93467" lon="0.13645">
        <ele>2628.18</ele>
        <time>2018-04-19T09:52:56Z</time>
      </trkpt>
      <trkpt lat="42.93468" lon="0.13646">
        <ele>2626.81</ele>
        <time>2018-04-19T09:53:15Z</time>
      </trkpt>
      <trkpt lat="42.93467" lon="0.13646">
        <ele>2627.61</ele>
        <time>2018-04-19T09:54:07Z</time>
      </trkpt>
      <trkpt lat="42.93468" lon="0.13645">
        <ele>2627.12</ele>
        <time>2018-04-19T09:54:59Z</time>
      </trkpt>
      <trkpt lat="42.93468" lon="0.13644">
        <ele>2626.72</ele>
        <time>2018-04-19T09:55:47Z</time>
      </trkpt>
      <trkpt lat="42.93468" lon="0.13644">
        <ele>2626.22</ele>
        <time>2018-04-19T09:56:28Z</time>
      </trkpt>
      <trkpt lat="42.93469" lon="0.13645">
        <ele>2626.79</ele>
        <time>2018-04-19T09:57:05Z</time>
      </trkpt>
      <trkpt lat="42.93468" lon="0.13644">
        <ele>2627.39</ele>
        <time>2018-04-19T09:58:00Z</time>
      </trkpt>
      <trkpt lat="42.93468" lon="0.13645">
        <ele>2627.21</ele>
        <time>2018-04-19T09:58:49Z</time>
      </trkpt>
      <trkpt lat="42.93467" lon="0.13645">
        <ele>2627.31</ele>
        <time>2018-04-19T09:59:40Z</time>
      </trkpt>
      <trkpt lat="42.93468" lon="0.13642">
        <ele>2627.07</ele>
        <time>2018-04-19T10:00:33Z</time>
      </trkpt>
      <trkpt lat="42.93468" lon="0.13644">
        <ele>2628.17</ele>
        <time>2018-04-19T10:01:09Z</time>
      </trkpt>
      <trkpt lat="42.93469" lon="0.13645">
        <ele>2628.37</ele>
        <time>2018-04-19T10:01:25Z</time>
      </trkpt>
      <trkpt lat="42.93469" lon="0.13645">
        <ele>2628.28</ele>
        <time>2018-04-19T10:01:50Z</time>
      </trkpt>
      <trkpt lat="42.93469" lon="0.13645">
        <ele>2628.72</ele>
        <time>2018-04-19T10:02:21Z</time>
      </trkpt>
      <trkpt lat="42.93471" lon="0.13643">
        <ele>2628.94</ele>
        <time>2018-04-19T10:02:43Z</time>
      </trkpt>
      <trkpt lat="42.93473" lon="0.13643">
        <ele>2629.5</ele>
        <time>2018-04-19T10:03:07Z</time>
      </trkpt>
      <trkpt lat="42.93479" lon="0.13652">
        <ele>2631.48</ele>
        <time>2018-04-19T10:03:22Z</time>
      </trkpt>
      <trkpt lat="42.93484" lon="0.13667">
        <ele>2634.11</ele>
        <time>2018-04-19T10:03:40Z</time>
      </trkpt>
      <trkpt lat="42.93488" lon="0.13679">
        <ele>2636.54</ele>
        <time>2018-04-19T10:03:56Z</time>
      </trkpt>
      <trkpt lat="42.93493" lon="0.13691">
        <ele>2638.77</ele>
        <time>2018-04-19T10:04:12Z</time>
      </trkpt>
      <trkpt lat="42.93495" lon="0.13693">
        <ele>2639.48</ele>
        <time>2018-04-19T10:04:30Z</time>
      </trkpt>
      <trkpt lat="42.93499" lon="0.13704">
        <ele>2641.83</ele>
        <time>2018-04-19T10:04:47Z</time>
      </trkpt>
      <trkpt lat="42.93503" lon="0.13713">
        <ele>2644.53</ele>
        <time>2018-04-19T10:05:03Z</time>
      </trkpt>
      <trkpt lat="42.93504" lon="0.13714">
        <ele>2645.6</ele>
        <time>2018-04-19T10:05:22Z</time>
      </trkpt>
      <trkpt lat="42.93506" lon="0.13721">
        <ele>2647.09</ele>
        <time>2018-04-19T10:05:45Z</time>
      </trkpt>
      <trkpt lat="42.93512" lon="0.13732">
        <ele>2649.07</ele>
        <time>2018-04-19T10:06:01Z</time>
      </trkpt>
      <trkpt lat="42.93517" lon="0.13742">
        <ele>2650.95</ele>
        <time>2018-04-19T10:06:17Z</time>
      </trkpt>
      <trkpt lat="42.93524" lon="0.13755">
        <ele>2653.52</ele>
        <time>2018-04-19T10:06:38Z</time>
      </trkpt>
      <trkpt lat="42.93527" lon="0.13762">
        <ele>2654.09</ele>
        <time>2018-04-19T10:07:09Z</time>
      </trkpt>
      <trkpt lat="42.93531" lon="0.13774">
        <ele>2656.66</ele>
        <time>2018-04-19T10:07:24Z</time>
      </trkpt>
      <trkpt lat="42.93536" lon="0.13775">
        <ele>2658.67</ele>
        <time>2018-04-19T10:07:36Z</time>
      </trkpt>
      <trkpt lat="42.93546" lon="0.13758">
        <ele>2660.6</ele>
        <time>2018-04-19T10:07:58Z</time>
      </trkpt>
      <trkpt lat="42.93552" lon="0.1375">
        <ele>2662.28</ele>
        <time>2018-04-19T10:08:22Z</time>
      </trkpt>
      <trkpt lat="42.93553" lon="0.13759">
        <ele>2663.21</ele>
        <time>2018-04-19T10:08:34Z</time>
      </trkpt>
      <trkpt lat="42.93552" lon="0.13766">
        <ele>2663.81</ele>
        <time>2018-04-19T10:08:52Z</time>
      </trkpt>
      <trkpt lat="42.93555" lon="0.13778">
        <ele>2665.54</ele>
        <time>2018-04-19T10:09:16Z</time>
      </trkpt>
      <trkpt lat="42.93556" lon="0.13782">
        <ele>2665.68</ele>
        <time>2018-04-19T10:09:36Z</time>
      </trkpt>
      <trkpt lat="42.93556" lon="0.13786">
        <ele>2667.44</ele>
        <time>2018-04-19T10:09:59Z</time>
      </trkpt>
      <trkpt lat="42.93558" lon="0.13794">
        <ele>2669.05</ele>
        <time>2018-04-19T10:10:17Z</time>
      </trkpt>
      <trkpt lat="42.93559" lon="0.13799">
        <ele>2669.74</ele>
        <time>2018-04-19T10:10:33Z</time>
      </trkpt>
      <trkpt lat="42.93559" lon="0.138">
        <ele>2669.76</ele>
        <time>2018-04-19T10:11:02Z</time>
      </trkpt>
      <trkpt lat="42.93559" lon="0.1381">
        <ele>2671.66</ele>
        <time>2018-04-19T10:11:24Z</time>
      </trkpt>
      <trkpt lat="42.93561" lon="0.13821">
        <ele>2673.61</ele>
        <time>2018-04-19T10:11:40Z</time>
      </trkpt>
      <trkpt lat="42.93562" lon="0.13829">
        <ele>2675.35</ele>
        <time>2018-04-19T10:11:56Z</time>
      </trkpt>
      <trkpt lat="42.93567" lon="0.13823">
        <ele>2677.21</ele>
        <time>2018-04-19T10:12:11Z</time>
      </trkpt>
      <trkpt lat="42.93576" lon="0.1381">
        <ele>2680.22</ele>
        <time>2018-04-19T10:12:34Z</time>
      </trkpt>
      <trkpt lat="42.93583" lon="0.138">
        <ele>2682.13</ele>
        <time>2018-04-19T10:12:54Z</time>
      </trkpt>
      <trkpt lat="42.93588" lon="0.13793">
        <ele>2684.84</ele>
        <time>2018-04-19T10:13:13Z</time>
      </trkpt>
      <trkpt lat="42.93595" lon="0.13784">
        <ele>2686.89</ele>
        <time>2018-04-19T10:13:33Z</time>
      </trkpt>
      <trkpt lat="42.936" lon="0.13776">
        <ele>2688.87</ele>
        <time>2018-04-19T10:13:51Z</time>
      </trkpt>
      <trkpt lat="42.93607" lon="0.13768">
        <ele>2691.95</ele>
        <time>2018-04-19T10:14:09Z</time>
      </trkpt>
      <trkpt lat="42.93614" lon="0.13759">
        <ele>2693.86</ele>
        <time>2018-04-19T10:14:29Z</time>
      </trkpt>
      <trkpt lat="42.9362" lon="0.13753">
        <ele>2695.52</ele>
        <time>2018-04-19T10:14:45Z</time>
      </trkpt>
      <trkpt lat="42.93623" lon="0.13753">
        <ele>2696.25</ele>
        <time>2018-04-19T10:15:03Z</time>
      </trkpt>
      <trkpt lat="42.93621" lon="0.13767">
        <ele>2699.29</ele>
        <time>2018-04-19T10:15:18Z</time>
      </trkpt>
      <trkpt lat="42.93618" lon="0.13782">
        <ele>2700.35</ele>
        <time>2018-04-19T10:15:37Z</time>
      </trkpt>
      <trkpt lat="42.93617" lon="0.13787">
        <ele>2701.43</ele>
        <time>2018-04-19T10:15:58Z</time>
      </trkpt>
      <trkpt lat="42.93615" lon="0.13798">
        <ele>2703.79</ele>
        <time>2018-04-19T10:16:14Z</time>
      </trkpt>
      <trkpt lat="42.93614" lon="0.13806">
        <ele>2704.88</ele>
        <time>2018-04-19T10:16:26Z</time>
      </trkpt>
      <trkpt lat="42.93613" lon="0.13813">
        <ele>2706.17</ele>
        <time>2018-04-19T10:16:44Z</time>
      </trkpt>
      <trkpt lat="42.93613" lon="0.13822">
        <ele>2708.56</ele>
        <time>2018-04-19T10:17:04Z</time>
      </trkpt>
      <trkpt lat="42.93612" lon="0.13835">
        <ele>2709.95</ele>
        <time>2018-04-19T10:17:20Z</time>
      </trkpt>
      <trkpt lat="42.9361" lon="0.13849">
        <ele>2710.79</ele>
        <time>2018-04-19T10:17:40Z</time>
      </trkpt>
      <trkpt lat="42.93609" lon="0.13855">
        <ele>2713.13</ele>
        <time>2018-04-19T10:17:55Z</time>
      </trkpt>
      <trkpt lat="42.9361" lon="0.13856">
        <ele>2713.68</ele>
        <time>2018-04-19T10:18:20Z</time>
      </trkpt>
      <trkpt lat="42.93621" lon="0.13843">
        <ele>2716.87</ele>
        <time>2018-04-19T10:18:42Z</time>
      </trkpt>
      <trkpt lat="42.93628" lon="0.13837">
        <ele>2718.96</ele>
        <time>2018-04-19T10:19:02Z</time>
      </trkpt>
      <trkpt lat="42.93631" lon="0.13834">
        <ele>2719.75</ele>
        <time>2018-04-19T10:19:29Z</time>
      </trkpt>
      <trkpt lat="42.93643" lon="0.13823">
        <ele>2723.13</ele>
        <time>2018-04-19T10:19:49Z</time>
      </trkpt>
      <trkpt lat="42.93647" lon="0.13819">
        <ele>2724.11</ele>
        <time>2018-04-19T10:20:09Z</time>
      </trkpt>
      <trkpt lat="42.93651" lon="0.13818">
        <ele>2725.33</ele>
        <time>2018-04-19T10:20:26Z</time>
      </trkpt>
      <trkpt lat="42.93648" lon="0.13823">
        <ele>2726.41</ele>
        <time>2018-04-19T10:20:38Z</time>
      </trkpt>
      <trkpt lat="42.93647" lon="0.13833">
        <ele>2727.86</ele>
        <time>2018-04-19T10:20:59Z</time>
      </trkpt>
      <trkpt lat="42.93646" lon="0.13844">
        <ele>2730.9</ele>
        <time>2018-04-19T10:21:15Z</time>
      </trkpt>
      <trkpt lat="42.93643" lon="0.13855">
        <ele>2732.05</ele>
        <time>2018-04-19T10:21:31Z</time>
      </trkpt>
      <trkpt lat="42.93643" lon="0.13861">
        <ele>2733.78</ele>
        <time>2018-04-19T10:21:51Z</time>
      </trkpt>
      <trkpt lat="42.9364" lon="0.13874">
        <ele>2735.61</ele>
        <time>2018-04-19T10:22:08Z</time>
      </trkpt>
      <trkpt lat="42.93639" lon="0.13883">
        <ele>2737.8</ele>
        <time>2018-04-19T10:22:24Z</time>
      </trkpt>
      <trkpt lat="42.93638" lon="0.13893">
        <ele>2740.26</ele>
        <time>2018-04-19T10:22:47Z</time>
      </trkpt>
      <trkpt lat="42.93634" lon="0.13908">
        <ele>2742.87</ele>
        <time>2018-04-19T10:23:07Z</time>
      </trkpt>
      <trkpt lat="42.93633" lon="0.13922">
        <ele>2745.27</ele>
        <time>2018-04-19T10:23:26Z</time>
      </trkpt>
      <trkpt lat="42.93635" lon="0.13924">
        <ele>2745.64</ele>
        <time>2018-04-19T10:23:59Z</time>
      </trkpt>
      <trkpt lat="42.93643" lon="0.13919">
        <ele>2748.26</ele>
        <time>2018-04-19T10:24:16Z</time>
      </trkpt>
      <trkpt lat="42.93651" lon="0.13915">
        <ele>2751.32</ele>
        <time>2018-04-19T10:24:32Z</time>
      </trkpt>
      <trkpt lat="42.93657" lon="0.1391">
        <ele>2752.33</ele>
        <time>2018-04-19T10:24:51Z</time>
      </trkpt>
      <trkpt lat="42.93658" lon="0.13909">
        <ele>2753.29</ele>
        <time>2018-04-19T10:25:27Z</time>
      </trkpt>
      <trkpt lat="42.93666" lon="0.13901">
        <ele>2756.39</ele>
        <time>2018-04-19T10:25:43Z</time>
      </trkpt>
      <trkpt lat="42.93675" lon="0.13892">
        <ele>2758.44</ele>
        <time>2018-04-19T10:26:04Z</time>
      </trkpt>
      <trkpt lat="42.93683" lon="0.13887">
        <ele>2759.77</ele>
        <time>2018-04-19T10:26:24Z</time>
      </trkpt>
      <trkpt lat="42.9369" lon="0.13883">
        <ele>2762.25</ele>
        <time>2018-04-19T10:26:51Z</time>
      </trkpt>
      <trkpt lat="42.93687" lon="0.13888">
        <ele>2763.81</ele>
        <time>2018-04-19T10:27:07Z</time>
      </trkpt>
      <trkpt lat="42.93686" lon="0.13887">
        <ele>2763.64</ele>
        <time>2018-04-19T10:27:59Z</time>
      </trkpt>
      <trkpt lat="42.93685" lon="0.13896">
        <ele>2765.57</ele>
        <time>2018-04-19T10:28:25Z</time>
      </trkpt>
      <trkpt lat="42.93683" lon="0.13899">
        <ele>2765.74</ele>
        <time>2018-04-19T10:28:48Z</time>
      </trkpt>
      <trkpt lat="42.93683" lon="0.13898">
        <ele>2766.04</ele>
        <time>2018-04-19T10:29:06Z</time>
      </trkpt>
      <trkpt lat="42.9368" lon="0.13907">
        <ele>2766.87</ele>
        <time>2018-04-19T10:29:20Z</time>
      </trkpt>
      <trkpt lat="42.93679" lon="0.13912">
        <ele>2768.08</ele>
        <time>2018-04-19T10:29:45Z</time>
      </trkpt>
      <trkpt lat="42.93675" lon="0.13925">
        <ele>2770.33</ele>
        <time>2018-04-19T10:30:04Z</time>
      </trkpt>
      <trkpt lat="42.93673" lon="0.1393">
        <ele>2770.98</ele>
        <time>2018-04-19T10:30:21Z</time>
      </trkpt>
      <trkpt lat="42.93671" lon="0.1394">
        <ele>2772.11</ele>
        <time>2018-04-19T10:30:42Z</time>
      </trkpt>
      <trkpt lat="42.93668" lon="0.13953">
        <ele>2774.3</ele>
        <time>2018-04-19T10:31:00Z</time>
      </trkpt>
      <trkpt lat="42.93667" lon="0.13955">
        <ele>2774.63</ele>
        <time>2018-04-19T10:31:18Z</time>
      </trkpt>
      <trkpt lat="42.93666" lon="0.13961">
        <ele>2775.71</ele>
        <time>2018-04-19T10:31:36Z</time>
      </trkpt>
      <trkpt lat="42.93666" lon="0.13965">
        <ele>2776.67</ele>
        <time>2018-04-19T10:31:56Z</time>
      </trkpt>
      <trkpt lat="42.9367" lon="0.13961">
        <ele>2777.65</ele>
        <time>2018-04-19T10:32:14Z</time>
      </trkpt>
      <trkpt lat="42.93676" lon="0.13953">
        <ele>2780.39</ele>
        <time>2018-04-19T10:32:36Z</time>
      </trkpt>
      <trkpt lat="42.93682" lon="0.13947">
        <ele>2781.91</ele>
        <time>2018-04-19T10:32:51Z</time>
      </trkpt>
      <trkpt lat="42.93686" lon="0.13943">
        <ele>2783.87</ele>
        <time>2018-04-19T10:33:04Z</time>
      </trkpt>
      <trkpt lat="42.93691" lon="0.1394">
        <ele>2785.1</ele>
        <time>2018-04-19T10:33:20Z</time>
      </trkpt>
      <trkpt lat="42.93695" lon="0.1394">
        <ele>2786.6</ele>
        <time>2018-04-19T10:34:01Z</time>
      </trkpt>
      <trkpt lat="42.93699" lon="0.13937">
        <ele>2788.51</ele>
        <time>2018-04-19T10:34:19Z</time>
      </trkpt>
      <trkpt lat="42.93699" lon="0.13942">
        <ele>2789.06</ele>
        <time>2018-04-19T10:34:33Z</time>
      </trkpt>
      <trkpt lat="42.93698" lon="0.13948">
        <ele>2790.71</ele>
        <time>2018-04-19T10:34:53Z</time>
      </trkpt>
      <trkpt lat="42.93697" lon="0.13955">
        <ele>2793.15</ele>
        <time>2018-04-19T10:35:08Z</time>
      </trkpt>
      <trkpt lat="42.93696" lon="0.13966">
        <ele>2796.23</ele>
        <time>2018-04-19T10:35:23Z</time>
      </trkpt>
      <trkpt lat="42.93695" lon="0.13969">
        <ele>2797.15</ele>
        <time>2018-04-19T10:35:38Z</time>
      </trkpt>
      <trkpt lat="42.93693" lon="0.13979">
        <ele>2798.03</ele>
        <time>2018-04-19T10:35:56Z</time>
      </trkpt>
      <trkpt lat="42.93694" lon="0.13978">
        <ele>2799.3</ele>
        <time>2018-04-19T10:36:16Z</time>
      </trkpt>
      <trkpt lat="42.93698" lon="0.13977">
        <ele>2799.77</ele>
        <time>2018-04-19T10:36:39Z</time>
      </trkpt>
      <trkpt lat="42.93694" lon="0.13986">
        <ele>2801.5</ele>
        <time>2018-04-19T10:36:54Z</time>
      </trkpt>
      <trkpt lat="42.93688" lon="0.14">
        <ele>2803.92</ele>
        <time>2018-04-19T10:37:14Z</time>
      </trkpt>
      <trkpt lat="42.93686" lon="0.14006">
        <ele>2806.05</ele>
        <time>2018-04-19T10:37:39Z</time>
      </trkpt>
      <trkpt lat="42.93683" lon="0.14013">
        <ele>2807.16</ele>
        <time>2018-04-19T10:37:52Z</time>
      </trkpt>
      <trkpt lat="42.93681" lon="0.14018">
        <ele>2808.97</ele>
        <time>2018-04-19T10:38:15Z</time>
      </trkpt>
      <trkpt lat="42.93682" lon="0.14018">
        <ele>2809.58</ele>
        <time>2018-04-19T10:38:29Z</time>
      </trkpt>
      <trkpt lat="42.9369" lon="0.14014">
        <ele>2810.86</ele>
        <time>2018-04-19T10:38:47Z</time>
      </trkpt>
      <trkpt lat="42.93699" lon="0.14008">
        <ele>2813.79</ele>
        <time>2018-04-19T10:39:05Z</time>
      </trkpt>
      <trkpt lat="42.93704" lon="0.14005">
        <ele>2814.98</ele>
        <time>2018-04-19T10:39:26Z</time>
      </trkpt>
      <trkpt lat="42.93709" lon="0.14">
        <ele>2816.64</ele>
        <time>2018-04-19T10:39:46Z</time>
      </trkpt>
      <trkpt lat="42.93718" lon="0.13997">
        <ele>2819.13</ele>
        <time>2018-04-19T10:40:06Z</time>
      </trkpt>
      <trkpt lat="42.93716" lon="0.14007">
        <ele>2820.66</ele>
        <time>2018-04-19T10:40:20Z</time>
      </trkpt>
      <trkpt lat="42.93715" lon="0.14012">
        <ele>2821.45</ele>
        <time>2018-04-19T10:40:37Z</time>
      </trkpt>
      <trkpt lat="42.93715" lon="0.14015">
        <ele>2821.75</ele>
        <time>2018-04-19T10:40:48Z</time>
      </trkpt>
      <trkpt lat="42.93711" lon="0.14025">
        <ele>2824.09</ele>
        <time>2018-04-19T10:41:02Z</time>
      </trkpt>
      <trkpt lat="42.93716" lon="0.14024">
        <ele>2826.01</ele>
        <time>2018-04-19T10:41:20Z</time>
      </trkpt>
      <trkpt lat="42.9372" lon="0.14024">
        <ele>2827.08</ele>
        <time>2018-04-19T10:41:35Z</time>
      </trkpt>
      <trkpt lat="42.93725" lon="0.1402">
        <ele>2827.72</ele>
        <time>2018-04-19T10:41:56Z</time>
      </trkpt>
      <trkpt lat="42.93731" lon="0.14016">
        <ele>2829.53</ele>
        <time>2018-04-19T10:42:13Z</time>
      </trkpt>
      <trkpt lat="42.93727" lon="0.1402">
        <ele>2829.24</ele>
        <time>2018-04-19T10:42:33Z</time>
      </trkpt>
      <trkpt lat="42.93721" lon="0.14031">
        <ele>2831.04</ele>
        <time>2018-04-19T10:42:50Z</time>
      </trkpt>
      <trkpt lat="42.93717" lon="0.14039">
        <ele>2832.16</ele>
        <time>2018-04-19T10:43:06Z</time>
      </trkpt>
      <trkpt lat="42.93712" lon="0.1405">
        <ele>2834.49</ele>
        <time>2018-04-19T10:43:27Z</time>
      </trkpt>
      <trkpt lat="42.93713" lon="0.14052">
        <ele>2835.53</ele>
        <time>2018-04-19T10:43:46Z</time>
      </trkpt>
      <trkpt lat="42.93707" lon="0.14061">
        <ele>2836.6</ele>
        <time>2018-04-19T10:44:02Z</time>
      </trkpt>
      <trkpt lat="42.93702" lon="0.14071">
        <ele>2839.61</ele>
        <time>2018-04-19T10:44:16Z</time>
      </trkpt>
      <trkpt lat="42.93698" lon="0.14079">
        <ele>2841.48</ele>
        <time>2018-04-19T10:44:31Z</time>
      </trkpt>
      <trkpt lat="42.93698" lon="0.14079">
        <ele>2841.03</ele>
        <time>2018-04-19T10:44:39Z</time>
      </trkpt>
      <trkpt lat="42.93701" lon="0.14078">
        <ele>2842.26</ele>
        <time>2018-04-19T10:45:18Z</time>
      </trkpt>
      <trkpt lat="42.93706" lon="0.14077">
        <ele>2843.23</ele>
        <time>2018-04-19T10:45:36Z</time>
      </trkpt>
      <trkpt lat="42.93705" lon="0.14077">
        <ele>2843.51</ele>
        <time>2018-04-19T10:45:57Z</time>
      </trkpt>
      <trkpt lat="42.93701" lon="0.14085">
        <ele>2846.9</ele>
        <time>2018-04-19T10:46:11Z</time>
      </trkpt>
      <trkpt lat="42.937" lon="0.14086">
        <ele>2847.62</ele>
        <time>2018-04-19T10:46:29Z</time>
      </trkpt>
      <trkpt lat="42.93697" lon="0.14093">
        <ele>2850.17</ele>
        <time>2018-04-19T10:46:49Z</time>
      </trkpt>
      <trkpt lat="42.93694" lon="0.14098">
        <ele>2851.05</ele>
        <time>2018-04-19T10:47:11Z</time>
      </trkpt>
      <trkpt lat="42.93693" lon="0.14103">
        <ele>2853.76</ele>
        <time>2018-04-19T10:47:26Z</time>
      </trkpt>
      <trkpt lat="42.93694" lon="0.14104">
        <ele>2854.09</ele>
        <time>2018-04-19T10:47:46Z</time>
      </trkpt>
      <trkpt lat="42.93697" lon="0.14104">
        <ele>2855.94</ele>
        <time>2018-04-19T10:48:02Z</time>
      </trkpt>
      <trkpt lat="42.93695" lon="0.14115">
        <ele>2858.02</ele>
        <time>2018-04-19T10:48:17Z</time>
      </trkpt>
      <trkpt lat="42.9369" lon="0.14126">
        <ele>2860.85</ele>
        <time>2018-04-19T10:48:35Z</time>
      </trkpt>
      <trkpt lat="42.93688" lon="0.14133">
        <ele>2862.3</ele>
        <time>2018-04-19T10:49:01Z</time>
      </trkpt>
      <trkpt lat="42.93687" lon="0.14138">
        <ele>2862.41</ele>
        <time>2018-04-19T10:49:24Z</time>
      </trkpt>
      <trkpt lat="42.93686" lon="0.14138">
        <ele>2862.19</ele>
        <time>2018-04-19T10:49:38Z</time>
      </trkpt>
      <trkpt lat="42.93681" lon="0.14149">
        <ele>2861.08</ele>
        <time>2018-04-19T10:49:48Z</time>
      </trkpt>
      <trkpt lat="42.93667" lon="0.14159">
        <ele>2860.32</ele>
        <time>2018-04-19T10:50:07Z</time>
      </trkpt>
      <trkpt lat="42.93664" lon="0.14161">
        <ele>2860.56</ele>
        <time>2018-04-19T10:50:29Z</time>
      </trkpt>
      <trkpt lat="42.93664" lon="0.14167">
        <ele>2862.25</ele>
        <time>2018-04-19T10:50:46Z</time>
      </trkpt>
      <trkpt lat="42.93665" lon="0.14169">
        <ele>2863.6</ele>
        <time>2018-04-19T10:51:03Z</time>
      </trkpt>
      <trkpt lat="42.93668" lon="0.14169">
        <ele>2863.69</ele>
        <time>2018-04-19T10:51:26Z</time>
      </trkpt>
      <trkpt lat="42.93671" lon="0.14162">
        <ele>2863.9</ele>
        <time>2018-04-19T10:51:44Z</time>
      </trkpt>
      <trkpt lat="42.93672" lon="0.14164">
        <ele>2864.43</ele>
        <time>2018-04-19T10:52:00Z</time>
      </trkpt>
      <trkpt lat="42.93666" lon="0.14173">
        <ele>2864.4</ele>
        <time>2018-04-19T10:52:15Z</time>
      </trkpt>
      <trkpt lat="42.93662" lon="0.14168">
        <ele>2863.32</ele>
        <time>2018-04-19T10:52:30Z</time>
      </trkpt>
      <trkpt lat="42.93661" lon="0.14166">
        <ele>2862.32</ele>
        <time>2018-04-19T10:52:41Z</time>
      </trkpt>
      <trkpt lat="42.93667" lon="0.14155">
        <ele>2861.86</ele>
        <time>2018-04-19T10:52:54Z</time>
      </trkpt>
      <trkpt lat="42.93668" lon="0.14153">
        <ele>2861.86</ele>
        <time>2018-04-19T10:53:11Z</time>
      </trkpt>
      <trkpt lat="42.93669" lon="0.14154">
        <ele>2860.61</ele>
        <time>2018-04-19T10:53:31Z</time>
      </trkpt>
      <trkpt lat="42.9367" lon="0.14154">
        <ele>2861.26</ele>
        <time>2018-04-19T10:54:14Z</time>
      </trkpt>
      <trkpt lat="42.9367" lon="0.14155">
        <ele>2860.41</ele>
        <time>2018-04-19T10:54:40Z</time>
      </trkpt>
      <trkpt lat="42.9367" lon="0.14154">
        <ele>2860.57</ele>
        <time>2018-04-19T10:55:19Z</time>
      </trkpt>
      <trkpt lat="42.93669" lon="0.14153">
        <ele>2860.74</ele>
        <time>2018-04-19T10:56:13Z</time>
      </trkpt>
      <trkpt lat="42.93669" lon="0.14153">
        <ele>2861.08</ele>
        <time>2018-04-19T10:57:20Z</time>
      </trkpt>
      <trkpt lat="42.93669" lon="0.14153">
        <ele>2861.08</ele>
        <time>2018-04-19T10:58:26Z</time>
      </trkpt>
      <trkpt lat="42.93668" lon="0.14152">
        <ele>2861.82</ele>
        <time>2018-04-19T10:59:49Z</time>
      </trkpt>
      <trkpt lat="42.93668" lon="0.14153">
        <ele>2860.95</ele>
        <time>2018-04-19T11:00:45Z</time>
      </trkpt>
      <trkpt lat="42.93668" lon="0.14155">
        <ele>2861.31</ele>
        <time>2018-04-19T11:01:51Z</time>
      </trkpt>
      <trkpt lat="42.93668" lon="0.14155">
        <ele>2861.28</ele>
        <time>2018-04-19T11:02:49Z</time>
      </trkpt>
      <trkpt lat="42.93669" lon="0.14154">
        <ele>2860.79</ele>
        <time>2018-04-19T11:04:02Z</time>
      </trkpt>
      <trkpt lat="42.93669" lon="0.14154">
        <ele>2861.17</ele>
        <time>2018-04-19T11:05:12Z</time>
      </trkpt>
      <trkpt lat="42.93669" lon="0.14154">
        <ele>2861.73</ele>
        <time>2018-04-19T11:06:30Z</time>
      </trkpt>
      <trkpt lat="42.93668" lon="0.14153">
        <ele>2861.58</ele>
        <time>2018-04-19T11:07:48Z</time>
      </trkpt>
      <trkpt lat="42.93669" lon="0.14154">
        <ele>2861.57</ele>
        <time>2018-04-19T11:09:08Z</time>
      </trkpt>
      <trkpt lat="42.93669" lon="0.14154">
        <ele>2861.4</ele>
        <time>2018-04-19T11:10:35Z</time>
      </trkpt>
      <trkpt lat="42.93669" lon="0.14155">
        <ele>2861.83</ele>
        <time>2018-04-19T11:11:32Z</time>
      </trkpt>
      <trkpt lat="42.93669" lon="0.14155">
        <ele>2861.64</ele>
        <time>2018-04-19T11:12:22Z</time>
      </trkpt>
      <trkpt lat="42.9367" lon="0.14155">
        <ele>2862.05</ele>
        <time>2018-04-19T11:13:37Z</time>
      </trkpt>
      <trkpt lat="42.9367" lon="0.14156">
        <ele>2861.34</ele>
        <time>2018-04-19T11:14:43Z</time>
      </trkpt>
      <trkpt lat="42.93669" lon="0.14156">
        <ele>2861.83</ele>
        <time>2018-04-19T11:16:07Z</time>
      </trkpt>
      <trkpt lat="42.93668" lon="0.14154">
        <ele>2862.44</ele>
        <time>2018-04-19T11:17:18Z</time>
      </trkpt>
      <trkpt lat="42.93669" lon="0.14155">
        <ele>2863.01</ele>
        <time>2018-04-19T11:17:35Z</time>
      </trkpt>
      <trkpt lat="42.93668" lon="0.14155">
        <ele>2862.61</ele>
        <time>2018-04-19T11:17:58Z</time>
      </trkpt>
      <trkpt lat="42.9367" lon="0.14154">
        <ele>2858.99</ele>
        <time>2018-04-19T11:18:17Z</time>
      </trkpt>
      <trkpt lat="42.93669" lon="0.14155">
        <ele>2861.52</ele>
        <time>2018-04-19T11:18:55Z</time>
      </trkpt>
      <trkpt lat="42.93669" lon="0.14154">
        <ele>2862.29</ele>
        <time>2018-04-19T11:19:16Z</time>
      </trkpt>
      <trkpt lat="42.9367" lon="0.14154">
        <ele>2862.02</ele>
        <time>2018-04-19T11:19:36Z</time>
      </trkpt>
      <trkpt lat="42.93671" lon="0.14152">
        <ele>2862.24</ele>
        <time>2018-04-19T11:20:08Z</time>
      </trkpt>
      <trkpt lat="42.93671" lon="0.14151">
        <ele>2862.91</ele>
        <time>2018-04-19T11:20:20Z</time>
      </trkpt>
      <trkpt lat="42.93677" lon="0.1415">
        <ele>2863.23</ele>
        <time>2018-04-19T11:20:28Z</time>
      </trkpt>
      <trkpt lat="42.93681" lon="0.14149">
        <ele>2863.3</ele>
        <time>2018-04-19T11:20:33Z</time>
      </trkpt>
      <trkpt lat="42.93684" lon="0.14138">
        <ele>2864.91</ele>
        <time>2018-04-19T11:20:49Z</time>
      </trkpt>
      <trkpt lat="42.93684" lon="0.14139">
        <ele>2864.03</ele>
        <time>2018-04-19T11:21:14Z</time>
      </trkpt>
      <trkpt lat="42.93684" lon="0.14139">
        <ele>2865.07</ele>
        <time>2018-04-19T11:21:36Z</time>
      </trkpt>
      <trkpt lat="42.93684" lon="0.14139">
        <ele>2864.33</ele>
        <time>2018-04-19T11:21:55Z</time>
      </trkpt>
      <trkpt lat="42.93684" lon="0.14133">
        <ele>2863.77</ele>
        <time>2018-04-19T11:22:08Z</time>
      </trkpt>
      <trkpt lat="42.93688" lon="0.14123">
        <ele>2860.29</ele>
        <time>2018-04-19T11:22:13Z</time>
      </trkpt>
      <trkpt lat="42.93688" lon="0.14122">
        <ele>2859.96</ele>
        <time>2018-04-19T11:22:14Z</time>
      </trkpt>
      <trkpt lat="42.93689" lon="0.14119">
        <ele>2858.8</ele>
        <time>2018-04-19T11:22:15Z</time>
      </trkpt>
      <trkpt lat="42.9369" lon="0.14117">
        <ele>2858.72</ele>
        <time>2018-04-19T11:22:16Z</time>
      </trkpt>
      <trkpt lat="42.93691" lon="0.14115">
        <ele>2858.09</ele>
        <time>2018-04-19T11:22:17Z</time>
      </trkpt>
      <trkpt lat="42.93692" lon="0.14113">
        <ele>2858.03</ele>
        <time>2018-04-19T11:22:18Z</time>
      </trkpt>
      <trkpt lat="42.93694" lon="0.1411">
        <ele>2857.09</ele>
        <time>2018-04-19T11:22:32Z</time>
      </trkpt>
      <trkpt lat="42.93695" lon="0.14108">
        <ele>2857.16</ele>
        <time>2018-04-19T11:22:41Z</time>
      </trkpt>
      <trkpt lat="42.93699" lon="0.141">
        <ele>2854.27</ele>
        <time>2018-04-19T11:22:44Z</time>
      </trkpt>
      <trkpt lat="42.937" lon="0.14098">
        <ele>2854.2</ele>
        <time>2018-04-19T11:22:45Z</time>
      </trkpt>
      <trkpt lat="42.93703" lon="0.14092">
        <ele>2851.49</ele>
        <time>2018-04-19T11:22:50Z</time>
      </trkpt>
      <trkpt lat="42.93703" lon="0.1409">
        <ele>2850.66</ele>
        <time>2018-04-19T11:22:51Z</time>
      </trkpt>
      <trkpt lat="42.93704" lon="0.14088">
        <ele>2850.56</ele>
        <time>2018-04-19T11:22:52Z</time>
      </trkpt>
      <trkpt lat="42.93705" lon="0.14086">
        <ele>2849.32</ele>
        <time>2018-04-19T11:22:53Z</time>
      </trkpt>
      <trkpt lat="42.93706" lon="0.14082">
        <ele>2848.24</ele>
        <time>2018-04-19T11:22:54Z</time>
      </trkpt>
      <trkpt lat="42.93711" lon="0.14071">
        <ele>2844.99</ele>
        <time>2018-04-19T11:23:00Z</time>
      </trkpt>
      <trkpt lat="42.93712" lon="0.14069">
        <ele>2843.85</ele>
        <time>2018-04-19T11:23:01Z</time>
      </trkpt>
      <trkpt lat="42.9371" lon="0.14067">
        <ele>2843.03</ele>
        <time>2018-04-19T11:23:02Z</time>
      </trkpt>
      <trkpt lat="42.93709" lon="0.14064">
        <ele>2841.46</ele>
        <time>2018-04-19T11:23:03Z</time>
      </trkpt>
      <trkpt lat="42.9371" lon="0.1406">
        <ele>2839.11</ele>
        <time>2018-04-19T11:23:04Z</time>
      </trkpt>
      <trkpt lat="42.93711" lon="0.14058">
        <ele>2839.44</ele>
        <time>2018-04-19T11:23:05Z</time>
      </trkpt>
      <trkpt lat="42.93711" lon="0.14057">
        <ele>2839.36</ele>
        <time>2018-04-19T11:23:06Z</time>
      </trkpt>
      <trkpt lat="42.93712" lon="0.14055">
        <ele>2839.43</ele>
        <time>2018-04-19T11:23:07Z</time>
      </trkpt>
      <trkpt lat="42.93712" lon="0.14052">
        <ele>2837.45</ele>
        <time>2018-04-19T11:23:08Z</time>
      </trkpt>
      <trkpt lat="42.93711" lon="0.14049">
        <ele>2834.99</ele>
        <time>2018-04-19T11:23:09Z</time>
      </trkpt>
      <trkpt lat="42.93709" lon="0.14049">
        <ele>2834.2</ele>
        <time>2018-04-19T11:23:10Z</time>
      </trkpt>
      <trkpt lat="42.93708" lon="0.1405">
        <ele>2833.91</ele>
        <time>2018-04-19T11:23:11Z</time>
      </trkpt>
      <trkpt lat="42.93706" lon="0.1405">
        <ele>2833.23</ele>
        <time>2018-04-19T11:23:12Z</time>
      </trkpt>
      <trkpt lat="42.93704" lon="0.14051">
        <ele>2832.8</ele>
        <time>2018-04-19T11:23:13Z</time>
      </trkpt>
      <trkpt lat="42.93701" lon="0.1405">
        <ele>2831.14</ele>
        <time>2018-04-19T11:23:14Z</time>
      </trkpt>
      <trkpt lat="42.937" lon="0.14046">
        <ele>2828.5</ele>
        <time>2018-04-19T11:23:15Z</time>
      </trkpt>
      <trkpt lat="42.93701" lon="0.14042">
        <ele>2827.15</ele>
        <time>2018-04-19T11:23:16Z</time>
      </trkpt>
      <trkpt lat="42.93701" lon="0.1404">
        <ele>2826.86</ele>
        <time>2018-04-19T11:23:17Z</time>
      </trkpt>
      <trkpt lat="42.93702" lon="0.14036">
        <ele>2826.24</ele>
        <time>2018-04-19T11:23:18Z</time>
      </trkpt>
      <trkpt lat="42.93703" lon="0.14031">
        <ele>2824.48</ele>
        <time>2018-04-19T11:23:19Z</time>
      </trkpt>
      <trkpt lat="42.93704" lon="0.14028">
        <ele>2823.99</ele>
        <time>2018-04-19T11:23:20Z</time>
      </trkpt>
      <trkpt lat="42.93705" lon="0.14026">
        <ele>2823.56</ele>
        <time>2018-04-19T11:23:21Z</time>
      </trkpt>
      <trkpt lat="42.93708" lon="0.14016">
        <ele>2822.24</ele>
        <time>2018-04-19T11:23:35Z</time>
      </trkpt>
      <trkpt lat="42.93706" lon="0.14015">
        <ele>2821.99</ele>
        <time>2018-04-19T11:23:48Z</time>
      </trkpt>
      <trkpt lat="42.93706" lon="0.14013">
        <ele>2821.57</ele>
        <time>2018-04-19T11:23:49Z</time>
      </trkpt>
      <trkpt lat="42.93706" lon="0.1401">
        <ele>2821.09</ele>
        <time>2018-04-19T11:23:50Z</time>
      </trkpt>
      <trkpt lat="42.93703" lon="0.14006">
        <ele>2818.58</ele>
        <time>2018-04-19T11:23:52Z</time>
      </trkpt>
      <trkpt lat="42.93701" lon="0.14007">
        <ele>2817.78</ele>
        <time>2018-04-19T11:23:53Z</time>
      </trkpt>
      <trkpt lat="42.93697" lon="0.14009">
        <ele>2815.99</ele>
        <time>2018-04-19T11:23:55Z</time>
      </trkpt>
      <trkpt lat="42.93695" lon="0.14007">
        <ele>2815.06</ele>
        <time>2018-04-19T11:23:56Z</time>
      </trkpt>
      <trkpt lat="42.93694" lon="0.14004">
        <ele>2812.06</ele>
        <time>2018-04-19T11:23:57Z</time>
      </trkpt>
      <trkpt lat="42.93694" lon="0.14">
        <ele>2809.88</ele>
        <time>2018-04-19T11:23:58Z</time>
      </trkpt>
      <trkpt lat="42.93695" lon="0.13996">
        <ele>2808.49</ele>
        <time>2018-04-19T11:23:59Z</time>
      </trkpt>
      <trkpt lat="42.93695" lon="0.13993">
        <ele>2807.74</ele>
        <time>2018-04-19T11:24:00Z</time>
      </trkpt>
      <trkpt lat="42.93696" lon="0.13991">
        <ele>2807.18</ele>
        <time>2018-04-19T11:24:01Z</time>
      </trkpt>
      <trkpt lat="42.93696" lon="0.13989">
        <ele>2806.73</ele>
        <time>2018-04-19T11:24:02Z</time>
      </trkpt>
      <trkpt lat="42.93695" lon="0.13985">
        <ele>2806.95</ele>
        <time>2018-04-19T11:24:03Z</time>
      </trkpt>
      <trkpt lat="42.93693" lon="0.13982">
        <ele>2804.47</ele>
        <time>2018-04-19T11:24:04Z</time>
      </trkpt>
      <trkpt lat="42.93692" lon="0.1398">
        <ele>2802.82</ele>
        <time>2018-04-19T11:24:06Z</time>
      </trkpt>
      <trkpt lat="42.93688" lon="0.13982">
        <ele>2801.33</ele>
        <time>2018-04-19T11:24:11Z</time>
      </trkpt>
      <trkpt lat="42.93685" lon="0.13978">
        <ele>2797.42</ele>
        <time>2018-04-19T11:24:13Z</time>
      </trkpt>
      <trkpt lat="42.93685" lon="0.13975">
        <ele>2796.39</ele>
        <time>2018-04-19T11:24:14Z</time>
      </trkpt>
      <trkpt lat="42.93685" lon="0.13972">
        <ele>2795.92</ele>
        <time>2018-04-19T11:24:15Z</time>
      </trkpt>
      <trkpt lat="42.93687" lon="0.13966">
        <ele>2795.14</ele>
        <time>2018-04-19T11:24:17Z</time>
      </trkpt>
      <trkpt lat="42.93689" lon="0.13954">
        <ele>2792.85</ele>
        <time>2018-04-19T11:24:21Z</time>
      </trkpt>
      <trkpt lat="42.93687" lon="0.13952">
        <ele>2791.83</ele>
        <time>2018-04-19T11:24:22Z</time>
      </trkpt>
      <trkpt lat="42.93684" lon="0.13953">
        <ele>2789.93</ele>
        <time>2018-04-19T11:24:23Z</time>
      </trkpt>
      <trkpt lat="42.93683" lon="0.13954">
        <ele>2788.76</ele>
        <time>2018-04-19T11:24:24Z</time>
      </trkpt>
      <trkpt lat="42.93681" lon="0.13956">
        <ele>2788.03</ele>
        <time>2018-04-19T11:24:25Z</time>
      </trkpt>
      <trkpt lat="42.93679" lon="0.13957">
        <ele>2787.56</ele>
        <time>2018-04-19T11:24:26Z</time>
      </trkpt>
      <trkpt lat="42.93676" lon="0.13958">
        <ele>2785.67</ele>
        <time>2018-04-19T11:24:27Z</time>
      </trkpt>
      <trkpt lat="42.93673" lon="0.13952">
        <ele>2780.52</ele>
        <time>2018-04-19T11:24:29Z</time>
      </trkpt>
      <trkpt lat="42.93673" lon="0.13949">
        <ele>2780.27</ele>
        <time>2018-04-19T11:24:30Z</time>
      </trkpt>
      <trkpt lat="42.93674" lon="0.13949">
        <ele>2780.19</ele>
        <time>2018-04-19T11:24:42Z</time>
      </trkpt>
      <trkpt lat="42.93673" lon="0.13947">
        <ele>2779.25</ele>
        <time>2018-04-19T11:24:56Z</time>
      </trkpt>
      <trkpt lat="42.93673" lon="0.13944">
        <ele>2778.91</ele>
        <time>2018-04-19T11:24:57Z</time>
      </trkpt>
      <trkpt lat="42.93674" lon="0.13942">
        <ele>2777.66</ele>
        <time>2018-04-19T11:24:58Z</time>
      </trkpt>
      <trkpt lat="42.93674" lon="0.1394">
        <ele>2777.27</ele>
        <time>2018-04-19T11:24:59Z</time>
      </trkpt>
      <trkpt lat="42.93674" lon="0.13937">
        <ele>2776.61</ele>
        <time>2018-04-19T11:25:00Z</time>
      </trkpt>
      <trkpt lat="42.93675" lon="0.13935">
        <ele>2775.88</ele>
        <time>2018-04-19T11:25:01Z</time>
      </trkpt>
      <trkpt lat="42.93674" lon="0.13932">
        <ele>2775.27</ele>
        <time>2018-04-19T11:25:02Z</time>
      </trkpt>
      <trkpt lat="42.93667" lon="0.1393">
        <ele>2770.79</ele>
        <time>2018-04-19T11:25:05Z</time>
      </trkpt>
      <trkpt lat="42.93664" lon="0.13931">
        <ele>2770.32</ele>
        <time>2018-04-19T11:25:06Z</time>
      </trkpt>
      <trkpt lat="42.9366" lon="0.13928">
        <ele>2764.15</ele>
        <time>2018-04-19T11:25:07Z</time>
      </trkpt>
      <trkpt lat="42.9366" lon="0.13924">
        <ele>2763.72</ele>
        <time>2018-04-19T11:25:08Z</time>
      </trkpt>
      <trkpt lat="42.9366" lon="0.13915">
        <ele>2762.24</ele>
        <time>2018-04-19T11:25:10Z</time>
      </trkpt>
      <trkpt lat="42.93658" lon="0.13913">
        <ele>2761.01</ele>
        <time>2018-04-19T11:25:11Z</time>
      </trkpt>
      <trkpt lat="42.93653" lon="0.1391">
        <ele>2754.62</ele>
        <time>2018-04-19T11:25:12Z</time>
      </trkpt>
      <trkpt lat="42.93647" lon="0.13896">
        <ele>2751.42</ele>
        <time>2018-04-19T11:25:15Z</time>
      </trkpt>
      <trkpt lat="42.93638" lon="0.13895">
        <ele>2745.32</ele>
        <time>2018-04-19T11:25:17Z</time>
      </trkpt>
      <trkpt lat="42.93636" lon="0.13884">
        <ele>2741.81</ele>
        <time>2018-04-19T11:25:19Z</time>
      </trkpt>
      <trkpt lat="42.93637" lon="0.13869">
        <ele>2738.18</ele>
        <time>2018-04-19T11:25:22Z</time>
      </trkpt>
      <trkpt lat="42.93627" lon="0.13869">
        <ele>2731.4</ele>
        <time>2018-04-19T11:25:25Z</time>
      </trkpt>
      <trkpt lat="42.93623" lon="0.13867">
        <ele>2727.25</ele>
        <time>2018-04-19T11:25:26Z</time>
      </trkpt>
      <trkpt lat="42.93621" lon="0.13856">
        <ele>2724.78</ele>
        <time>2018-04-19T11:25:28Z</time>
      </trkpt>
      <trkpt lat="42.93625" lon="0.13837">
        <ele>2723.95</ele>
        <time>2018-04-19T11:25:32Z</time>
      </trkpt>
      <trkpt lat="42.93622" lon="0.13832">
        <ele>2722.15</ele>
        <time>2018-04-19T11:25:36Z</time>
      </trkpt>
      <trkpt lat="42.9362" lon="0.13833">
        <ele>2723.32</ele>
        <time>2018-04-19T11:26:08Z</time>
      </trkpt>
      <trkpt lat="42.93614" lon="0.13831">
        <ele>2717.18</ele>
        <time>2018-04-19T11:26:11Z</time>
      </trkpt>
      <trkpt lat="42.93614" lon="0.13822">
        <ele>2715.05</ele>
        <time>2018-04-19T11:26:13Z</time>
      </trkpt>
      <trkpt lat="42.93614" lon="0.13814">
        <ele>2714.6</ele>
        <time>2018-04-19T11:26:15Z</time>
      </trkpt>
      <trkpt lat="42.9361" lon="0.13811">
        <ele>2711.61</ele>
        <time>2018-04-19T11:26:17Z</time>
      </trkpt>
      <trkpt lat="42.93604" lon="0.13809">
        <ele>2704.48</ele>
        <time>2018-04-19T11:26:19Z</time>
      </trkpt>
      <trkpt lat="42.93603" lon="0.13797">
        <ele>2701.55</ele>
        <time>2018-04-19T11:26:21Z</time>
      </trkpt>
      <trkpt lat="42.93603" lon="0.13791">
        <ele>2699.55</ele>
        <time>2018-04-19T11:26:22Z</time>
      </trkpt>
      <trkpt lat="42.93598" lon="0.13776">
        <ele>2695.21</ele>
        <time>2018-04-19T11:26:26Z</time>
      </trkpt>
      <trkpt lat="42.93592" lon="0.13773">
        <ele>2689.62</ele>
        <time>2018-04-19T11:26:27Z</time>
      </trkpt>
      <trkpt lat="42.9359" lon="0.13766">
        <ele>2689.78</ele>
        <time>2018-04-19T11:26:28Z</time>
      </trkpt>
      <trkpt lat="42.93586" lon="0.13754">
        <ele>2685.22</ele>
        <time>2018-04-19T11:26:31Z</time>
      </trkpt>
      <trkpt lat="42.9358" lon="0.13753">
        <ele>2680.33</ele>
        <time>2018-04-19T11:26:32Z</time>
      </trkpt>
      <trkpt lat="42.93574" lon="0.13741">
        <ele>2677.29</ele>
        <time>2018-04-19T11:26:34Z</time>
      </trkpt>
      <trkpt lat="42.93573" lon="0.13725">
        <ele>2675.71</ele>
        <time>2018-04-19T11:26:36Z</time>
      </trkpt>
      <trkpt lat="42.93566" lon="0.1372">
        <ele>2671.11</ele>
        <time>2018-04-19T11:26:38Z</time>
      </trkpt>
      <trkpt lat="42.93559" lon="0.13721">
        <ele>2668.76</ele>
        <time>2018-04-19T11:26:39Z</time>
      </trkpt>
      <trkpt lat="42.93553" lon="0.13718">
        <ele>2665.09</ele>
        <time>2018-04-19T11:26:40Z</time>
      </trkpt>
      <trkpt lat="42.93549" lon="0.13711">
        <ele>2662.37</ele>
        <time>2018-04-19T11:26:41Z</time>
      </trkpt>
      <trkpt lat="42.93545" lon="0.13704">
        <ele>2662.54</ele>
        <time>2018-04-19T11:26:42Z</time>
      </trkpt>
      <trkpt lat="42.93541" lon="0.13698">
        <ele>2661.95</ele>
        <time>2018-04-19T11:26:43Z</time>
      </trkpt>
      <trkpt lat="42.93536" lon="0.13694">
        <ele>2658.54</ele>
        <time>2018-04-19T11:26:44Z</time>
      </trkpt>
      <trkpt lat="42.93533" lon="0.13688">
        <ele>2659.19</ele>
        <time>2018-04-19T11:26:45Z</time>
      </trkpt>
      <trkpt lat="42.93532" lon="0.13683">
        <ele>2659.9</ele>
        <time>2018-04-19T11:26:46Z</time>
      </trkpt>
      <trkpt lat="42.93528" lon="0.13681">
        <ele>2661.08</ele>
        <time>2018-04-19T11:26:48Z</time>
      </trkpt>
      <trkpt lat="42.93527" lon="0.13682">
        <ele>2660.32</ele>
        <time>2018-04-19T11:26:50Z</time>
      </trkpt>
      <trkpt lat="42.93528" lon="0.13682">
        <ele>2662.07</ele>
        <time>2018-04-19T11:26:52Z</time>
      </trkpt>
      <trkpt lat="42.93529" lon="0.13683">
        <ele>2660.14</ele>
        <time>2018-04-19T11:27:24Z</time>
      </trkpt>
      <trkpt lat="42.93527" lon="0.13687">
        <ele>2660.13</ele>
        <time>2018-04-19T11:27:29Z</time>
      </trkpt>
      <trkpt lat="42.93515" lon="0.13678">
        <ele>2656.66</ele>
        <time>2018-04-19T11:27:37Z</time>
      </trkpt>
      <trkpt lat="42.93507" lon="0.13675">
        <ele>2649.11</ele>
        <time>2018-04-19T11:27:39Z</time>
      </trkpt>
      <trkpt lat="42.93504" lon="0.13671">
        <ele>2649.16</ele>
        <time>2018-04-19T11:27:40Z</time>
      </trkpt>
      <trkpt lat="42.93496" lon="0.1366">
        <ele>2644.32</ele>
        <time>2018-04-19T11:27:44Z</time>
      </trkpt>
      <trkpt lat="42.93493" lon="0.13657">
        <ele>2644.24</ele>
        <time>2018-04-19T11:27:45Z</time>
      </trkpt>
      <trkpt lat="42.93491" lon="0.13648">
        <ele>2642.95</ele>
        <time>2018-04-19T11:27:47Z</time>
      </trkpt>
      <trkpt lat="42.93484" lon="0.13643">
        <ele>2642.41</ele>
        <time>2018-04-19T11:27:49Z</time>
      </trkpt>
      <trkpt lat="42.93467" lon="0.1364">
        <ele>2635.99</ele>
        <time>2018-04-19T11:27:52Z</time>
      </trkpt>
      <trkpt lat="42.93457" lon="0.1364">
        <ele>2636.79</ele>
        <time>2018-04-19T11:28:00Z</time>
      </trkpt>
      <trkpt lat="42.93457" lon="0.1364">
        <ele>2637.02</ele>
        <time>2018-04-19T11:28:01Z</time>
      </trkpt>
      <trkpt lat="42.93458" lon="0.13639">
        <ele>2637.23</ele>
        <time>2018-04-19T11:28:32Z</time>
      </trkpt>
      <trkpt lat="42.93459" lon="0.13639">
        <ele>2637.24</ele>
        <time>2018-04-19T11:29:00Z</time>
      </trkpt>
      <trkpt lat="42.93465" lon="0.13644">
        <ele>2634.87</ele>
        <time>2018-04-19T11:29:04Z</time>
      </trkpt>
      <trkpt lat="42.93468" lon="0.1365">
        <ele>2634.97</ele>
        <time>2018-04-19T11:29:33Z</time>
      </trkpt>
      <trkpt lat="42.93466" lon="0.13671">
        <ele>2630.61</ele>
        <time>2018-04-19T11:29:37Z</time>
      </trkpt>
      <trkpt lat="42.93462" lon="0.13675">
        <ele>2625.78</ele>
        <time>2018-04-19T11:29:38Z</time>
      </trkpt>
      <trkpt lat="42.93459" lon="0.13675">
        <ele>2625.27</ele>
        <time>2018-04-19T11:29:39Z</time>
      </trkpt>
      <trkpt lat="42.93455" lon="0.13675">
        <ele>2623.48</ele>
        <time>2018-04-19T11:29:40Z</time>
      </trkpt>
      <trkpt lat="42.93452" lon="0.13677">
        <ele>2624.98</ele>
        <time>2018-04-19T11:29:41Z</time>
      </trkpt>
      <trkpt lat="42.93451" lon="0.13682">
        <ele>2623.63</ele>
        <time>2018-04-19T11:29:42Z</time>
      </trkpt>
      <trkpt lat="42.9345" lon="0.13688">
        <ele>2620.48</ele>
        <time>2018-04-19T11:29:43Z</time>
      </trkpt>
      <trkpt lat="42.93448" lon="0.13692">
        <ele>2617.18</ele>
        <time>2018-04-19T11:29:44Z</time>
      </trkpt>
      <trkpt lat="42.93443" lon="0.13694">
        <ele>2614.88</ele>
        <time>2018-04-19T11:29:45Z</time>
      </trkpt>
      <trkpt lat="42.9344" lon="0.13694">
        <ele>2614.86</ele>
        <time>2018-04-19T11:29:46Z</time>
      </trkpt>
      <trkpt lat="42.93438" lon="0.13693">
        <ele>2614.41</ele>
        <time>2018-04-19T11:29:47Z</time>
      </trkpt>
      <trkpt lat="42.9343" lon="0.13697">
        <ele>2613.22</ele>
        <time>2018-04-19T11:29:49Z</time>
      </trkpt>
      <trkpt lat="42.93429" lon="0.13701">
        <ele>2610.92</ele>
        <time>2018-04-19T11:29:50Z</time>
      </trkpt>
      <trkpt lat="42.9343" lon="0.13706">
        <ele>2610.45</ele>
        <time>2018-04-19T11:29:51Z</time>
      </trkpt>
      <trkpt lat="42.9343" lon="0.13709">
        <ele>2609.58</ele>
        <time>2018-04-19T11:29:52Z</time>
      </trkpt>
      <trkpt lat="42.9343" lon="0.13713">
        <ele>2608.16</ele>
        <time>2018-04-19T11:29:53Z</time>
      </trkpt>
      <trkpt lat="42.93423" lon="0.13718">
        <ele>2602.04</ele>
        <time>2018-04-19T11:29:55Z</time>
      </trkpt>
      <trkpt lat="42.93412" lon="0.13719">
        <ele>2597.78</ele>
        <time>2018-04-19T11:30:00Z</time>
      </trkpt>
      <trkpt lat="42.93411" lon="0.13725">
        <ele>2594.17</ele>
        <time>2018-04-19T11:30:01Z</time>
      </trkpt>
      <trkpt lat="42.93412" lon="0.13732">
        <ele>2592.02</ele>
        <time>2018-04-19T11:30:04Z</time>
      </trkpt>
      <trkpt lat="42.93414" lon="0.13733">
        <ele>2592.54</ele>
        <time>2018-04-19T11:30:30Z</time>
      </trkpt>
      <trkpt lat="42.93414" lon="0.13734">
        <ele>2593.04</ele>
        <time>2018-04-19T11:30:45Z</time>
      </trkpt>
      <trkpt lat="42.93414" lon="0.1374">
        <ele>2591.68</ele>
        <time>2018-04-19T11:30:48Z</time>
      </trkpt>
      <trkpt lat="42.93411" lon="0.13757">
        <ele>2588.09</ele>
        <time>2018-04-19T11:30:52Z</time>
      </trkpt>
      <trkpt lat="42.9341" lon="0.1376">
        <ele>2587.87</ele>
        <time>2018-04-19T11:30:53Z</time>
      </trkpt>
      <trkpt lat="42.93407" lon="0.13779">
        <ele>2584.19</ele>
        <time>2018-04-19T11:31:01Z</time>
      </trkpt>
      <trkpt lat="42.93406" lon="0.13781">
        <ele>2584.16</ele>
        <time>2018-04-19T11:31:02Z</time>
      </trkpt>
      <trkpt lat="42.93403" lon="0.13791">
        <ele>2580.96</ele>
        <time>2018-04-19T11:31:06Z</time>
      </trkpt>
      <trkpt lat="42.93396" lon="0.13789">
        <ele>2576.03</ele>
        <time>2018-04-19T11:31:10Z</time>
      </trkpt>
      <trkpt lat="42.93395" lon="0.13788">
        <ele>2575.85</ele>
        <time>2018-04-19T11:31:34Z</time>
      </trkpt>
      <trkpt lat="42.93391" lon="0.13779">
        <ele>2573.25</ele>
        <time>2018-04-19T11:31:46Z</time>
      </trkpt>
      <trkpt lat="42.93384" lon="0.13788">
        <ele>2566.83</ele>
        <time>2018-04-19T11:31:49Z</time>
      </trkpt>
      <trkpt lat="42.93381" lon="0.138">
        <ele>2564.71</ele>
        <time>2018-04-19T11:31:51Z</time>
      </trkpt>
      <trkpt lat="42.93377" lon="0.13812">
        <ele>2561.73</ele>
        <time>2018-04-19T11:31:54Z</time>
      </trkpt>
      <trkpt lat="42.93371" lon="0.13828">
        <ele>2558.54</ele>
        <time>2018-04-19T11:32:00Z</time>
      </trkpt>
      <trkpt lat="42.93366" lon="0.13838">
        <ele>2556.04</ele>
        <time>2018-04-19T11:32:10Z</time>
      </trkpt>
      <trkpt lat="42.93361" lon="0.13837">
        <ele>2552.64</ele>
        <time>2018-04-19T11:32:12Z</time>
      </trkpt>
      <trkpt lat="42.9336" lon="0.13836">
        <ele>2551.17</ele>
        <time>2018-04-19T11:32:15Z</time>
      </trkpt>
      <trkpt lat="42.93358" lon="0.13833">
        <ele>2550.82</ele>
        <time>2018-04-19T11:32:17Z</time>
      </trkpt>
      <trkpt lat="42.93356" lon="0.13831">
        <ele>2549.71</ele>
        <time>2018-04-19T11:32:18Z</time>
      </trkpt>
      <trkpt lat="42.93354" lon="0.13832">
        <ele>2546.27</ele>
        <time>2018-04-19T11:32:19Z</time>
      </trkpt>
      <trkpt lat="42.93353" lon="0.13835">
        <ele>2545.33</ele>
        <time>2018-04-19T11:32:20Z</time>
      </trkpt>
      <trkpt lat="42.93351" lon="0.1384">
        <ele>2544.39</ele>
        <time>2018-04-19T11:32:21Z</time>
      </trkpt>
      <trkpt lat="42.93348" lon="0.13849">
        <ele>2535.06</ele>
        <time>2018-04-19T11:32:24Z</time>
      </trkpt>
      <trkpt lat="42.93347" lon="0.13851">
        <ele>2542.74</ele>
        <time>2018-04-19T11:32:25Z</time>
      </trkpt>
      <trkpt lat="42.93346" lon="0.13852">
        <ele>2538.18</ele>
        <time>2018-04-19T11:32:27Z</time>
      </trkpt>
      <trkpt lat="42.93341" lon="0.13853">
        <ele>2534.74</ele>
        <time>2018-04-19T11:32:30Z</time>
      </trkpt>
      <trkpt lat="42.93337" lon="0.13855">
        <ele>2531.83</ele>
        <time>2018-04-19T11:32:45Z</time>
      </trkpt>
      <trkpt lat="42.93336" lon="0.13859">
        <ele>2531.18</ele>
        <time>2018-04-19T11:32:47Z</time>
      </trkpt>
      <trkpt lat="42.93333" lon="0.13867">
        <ele>2528.91</ele>
        <time>2018-04-19T11:32:51Z</time>
      </trkpt>
      <trkpt lat="42.93335" lon="0.13868">
        <ele>2527.99</ele>
        <time>2018-04-19T11:33:15Z</time>
      </trkpt>
      <trkpt lat="42.93335" lon="0.13869">
        <ele>2528.53</ele>
        <time>2018-04-19T11:33:30Z</time>
      </trkpt>
      <trkpt lat="42.93334" lon="0.13871">
        <ele>2527.43</ele>
        <time>2018-04-19T11:33:31Z</time>
      </trkpt>
      <trkpt lat="42.93332" lon="0.13873">
        <ele>2527.42</ele>
        <time>2018-04-19T11:33:32Z</time>
      </trkpt>
      <trkpt lat="42.93331" lon="0.13877">
        <ele>2524.85</ele>
        <time>2018-04-19T11:33:33Z</time>
      </trkpt>
      <trkpt lat="42.93329" lon="0.1388">
        <ele>2523.45</ele>
        <time>2018-04-19T11:33:34Z</time>
      </trkpt>
      <trkpt lat="42.93326" lon="0.13887">
        <ele>2520.39</ele>
        <time>2018-04-19T11:33:36Z</time>
      </trkpt>
      <trkpt lat="42.93321" lon="0.13897">
        <ele>2517.3</ele>
        <time>2018-04-19T11:33:41Z</time>
      </trkpt>
      <trkpt lat="42.93319" lon="0.13899">
        <ele>2516.58</ele>
        <time>2018-04-19T11:33:42Z</time>
      </trkpt>
      <trkpt lat="42.93311" lon="0.13899">
        <ele>2512.13</ele>
        <time>2018-04-19T11:33:45Z</time>
      </trkpt>
      <trkpt lat="42.93311" lon="0.13897">
        <ele>2511.17</ele>
        <time>2018-04-19T11:33:46Z</time>
      </trkpt>
      <trkpt lat="42.9331" lon="0.13895">
        <ele>2510.94</ele>
        <time>2018-04-19T11:33:47Z</time>
      </trkpt>
      <trkpt lat="42.93309" lon="0.13892">
        <ele>2510.13</ele>
        <time>2018-04-19T11:33:49Z</time>
      </trkpt>
      <trkpt lat="42.93305" lon="0.13894">
        <ele>2506.28</ele>
        <time>2018-04-19T11:33:52Z</time>
      </trkpt>
      <trkpt lat="42.93301" lon="0.13901">
        <ele>2504.2</ele>
        <time>2018-04-19T11:33:54Z</time>
      </trkpt>
      <trkpt lat="42.93299" lon="0.13905">
        <ele>2502.71</ele>
        <time>2018-04-19T11:34:07Z</time>
      </trkpt>
      <trkpt lat="42.93298" lon="0.13909">
        <ele>2502.75</ele>
        <time>2018-04-19T11:34:13Z</time>
      </trkpt>
      <trkpt lat="42.93298" lon="0.13911">
        <ele>2502.2</ele>
        <time>2018-04-19T11:34:14Z</time>
      </trkpt>
      <trkpt lat="42.93297" lon="0.13912">
        <ele>2501.67</ele>
        <time>2018-04-19T11:34:15Z</time>
      </trkpt>
      <trkpt lat="42.93294" lon="0.13913">
        <ele>2501.48</ele>
        <time>2018-04-19T11:34:16Z</time>
      </trkpt>
      <trkpt lat="42.9329" lon="0.13909">
        <ele>2498.37</ele>
        <time>2018-04-19T11:34:19Z</time>
      </trkpt>
      <trkpt lat="42.9329" lon="0.13907">
        <ele>2498.44</ele>
        <time>2018-04-19T11:34:20Z</time>
      </trkpt>
      <trkpt lat="42.93289" lon="0.13902">
        <ele>2497.02</ele>
        <time>2018-04-19T11:34:22Z</time>
      </trkpt>
      <trkpt lat="42.93288" lon="0.13899">
        <ele>2496.16</ele>
        <time>2018-04-19T11:34:23Z</time>
      </trkpt>
      <trkpt lat="42.93287" lon="0.13896">
        <ele>2496.22</ele>
        <time>2018-04-19T11:34:24Z</time>
      </trkpt>
      <trkpt lat="42.93287" lon="0.13892">
        <ele>2495.61</ele>
        <time>2018-04-19T11:34:28Z</time>
      </trkpt>
      <trkpt lat="42.93286" lon="0.1389">
        <ele>2495.31</ele>
        <time>2018-04-19T11:34:29Z</time>
      </trkpt>
      <trkpt lat="42.93285" lon="0.13888">
        <ele>2494.24</ele>
        <time>2018-04-19T11:34:30Z</time>
      </trkpt>
      <trkpt lat="42.93284" lon="0.13885">
        <ele>2493.23</ele>
        <time>2018-04-19T11:34:31Z</time>
      </trkpt>
      <trkpt lat="42.93283" lon="0.13882">
        <ele>2492.99</ele>
        <time>2018-04-19T11:34:32Z</time>
      </trkpt>
      <trkpt lat="42.93283" lon="0.1388">
        <ele>2492.73</ele>
        <time>2018-04-19T11:34:33Z</time>
      </trkpt>
      <trkpt lat="42.93282" lon="0.13878">
        <ele>2492.21</ele>
        <time>2018-04-19T11:34:34Z</time>
      </trkpt>
      <trkpt lat="42.9328" lon="0.13871">
        <ele>2491.09</ele>
        <time>2018-04-19T11:34:46Z</time>
      </trkpt>
      <trkpt lat="42.9328" lon="0.1387">
        <ele>2490.26</ele>
        <time>2018-04-19T11:34:48Z</time>
      </trkpt>
      <trkpt lat="42.93274" lon="0.1387">
        <ele>2485.79</ele>
        <time>2018-04-19T11:34:51Z</time>
      </trkpt>
      <trkpt lat="42.93273" lon="0.13872">
        <ele>2485.46</ele>
        <time>2018-04-19T11:34:52Z</time>
      </trkpt>
      <trkpt lat="42.93272" lon="0.13875">
        <ele>2484.9</ele>
        <time>2018-04-19T11:34:53Z</time>
      </trkpt>
      <trkpt lat="42.9327" lon="0.13878">
        <ele>2484.3</ele>
        <time>2018-04-19T11:34:54Z</time>
      </trkpt>
      <trkpt lat="42.93269" lon="0.13881">
        <ele>2484.27</ele>
        <time>2018-04-19T11:34:55Z</time>
      </trkpt>
      <trkpt lat="42.93268" lon="0.13884">
        <ele>2482.98</ele>
        <time>2018-04-19T11:34:56Z</time>
      </trkpt>
      <trkpt lat="42.93267" lon="0.13886">
        <ele>2482.89</ele>
        <time>2018-04-19T11:34:57Z</time>
      </trkpt>
      <trkpt lat="42.93265" lon="0.13889">
        <ele>2481.98</ele>
        <time>2018-04-19T11:34:58Z</time>
      </trkpt>
      <trkpt lat="42.93263" lon="0.13893">
        <ele>2481.13</ele>
        <time>2018-04-19T11:34:59Z</time>
      </trkpt>
      <trkpt lat="42.9326" lon="0.13895">
        <ele>2479.52</ele>
        <time>2018-04-19T11:35:00Z</time>
      </trkpt>
      <trkpt lat="42.93253" lon="0.1389">
        <ele>2475.73</ele>
        <time>2018-04-19T11:35:02Z</time>
      </trkpt>
      <trkpt lat="42.93253" lon="0.13887">
        <ele>2475.08</ele>
        <time>2018-04-19T11:35:03Z</time>
      </trkpt>
      <trkpt lat="42.93253" lon="0.13884">
        <ele>2474.69</ele>
        <time>2018-04-19T11:35:04Z</time>
      </trkpt>
      <trkpt lat="42.93253" lon="0.13882">
        <ele>2474.4</ele>
        <time>2018-04-19T11:35:05Z</time>
      </trkpt>
      <trkpt lat="42.93253" lon="0.1388">
        <ele>2474.09</ele>
        <time>2018-04-19T11:35:06Z</time>
      </trkpt>
      <trkpt lat="42.93252" lon="0.13877">
        <ele>2473.29</ele>
        <time>2018-04-19T11:35:07Z</time>
      </trkpt>
      <trkpt lat="42.93252" lon="0.13875">
        <ele>2473.23</ele>
        <time>2018-04-19T11:35:08Z</time>
      </trkpt>
      <trkpt lat="42.93251" lon="0.13873">
        <ele>2472.46</ele>
        <time>2018-04-19T11:35:09Z</time>
      </trkpt>
      <trkpt lat="42.93247" lon="0.13874">
        <ele>2469.16</ele>
        <time>2018-04-19T11:35:12Z</time>
      </trkpt>
      <trkpt lat="42.93244" lon="0.13881">
        <ele>2467.08</ele>
        <time>2018-04-19T11:35:15Z</time>
      </trkpt>
      <trkpt lat="42.93239" lon="0.13886">
        <ele>2464.5</ele>
        <time>2018-04-19T11:35:17Z</time>
      </trkpt>
      <trkpt lat="42.93234" lon="0.13882">
        <ele>2461.25</ele>
        <time>2018-04-19T11:35:19Z</time>
      </trkpt>
      <trkpt lat="42.93233" lon="0.13875">
        <ele>2459.89</ele>
        <time>2018-04-19T11:35:22Z</time>
      </trkpt>
      <trkpt lat="42.93231" lon="0.13869">
        <ele>2458.19</ele>
        <time>2018-04-19T11:35:26Z</time>
      </trkpt>
      <trkpt lat="42.93225" lon="0.13867">
        <ele>2454.19</ele>
        <time>2018-04-19T11:35:29Z</time>
      </trkpt>
      <trkpt lat="42.93219" lon="0.13874">
        <ele>2449.7</ele>
        <time>2018-04-19T11:35:33Z</time>
      </trkpt>
      <trkpt lat="42.93216" lon="0.13868">
        <ele>2445.94</ele>
        <time>2018-04-19T11:35:35Z</time>
      </trkpt>
      <trkpt lat="42.93216" lon="0.13867">
        <ele>2445.96</ele>
        <time>2018-04-19T11:35:36Z</time>
      </trkpt>
      <trkpt lat="42.93215" lon="0.13866">
        <ele>2445.97</ele>
        <time>2018-04-19T11:35:52Z</time>
      </trkpt>
      <trkpt lat="42.93214" lon="0.13864">
        <ele>2445.06</ele>
        <time>2018-04-19T11:35:54Z</time>
      </trkpt>
      <trkpt lat="42.93207" lon="0.13866">
        <ele>2440.86</ele>
        <time>2018-04-19T11:35:57Z</time>
      </trkpt>
      <trkpt lat="42.93205" lon="0.1387">
        <ele>2438.04</ele>
        <time>2018-04-19T11:35:58Z</time>
      </trkpt>
      <trkpt lat="42.93203" lon="0.13878">
        <ele>2434.94</ele>
        <time>2018-04-19T11:36:02Z</time>
      </trkpt>
      <trkpt lat="42.932" lon="0.13882">
        <ele>2433.4</ele>
        <time>2018-04-19T11:36:04Z</time>
      </trkpt>
      <trkpt lat="42.93193" lon="0.13883">
        <ele>2428.18</ele>
        <time>2018-04-19T11:36:06Z</time>
      </trkpt>
      <trkpt lat="42.9319" lon="0.13881">
        <ele>2426.48</ele>
        <time>2018-04-19T11:36:08Z</time>
      </trkpt>
      <trkpt lat="42.93188" lon="0.13879">
        <ele>2426.65</ele>
        <time>2018-04-19T11:36:26Z</time>
      </trkpt>
      <trkpt lat="42.93188" lon="0.13878">
        <ele>2426.38</ele>
        <time>2018-04-19T11:36:41Z</time>
      </trkpt>
      <trkpt lat="42.93186" lon="0.13869">
        <ele>2424.19</ele>
        <time>2018-04-19T11:36:45Z</time>
      </trkpt>
      <trkpt lat="42.93182" lon="0.13856">
        <ele>2421.44</ele>
        <time>2018-04-19T11:36:50Z</time>
      </trkpt>
      <trkpt lat="42.93179" lon="0.13857">
        <ele>2417.47</ele>
        <time>2018-04-19T11:36:52Z</time>
      </trkpt>
      <trkpt lat="42.93179" lon="0.13859">
        <ele>2416.58</ele>
        <time>2018-04-19T11:36:57Z</time>
      </trkpt>
      <trkpt lat="42.93172" lon="0.1386">
        <ele>2411.96</ele>
        <time>2018-04-19T11:37:00Z</time>
      </trkpt>
      <trkpt lat="42.93171" lon="0.13857">
        <ele>2411.14</ele>
        <time>2018-04-19T11:37:01Z</time>
      </trkpt>
      <trkpt lat="42.9317" lon="0.13851">
        <ele>2409.95</ele>
        <time>2018-04-19T11:37:03Z</time>
      </trkpt>
      <trkpt lat="42.93164" lon="0.13848">
        <ele>2406.1</ele>
        <time>2018-04-19T11:37:06Z</time>
      </trkpt>
      <trkpt lat="42.93155" lon="0.13853">
        <ele>2402.4</ele>
        <time>2018-04-19T11:37:09Z</time>
      </trkpt>
      <trkpt lat="42.93149" lon="0.13854">
        <ele>2401.17</ele>
        <time>2018-04-19T11:37:10Z</time>
      </trkpt>
      <trkpt lat="42.93136" lon="0.13855">
        <ele>2395.99</ele>
        <time>2018-04-19T11:37:12Z</time>
      </trkpt>
      <trkpt lat="42.93129" lon="0.13856">
        <ele>2395.55</ele>
        <time>2018-04-19T11:37:13Z</time>
      </trkpt>
      <trkpt lat="42.93104" lon="0.1386">
        <ele>2390.71</ele>
        <time>2018-04-19T11:37:18Z</time>
      </trkpt>
      <trkpt lat="42.931" lon="0.13859">
        <ele>2391.05</ele>
        <time>2018-04-19T11:37:19Z</time>
      </trkpt>
      <trkpt lat="42.93092" lon="0.13856">
        <ele>2391.13</ele>
        <time>2018-04-19T11:37:28Z</time>
      </trkpt>
      <trkpt lat="42.93092" lon="0.13855">
        <ele>2389.87</ele>
        <time>2018-04-19T11:37:52Z</time>
      </trkpt>
      <trkpt lat="42.93093" lon="0.13855">
        <ele>2389.1</ele>
        <time>2018-04-19T11:38:45Z</time>
      </trkpt>
      <trkpt lat="42.93093" lon="0.13855">
        <ele>2390.57</ele>
        <time>2018-04-19T11:39:15Z</time>
      </trkpt>
      <trkpt lat="42.93093" lon="0.13855">
        <ele>2390.14</ele>
        <time>2018-04-19T11:39:41Z</time>
      </trkpt>
      <trkpt lat="42.93093" lon="0.13855">
        <ele>2390.02</ele>
        <time>2018-04-19T11:40:00Z</time>
      </trkpt>
      <trkpt lat="42.93092" lon="0.13854">
        <ele>2389.71</ele>
        <time>2018-04-19T11:40:21Z</time>
      </trkpt>
      <trkpt lat="42.93089" lon="0.13854">
        <ele>2389.94</ele>
        <time>2018-04-19T11:40:46Z</time>
      </trkpt>
      <trkpt lat="42.93088" lon="0.13855">
        <ele>2389.49</ele>
        <time>2018-04-19T11:40:47Z</time>
      </trkpt>
      <trkpt lat="42.93086" lon="0.13855">
        <ele>2389.64</ele>
        <time>2018-04-19T11:40:48Z</time>
      </trkpt>
      <trkpt lat="42.93085" lon="0.13855">
        <ele>2389.66</ele>
        <time>2018-04-19T11:40:49Z</time>
      </trkpt>
      <trkpt lat="42.93075" lon="0.13858">
        <ele>2389.82</ele>
        <time>2018-04-19T11:41:01Z</time>
      </trkpt>
      <trkpt lat="42.9307" lon="0.1386">
        <ele>2389.77</ele>
        <time>2018-04-19T11:41:06Z</time>
      </trkpt>
      <trkpt lat="42.93059" lon="0.13861">
        <ele>2390.6</ele>
        <time>2018-04-19T11:41:20Z</time>
      </trkpt>
      <trkpt lat="42.93049" lon="0.13858">
        <ele>2390.37</ele>
        <time>2018-04-19T11:41:34Z</time>
      </trkpt>
      <trkpt lat="42.93044" lon="0.13854">
        <ele>2390.27</ele>
        <time>2018-04-19T11:41:44Z</time>
      </trkpt>
      <trkpt lat="42.93041" lon="0.13852">
        <ele>2389.57</ele>
        <time>2018-04-19T11:42:02Z</time>
      </trkpt>
      <trkpt lat="42.93035" lon="0.13848">
        <ele>2387.94</ele>
        <time>2018-04-19T11:42:07Z</time>
      </trkpt>
      <trkpt lat="42.93031" lon="0.13845">
        <ele>2387.18</ele>
        <time>2018-04-19T11:42:12Z</time>
      </trkpt>
      <trkpt lat="42.93026" lon="0.13845">
        <ele>2386.93</ele>
        <time>2018-04-19T11:42:27Z</time>
      </trkpt>
      <trkpt lat="42.93025" lon="0.13845">
        <ele>2386.29</ele>
        <time>2018-04-19T11:42:45Z</time>
      </trkpt>
      <trkpt lat="42.93019" lon="0.13844">
        <ele>2385.66</ele>
        <time>2018-04-19T11:42:49Z</time>
      </trkpt>
      <trkpt lat="42.92996" lon="0.13841">
        <ele>2381.38</ele>
        <time>2018-04-19T11:43:02Z</time>
      </trkpt>
      <trkpt lat="42.92979" lon="0.13838">
        <ele>2377.58</ele>
        <time>2018-04-19T11:43:07Z</time>
      </trkpt>
      <trkpt lat="42.92954" lon="0.1384">
        <ele>2374.36</ele>
        <time>2018-04-19T11:43:15Z</time>
      </trkpt>
      <trkpt lat="42.92934" lon="0.13842">
        <ele>2370.47</ele>
        <time>2018-04-19T11:43:21Z</time>
      </trkpt>
      <trkpt lat="42.92923" lon="0.13843">
        <ele>2368.07</ele>
        <time>2018-04-19T11:43:25Z</time>
      </trkpt>
      <trkpt lat="42.92913" lon="0.13844">
        <ele>2366.36</ele>
        <time>2018-04-19T11:43:29Z</time>
      </trkpt>
      <trkpt lat="42.92906" lon="0.13845">
        <ele>2365.05</ele>
        <time>2018-04-19T11:43:31Z</time>
      </trkpt>
      <trkpt lat="42.92902" lon="0.13845">
        <ele>2364.39</ele>
        <time>2018-04-19T11:43:32Z</time>
      </trkpt>
      <trkpt lat="42.92891" lon="0.13844">
        <ele>2361.14</ele>
        <time>2018-04-19T11:43:36Z</time>
      </trkpt>
      <trkpt lat="42.92874" lon="0.13838">
        <ele>2357.82</ele>
        <time>2018-04-19T11:43:41Z</time>
      </trkpt>
      <trkpt lat="42.92866" lon="0.13836">
        <ele>2356.37</ele>
        <time>2018-04-19T11:43:50Z</time>
      </trkpt>
      <trkpt lat="42.92865" lon="0.13835">
        <ele>2356.28</ele>
        <time>2018-04-19T11:43:54Z</time>
      </trkpt>
      <trkpt lat="42.92863" lon="0.13834">
        <ele>2356.08</ele>
        <time>2018-04-19T11:43:55Z</time>
      </trkpt>
      <trkpt lat="42.92862" lon="0.13833">
        <ele>2356.12</ele>
        <time>2018-04-19T11:43:56Z</time>
      </trkpt>
      <trkpt lat="42.9286" lon="0.13832">
        <ele>2356.15</ele>
        <time>2018-04-19T11:43:57Z</time>
      </trkpt>
      <trkpt lat="42.92858" lon="0.13832">
        <ele>2356.21</ele>
        <time>2018-04-19T11:43:58Z</time>
      </trkpt>
      <trkpt lat="42.92857" lon="0.13831">
        <ele>2355.48</ele>
        <time>2018-04-19T11:43:59Z</time>
      </trkpt>
      <trkpt lat="42.92855" lon="0.1383">
        <ele>2354.95</ele>
        <time>2018-04-19T11:44:00Z</time>
      </trkpt>
      <trkpt lat="42.92853" lon="0.13829">
        <ele>2354.81</ele>
        <time>2018-04-19T11:44:01Z</time>
      </trkpt>
      <trkpt lat="42.92831" lon="0.13819">
        <ele>2350.78</ele>
        <time>2018-04-19T11:44:11Z</time>
      </trkpt>
      <trkpt lat="42.92828" lon="0.13817">
        <ele>2350.73</ele>
        <time>2018-04-19T11:44:12Z</time>
      </trkpt>
      <trkpt lat="42.9282" lon="0.13813">
        <ele>2349.14</ele>
        <time>2018-04-19T11:44:15Z</time>
      </trkpt>
      <trkpt lat="42.92812" lon="0.13808">
        <ele>2347.59</ele>
        <time>2018-04-19T11:44:18Z</time>
      </trkpt>
      <trkpt lat="42.92795" lon="0.13797">
        <ele>2344.15</ele>
        <time>2018-04-19T11:44:25Z</time>
      </trkpt>
      <trkpt lat="42.92791" lon="0.13794">
        <ele>2342.99</ele>
        <time>2018-04-19T11:44:27Z</time>
      </trkpt>
      <trkpt lat="42.92777" lon="0.13784">
        <ele>2339.73</ele>
        <time>2018-04-19T11:44:34Z</time>
      </trkpt>
      <trkpt lat="42.92775" lon="0.13782">
        <ele>2339.6</ele>
        <time>2018-04-19T11:44:35Z</time>
      </trkpt>
      <trkpt lat="42.9276" lon="0.13772">
        <ele>2336.13</ele>
        <time>2018-04-19T11:44:40Z</time>
      </trkpt>
      <trkpt lat="42.92758" lon="0.13771">
        <ele>2335.94</ele>
        <time>2018-04-19T11:44:41Z</time>
      </trkpt>
      <trkpt lat="42.92742" lon="0.13761">
        <ele>2332.94</ele>
        <time>2018-04-19T11:44:48Z</time>
      </trkpt>
      <trkpt lat="42.92734" lon="0.13756">
        <ele>2330.94</ele>
        <time>2018-04-19T11:44:51Z</time>
      </trkpt>
      <trkpt lat="42.92728" lon="0.13752">
        <ele>2329.86</ele>
        <time>2018-04-19T11:44:53Z</time>
      </trkpt>
      <trkpt lat="42.92716" lon="0.13741">
        <ele>2327.74</ele>
        <time>2018-04-19T11:44:58Z</time>
      </trkpt>
      <trkpt lat="42.92709" lon="0.13736">
        <ele>2326.83</ele>
        <time>2018-04-19T11:45:09Z</time>
      </trkpt>
      <trkpt lat="42.92707" lon="0.13734">
        <ele>2327.13</ele>
        <time>2018-04-19T11:45:19Z</time>
      </trkpt>
      <trkpt lat="42.92707" lon="0.1373">
        <ele>2326.3</ele>
        <time>2018-04-19T11:45:20Z</time>
      </trkpt>
      <trkpt lat="42.92711" lon="0.13724">
        <ele>2323.09</ele>
        <time>2018-04-19T11:45:22Z</time>
      </trkpt>
      <trkpt lat="42.9271" lon="0.13713">
        <ele>2318.59</ele>
        <time>2018-04-19T11:45:24Z</time>
      </trkpt>
      <trkpt lat="42.92708" lon="0.13707">
        <ele>2317.77</ele>
        <time>2018-04-19T11:45:25Z</time>
      </trkpt>
      <trkpt lat="42.92705" lon="0.13702">
        <ele>2316.69</ele>
        <time>2018-04-19T11:45:26Z</time>
      </trkpt>
      <trkpt lat="42.92702" lon="0.13699">
        <ele>2316.69</ele>
        <time>2018-04-19T11:45:27Z</time>
      </trkpt>
      <trkpt lat="42.927" lon="0.13697">
        <ele>2316.4</ele>
        <time>2018-04-19T11:45:28Z</time>
      </trkpt>
      <trkpt lat="42.92698" lon="0.13694">
        <ele>2315.63</ele>
        <time>2018-04-19T11:45:39Z</time>
      </trkpt>
      <trkpt lat="42.92694" lon="0.13691">
        <ele>2315.22</ele>
        <time>2018-04-19T11:45:41Z</time>
      </trkpt>
      <trkpt lat="42.92692" lon="0.13689">
        <ele>2314.8</ele>
        <time>2018-04-19T11:45:42Z</time>
      </trkpt>
      <trkpt lat="42.92689" lon="0.13687">
        <ele>2313.84</ele>
        <time>2018-04-19T11:45:43Z</time>
      </trkpt>
      <trkpt lat="42.92659" lon="0.13677">
        <ele>2310.49</ele>
        <time>2018-04-19T11:45:52Z</time>
      </trkpt>
      <trkpt lat="42.92651" lon="0.13676">
        <ele>2308.89</ele>
        <time>2018-04-19T11:45:54Z</time>
      </trkpt>
      <trkpt lat="42.92627" lon="0.13668">
        <ele>2303.22</ele>
        <time>2018-04-19T11:45:58Z</time>
      </trkpt>
      <trkpt lat="42.92619" lon="0.13666">
        <ele>2299.6</ele>
        <time>2018-04-19T11:45:59Z</time>
      </trkpt>
      <trkpt lat="42.92612" lon="0.13665">
        <ele>2299.71</ele>
        <time>2018-04-19T11:46:00Z</time>
      </trkpt>
      <trkpt lat="42.92595" lon="0.13663">
        <ele>2298.32</ele>
        <time>2018-04-19T11:46:03Z</time>
      </trkpt>
      <trkpt lat="42.92582" lon="0.13659">
        <ele>2297.1</ele>
        <time>2018-04-19T11:46:06Z</time>
      </trkpt>
      <trkpt lat="42.92578" lon="0.13649">
        <ele>2293.56</ele>
        <time>2018-04-19T11:46:09Z</time>
      </trkpt>
      <trkpt lat="42.9258" lon="0.13644">
        <ele>2293.47</ele>
        <time>2018-04-19T11:46:10Z</time>
      </trkpt>
      <trkpt lat="42.9258" lon="0.13631">
        <ele>2289.2</ele>
        <time>2018-04-19T11:46:12Z</time>
      </trkpt>
      <trkpt lat="42.92578" lon="0.13618">
        <ele>2285.81</ele>
        <time>2018-04-19T11:46:14Z</time>
      </trkpt>
      <trkpt lat="42.92574" lon="0.13602">
        <ele>2282.78</ele>
        <time>2018-04-19T11:46:16Z</time>
      </trkpt>
      <trkpt lat="42.92564" lon="0.1359">
        <ele>2277.01</ele>
        <time>2018-04-19T11:46:18Z</time>
      </trkpt>
      <trkpt lat="42.92554" lon="0.13571">
        <ele>2271.56</ele>
        <time>2018-04-19T11:46:21Z</time>
      </trkpt>
      <trkpt lat="42.92528" lon="0.13553">
        <ele>2266.61</ele>
        <time>2018-04-19T11:46:25Z</time>
      </trkpt>
      <trkpt lat="42.92509" lon="0.13528">
        <ele>2260.68</ele>
        <time>2018-04-19T11:46:30Z</time>
      </trkpt>
      <trkpt lat="42.92505" lon="0.13521">
        <ele>2257.51</ele>
        <time>2018-04-19T11:46:31Z</time>
      </trkpt>
      <trkpt lat="42.92493" lon="0.13511">
        <ele>2254.93</ele>
        <time>2018-04-19T11:46:33Z</time>
      </trkpt>
      <trkpt lat="42.92478" lon="0.13502">
        <ele>2253.29</ele>
        <time>2018-04-19T11:46:36Z</time>
      </trkpt>
      <trkpt lat="42.92448" lon="0.13483">
        <ele>2249.86</ele>
        <time>2018-04-19T11:46:43Z</time>
      </trkpt>
      <trkpt lat="42.92417" lon="0.13458">
        <ele>2246.29</ele>
        <time>2018-04-19T11:46:55Z</time>
      </trkpt>
      <trkpt lat="42.92414" lon="0.1345">
        <ele>2241.07</ele>
        <time>2018-04-19T11:46:57Z</time>
      </trkpt>
      <trkpt lat="42.92417" lon="0.13444">
        <ele>2240.33</ele>
        <time>2018-04-19T11:46:58Z</time>
      </trkpt>
      <trkpt lat="42.92413" lon="0.13428">
        <ele>2233.3</ele>
        <time>2018-04-19T11:47:00Z</time>
      </trkpt>
      <trkpt lat="42.924" lon="0.13414">
        <ele>2230.91</ele>
        <time>2018-04-19T11:47:02Z</time>
      </trkpt>
      <trkpt lat="42.92386" lon="0.13401">
        <ele>2226.44</ele>
        <time>2018-04-19T11:47:04Z</time>
      </trkpt>
      <trkpt lat="42.92379" lon="0.13395">
        <ele>2226.34</ele>
        <time>2018-04-19T11:47:05Z</time>
      </trkpt>
      <trkpt lat="42.92356" lon="0.13373">
        <ele>2223.05</ele>
        <time>2018-04-19T11:47:09Z</time>
      </trkpt>
      <trkpt lat="42.92332" lon="0.13346">
        <ele>2220.11</ele>
        <time>2018-04-19T11:47:15Z</time>
      </trkpt>
      <trkpt lat="42.9232" lon="0.13327">
        <ele>2220.55</ele>
        <time>2018-04-19T11:47:22Z</time>
      </trkpt>
      <trkpt lat="42.92318" lon="0.13327">
        <ele>2220.01</ele>
        <time>2018-04-19T11:47:39Z</time>
      </trkpt>
      <trkpt lat="42.92318" lon="0.13327">
        <ele>2219.72</ele>
        <time>2018-04-19T11:47:53Z</time>
      </trkpt>
      <trkpt lat="42.92296" lon="0.13317">
        <ele>2215.91</ele>
        <time>2018-04-19T11:48:02Z</time>
      </trkpt>
      <trkpt lat="42.92284" lon="0.1331">
        <ele>2211.12</ele>
        <time>2018-04-19T11:48:04Z</time>
      </trkpt>
      <trkpt lat="42.92269" lon="0.13301">
        <ele>2208.06</ele>
        <time>2018-04-19T11:48:06Z</time>
      </trkpt>
      <trkpt lat="42.92256" lon="0.13295">
        <ele>2204.58</ele>
        <time>2018-04-19T11:48:08Z</time>
      </trkpt>
      <trkpt lat="42.92243" lon="0.13291">
        <ele>2202.67</ele>
        <time>2018-04-19T11:48:10Z</time>
      </trkpt>
      <trkpt lat="42.92217" lon="0.13286">
        <ele>2200.86</ele>
        <time>2018-04-19T11:48:19Z</time>
      </trkpt>
      <trkpt lat="42.92188" lon="0.13278">
        <ele>2197.53</ele>
        <time>2018-04-19T11:48:33Z</time>
      </trkpt>
      <trkpt lat="42.92186" lon="0.13277">
        <ele>2197.38</ele>
        <time>2018-04-19T11:48:34Z</time>
      </trkpt>
      <trkpt lat="42.92168" lon="0.13268">
        <ele>2196.11</ele>
        <time>2018-04-19T11:48:46Z</time>
      </trkpt>
      <trkpt lat="42.92153" lon="0.13262">
        <ele>2195.55</ele>
        <time>2018-04-19T11:48:59Z</time>
      </trkpt>
      <trkpt lat="42.92132" lon="0.13254">
        <ele>2193.95</ele>
        <time>2018-04-19T11:49:10Z</time>
      </trkpt>
      <trkpt lat="42.9211" lon="0.13245">
        <ele>2192.74</ele>
        <time>2018-04-19T11:49:25Z</time>
      </trkpt>
      <trkpt lat="42.92092" lon="0.13242">
        <ele>2192.1</ele>
        <time>2018-04-19T11:49:40Z</time>
      </trkpt>
      <trkpt lat="42.9208" lon="0.1324">
        <ele>2191.66</ele>
        <time>2018-04-19T11:49:52Z</time>
      </trkpt>
      <trkpt lat="42.92079" lon="0.1324">
        <ele>2191.44</ele>
        <time>2018-04-19T11:49:53Z</time>
      </trkpt>
      <trkpt lat="42.92078" lon="0.1324">
        <ele>2192</ele>
        <time>2018-04-19T11:49:54Z</time>
      </trkpt>
      <trkpt lat="42.92076" lon="0.13239">
        <ele>2191.8</ele>
        <time>2018-04-19T11:49:55Z</time>
      </trkpt>
      <trkpt lat="42.92075" lon="0.13239">
        <ele>2191.63</ele>
        <time>2018-04-19T11:49:56Z</time>
      </trkpt>
      <trkpt lat="42.92058" lon="0.13234">
        <ele>2190.87</ele>
        <time>2018-04-19T11:50:13Z</time>
      </trkpt>
      <trkpt lat="42.92048" lon="0.13232">
        <ele>2191.1</ele>
        <time>2018-04-19T11:50:30Z</time>
      </trkpt>
      <trkpt lat="42.92046" lon="0.13233">
        <ele>2190.36</ele>
        <time>2018-04-19T11:50:39Z</time>
      </trkpt>
      <trkpt lat="42.92045" lon="0.13233">
        <ele>2190.29</ele>
        <time>2018-04-19T11:50:40Z</time>
      </trkpt>
      <trkpt lat="42.92044" lon="0.13232">
        <ele>2190.36</ele>
        <time>2018-04-19T11:50:41Z</time>
      </trkpt>
      <trkpt lat="42.92024" lon="0.13225">
        <ele>2186.91</ele>
        <time>2018-04-19T11:50:50Z</time>
      </trkpt>
      <trkpt lat="42.92009" lon="0.1322">
        <ele>2185.32</ele>
        <time>2018-04-19T11:50:54Z</time>
      </trkpt>
      <trkpt lat="42.91988" lon="0.1322">
        <ele>2181.62</ele>
        <time>2018-04-19T11:50:59Z</time>
      </trkpt>
      <trkpt lat="42.9198" lon="0.13222">
        <ele>2179.97</ele>
        <time>2018-04-19T11:51:01Z</time>
      </trkpt>
      <trkpt lat="42.91976" lon="0.1322">
        <ele>2179.12</ele>
        <time>2018-04-19T11:51:02Z</time>
      </trkpt>
      <trkpt lat="42.91971" lon="0.13219">
        <ele>2177.33</ele>
        <time>2018-04-19T11:51:03Z</time>
      </trkpt>
      <trkpt lat="42.91966" lon="0.13219">
        <ele>2176.66</ele>
        <time>2018-04-19T11:51:04Z</time>
      </trkpt>
      <trkpt lat="42.91961" lon="0.1322">
        <ele>2174.4</ele>
        <time>2018-04-19T11:51:05Z</time>
      </trkpt>
      <trkpt lat="42.91955" lon="0.13219">
        <ele>2173.72</ele>
        <time>2018-04-19T11:51:06Z</time>
      </trkpt>
      <trkpt lat="42.9195" lon="0.13219">
        <ele>2172.51</ele>
        <time>2018-04-19T11:51:07Z</time>
      </trkpt>
      <trkpt lat="42.91944" lon="0.13219">
        <ele>2171.6</ele>
        <time>2018-04-19T11:51:08Z</time>
      </trkpt>
      <trkpt lat="42.91939" lon="0.13219">
        <ele>2171.48</ele>
        <time>2018-04-19T11:51:09Z</time>
      </trkpt>
      <trkpt lat="42.91929" lon="0.13218">
        <ele>2170.31</ele>
        <time>2018-04-19T11:51:12Z</time>
      </trkpt>
      <trkpt lat="42.91927" lon="0.13216">
        <ele>2169.93</ele>
        <time>2018-04-19T11:51:13Z</time>
      </trkpt>
      <trkpt lat="42.91908" lon="0.13208">
        <ele>2166.3</ele>
        <time>2018-04-19T11:51:20Z</time>
      </trkpt>
      <trkpt lat="42.919" lon="0.13207">
        <ele>2165.14</ele>
        <time>2018-04-19T11:51:22Z</time>
      </trkpt>
      <trkpt lat="42.91877" lon="0.132">
        <ele>2161.6</ele>
        <time>2018-04-19T11:51:30Z</time>
      </trkpt>
      <trkpt lat="42.91863" lon="0.13195">
        <ele>2158.59</ele>
        <time>2018-04-19T11:51:33Z</time>
      </trkpt>
      <trkpt lat="42.91859" lon="0.13194">
        <ele>2157.59</ele>
        <time>2018-04-19T11:51:34Z</time>
      </trkpt>
      <trkpt lat="42.91854" lon="0.13193">
        <ele>2157.71</ele>
        <time>2018-04-19T11:51:35Z</time>
      </trkpt>
      <trkpt lat="42.91851" lon="0.13193">
        <ele>2157.5</ele>
        <time>2018-04-19T11:51:36Z</time>
      </trkpt>
      <trkpt lat="42.91848" lon="0.13194">
        <ele>2156.54</ele>
        <time>2018-04-19T11:51:37Z</time>
      </trkpt>
      <trkpt lat="42.91846" lon="0.13195">
        <ele>2157.09</ele>
        <time>2018-04-19T11:51:38Z</time>
      </trkpt>
      <trkpt lat="42.91843" lon="0.13196">
        <ele>2156.3</ele>
        <time>2018-04-19T11:51:39Z</time>
      </trkpt>
      <trkpt lat="42.91822" lon="0.13217">
        <ele>2153.15</ele>
        <time>2018-04-19T11:51:50Z</time>
      </trkpt>
      <trkpt lat="42.91813" lon="0.13224">
        <ele>2152.04</ele>
        <time>2018-04-19T11:52:04Z</time>
      </trkpt>
      <trkpt lat="42.91814" lon="0.13224">
        <ele>2152.05</ele>
        <time>2018-04-19T11:52:44Z</time>
      </trkpt>
      <trkpt lat="42.91809" lon="0.1323">
        <ele>2150.38</ele>
        <time>2018-04-19T11:52:58Z</time>
      </trkpt>
      <trkpt lat="42.91807" lon="0.13233">
        <ele>2150.51</ele>
        <time>2018-04-19T11:53:34Z</time>
      </trkpt>
      <trkpt lat="42.91794" lon="0.13238">
        <ele>2145.04</ele>
        <time>2018-04-19T11:53:37Z</time>
      </trkpt>
      <trkpt lat="42.91789" lon="0.13226">
        <ele>2141.02</ele>
        <time>2018-04-19T11:53:40Z</time>
      </trkpt>
      <trkpt lat="42.91784" lon="0.13225">
        <ele>2137.66</ele>
        <time>2018-04-19T11:53:41Z</time>
      </trkpt>
      <trkpt lat="42.9178" lon="0.13227">
        <ele>2135.99</ele>
        <time>2018-04-19T11:53:42Z</time>
      </trkpt>
      <trkpt lat="42.91777" lon="0.13229">
        <ele>2135.03</ele>
        <time>2018-04-19T11:53:43Z</time>
      </trkpt>
      <trkpt lat="42.91773" lon="0.13229">
        <ele>2134.89</ele>
        <time>2018-04-19T11:53:44Z</time>
      </trkpt>
      <trkpt lat="42.9177" lon="0.13221">
        <ele>2129.04</ele>
        <time>2018-04-19T11:53:46Z</time>
      </trkpt>
      <trkpt lat="42.91771" lon="0.13216">
        <ele>2129.84</ele>
        <time>2018-04-19T11:53:47Z</time>
      </trkpt>
      <trkpt lat="42.91765" lon="0.13204">
        <ele>2124.35</ele>
        <time>2018-04-19T11:53:50Z</time>
      </trkpt>
      <trkpt lat="42.9176" lon="0.13205">
        <ele>2121.87</ele>
        <time>2018-04-19T11:53:51Z</time>
      </trkpt>
      <trkpt lat="42.91755" lon="0.13205">
        <ele>2120.14</ele>
        <time>2018-04-19T11:53:52Z</time>
      </trkpt>
      <trkpt lat="42.91752" lon="0.13201">
        <ele>2118.1</ele>
        <time>2018-04-19T11:53:53Z</time>
      </trkpt>
      <trkpt lat="42.91752" lon="0.13196">
        <ele>2115.69</ele>
        <time>2018-04-19T11:53:54Z</time>
      </trkpt>
      <trkpt lat="42.91752" lon="0.13191">
        <ele>2115.62</ele>
        <time>2018-04-19T11:53:55Z</time>
      </trkpt>
      <trkpt lat="42.91751" lon="0.13186">
        <ele>2114.74</ele>
        <time>2018-04-19T11:53:56Z</time>
      </trkpt>
      <trkpt lat="42.9175" lon="0.1318">
        <ele>2113.81</ele>
        <time>2018-04-19T11:53:57Z</time>
      </trkpt>
      <trkpt lat="42.91746" lon="0.13178">
        <ele>2112.28</ele>
        <time>2018-04-19T11:53:58Z</time>
      </trkpt>
      <trkpt lat="42.91742" lon="0.1318">
        <ele>2108.85</ele>
        <time>2018-04-19T11:53:59Z</time>
      </trkpt>
      <trkpt lat="42.91739" lon="0.13183">
        <ele>2107.84</ele>
        <time>2018-04-19T11:54:00Z</time>
      </trkpt>
      <trkpt lat="42.91731" lon="0.13185">
        <ele>2104.79</ele>
        <time>2018-04-19T11:54:02Z</time>
      </trkpt>
      <trkpt lat="42.91729" lon="0.13181">
        <ele>2102.64</ele>
        <time>2018-04-19T11:54:03Z</time>
      </trkpt>
      <trkpt lat="42.91728" lon="0.13176">
        <ele>2102.48</ele>
        <time>2018-04-19T11:54:04Z</time>
      </trkpt>
      <trkpt lat="42.91726" lon="0.13172">
        <ele>2101.78</ele>
        <time>2018-04-19T11:54:05Z</time>
      </trkpt>
      <trkpt lat="42.91722" lon="0.13169">
        <ele>2100.16</ele>
        <time>2018-04-19T11:54:06Z</time>
      </trkpt>
      <trkpt lat="42.91718" lon="0.13168">
        <ele>2098.39</ele>
        <time>2018-04-19T11:54:07Z</time>
      </trkpt>
      <trkpt lat="42.91708" lon="0.13173">
        <ele>2094.69</ele>
        <time>2018-04-19T11:54:09Z</time>
      </trkpt>
      <trkpt lat="42.91703" lon="0.13171">
        <ele>2091.43</ele>
        <time>2018-04-19T11:54:10Z</time>
      </trkpt>
      <trkpt lat="42.917" lon="0.13167">
        <ele>2090.43</ele>
        <time>2018-04-19T11:54:11Z</time>
      </trkpt>
      <trkpt lat="42.91695" lon="0.13156">
        <ele>2088.68</ele>
        <time>2018-04-19T11:54:14Z</time>
      </trkpt>
      <trkpt lat="42.91686" lon="0.13162">
        <ele>2082.83</ele>
        <time>2018-04-19T11:54:18Z</time>
      </trkpt>
      <trkpt lat="42.91676" lon="0.13164">
        <ele>2079.08</ele>
        <time>2018-04-19T11:54:21Z</time>
      </trkpt>
      <trkpt lat="42.91675" lon="0.13162">
        <ele>2078.9</ele>
        <time>2018-04-19T11:54:22Z</time>
      </trkpt>
      <trkpt lat="42.91671" lon="0.13162">
        <ele>2079.43</ele>
        <time>2018-04-19T11:54:33Z</time>
      </trkpt>
      <trkpt lat="42.91669" lon="0.1316">
        <ele>2079.72</ele>
        <time>2018-04-19T11:54:39Z</time>
      </trkpt>
      <trkpt lat="42.9166" lon="0.13165">
        <ele>2074.57</ele>
        <time>2018-04-19T11:54:43Z</time>
      </trkpt>
      <trkpt lat="42.91649" lon="0.13169">
        <ele>2071.09</ele>
        <time>2018-04-19T11:54:46Z</time>
      </trkpt>
      <trkpt lat="42.91647" lon="0.13166">
        <ele>2071.35</ele>
        <time>2018-04-19T11:54:47Z</time>
      </trkpt>
      <trkpt lat="42.91643" lon="0.13162">
        <ele>2068.29</ele>
        <time>2018-04-19T11:54:49Z</time>
      </trkpt>
      <trkpt lat="42.91638" lon="0.13169">
        <ele>2065.78</ele>
        <time>2018-04-19T11:54:52Z</time>
      </trkpt>
      <trkpt lat="42.91629" lon="0.13166">
        <ele>2061.34</ele>
        <time>2018-04-19T11:54:56Z</time>
      </trkpt>
      <trkpt lat="42.91627" lon="0.13165">
        <ele>2061.59</ele>
        <time>2018-04-19T11:54:58Z</time>
      </trkpt>
      <trkpt lat="42.91616" lon="0.13162">
        <ele>2056.37</ele>
        <time>2018-04-19T11:55:04Z</time>
      </trkpt>
      <trkpt lat="42.91616" lon="0.13163">
        <ele>2056.36</ele>
        <time>2018-04-19T11:55:05Z</time>
      </trkpt>
      <trkpt lat="42.91612" lon="0.13169">
        <ele>2055.83</ele>
        <time>2018-04-19T11:55:09Z</time>
      </trkpt>
      <trkpt lat="42.91604" lon="0.13166">
        <ele>2051.62</ele>
        <time>2018-04-19T11:55:13Z</time>
      </trkpt>
      <trkpt lat="42.91599" lon="0.13153">
        <ele>2049.93</ele>
        <time>2018-04-19T11:55:16Z</time>
      </trkpt>
      <trkpt lat="42.91586" lon="0.13151">
        <ele>2044.75</ele>
        <time>2018-04-19T11:55:19Z</time>
      </trkpt>
      <trkpt lat="42.91583" lon="0.13157">
        <ele>2041.93</ele>
        <time>2018-04-19T11:55:20Z</time>
      </trkpt>
      <trkpt lat="42.9158" lon="0.13171">
        <ele>2042.35</ele>
        <time>2018-04-19T11:55:28Z</time>
      </trkpt>
      <trkpt lat="42.91583" lon="0.13171">
        <ele>2042.78</ele>
        <time>2018-04-19T11:55:40Z</time>
      </trkpt>
      <trkpt lat="42.91585" lon="0.1317">
        <ele>2042.74</ele>
        <time>2018-04-19T11:55:43Z</time>
      </trkpt>
      <trkpt lat="42.91571" lon="0.13165">
        <ele>2040.08</ele>
        <time>2018-04-19T11:55:47Z</time>
      </trkpt>
      <trkpt lat="42.9156" lon="0.13158">
        <ele>2035.8</ele>
        <time>2018-04-19T11:55:49Z</time>
      </trkpt>
      <trkpt lat="42.91551" lon="0.13158">
        <ele>2032.51</ele>
        <time>2018-04-19T11:55:50Z</time>
      </trkpt>
      <trkpt lat="42.91519" lon="0.13156">
        <ele>2023.96</ele>
        <time>2018-04-19T11:55:54Z</time>
      </trkpt>
      <trkpt lat="42.91512" lon="0.13154">
        <ele>2023.69</ele>
        <time>2018-04-19T11:55:55Z</time>
      </trkpt>
      <trkpt lat="42.91502" lon="0.13149">
        <ele>2022.63</ele>
        <time>2018-04-19T11:55:57Z</time>
      </trkpt>
      <trkpt lat="42.91491" lon="0.13143">
        <ele>2020.78</ele>
        <time>2018-04-19T11:56:00Z</time>
      </trkpt>
      <trkpt lat="42.91486" lon="0.13143">
        <ele>2019.29</ele>
        <time>2018-04-19T11:56:01Z</time>
      </trkpt>
      <trkpt lat="42.91482" lon="0.13142">
        <ele>2017.62</ele>
        <time>2018-04-19T11:56:02Z</time>
      </trkpt>
      <trkpt lat="42.91478" lon="0.1314">
        <ele>2016.6</ele>
        <time>2018-04-19T11:56:03Z</time>
      </trkpt>
      <trkpt lat="42.91474" lon="0.13138">
        <ele>2016.48</ele>
        <time>2018-04-19T11:56:04Z</time>
      </trkpt>
      <trkpt lat="42.91469" lon="0.13136">
        <ele>2015.93</ele>
        <time>2018-04-19T11:56:05Z</time>
      </trkpt>
      <trkpt lat="42.91464" lon="0.13134">
        <ele>2013.73</ele>
        <time>2018-04-19T11:56:06Z</time>
      </trkpt>
      <trkpt lat="42.9146" lon="0.1313">
        <ele>2012.53</ele>
        <time>2018-04-19T11:56:07Z</time>
      </trkpt>
      <trkpt lat="42.91456" lon="0.13126">
        <ele>2011.48</ele>
        <time>2018-04-19T11:56:08Z</time>
      </trkpt>
      <trkpt lat="42.91451" lon="0.13123">
        <ele>2010.43</ele>
        <time>2018-04-19T11:56:09Z</time>
      </trkpt>
      <trkpt lat="42.91447" lon="0.1312">
        <ele>2008.7</ele>
        <time>2018-04-19T11:56:10Z</time>
      </trkpt>
      <trkpt lat="42.91442" lon="0.13117">
        <ele>2007.91</ele>
        <time>2018-04-19T11:56:11Z</time>
      </trkpt>
      <trkpt lat="42.91437" lon="0.13114">
        <ele>2006.43</ele>
        <time>2018-04-19T11:56:12Z</time>
      </trkpt>
      <trkpt lat="42.91431" lon="0.13111">
        <ele>2004.95</ele>
        <time>2018-04-19T11:56:13Z</time>
      </trkpt>
      <trkpt lat="42.91413" lon="0.13102">
        <ele>2001.11</ele>
        <time>2018-04-19T11:56:16Z</time>
      </trkpt>
      <trkpt lat="42.91407" lon="0.13102">
        <ele>1999.18</ele>
        <time>2018-04-19T11:56:17Z</time>
      </trkpt>
      <trkpt lat="42.914" lon="0.13103">
        <ele>1996.88</ele>
        <time>2018-04-19T11:56:18Z</time>
      </trkpt>
      <trkpt lat="42.91394" lon="0.13103">
        <ele>1994.05</ele>
        <time>2018-04-19T11:56:19Z</time>
      </trkpt>
      <trkpt lat="42.91388" lon="0.131">
        <ele>1992.2</ele>
        <time>2018-04-19T11:56:20Z</time>
      </trkpt>
      <trkpt lat="42.91382" lon="0.13095">
        <ele>1990.4</ele>
        <time>2018-04-19T11:56:21Z</time>
      </trkpt>
      <trkpt lat="42.91376" lon="0.1309">
        <ele>1988.94</ele>
        <time>2018-04-19T11:56:22Z</time>
      </trkpt>
      <trkpt lat="42.91353" lon="0.13074">
        <ele>1983.37</ele>
        <time>2018-04-19T11:56:25Z</time>
      </trkpt>
      <trkpt lat="42.91344" lon="0.13068">
        <ele>1979.84</ele>
        <time>2018-04-19T11:56:26Z</time>
      </trkpt>
      <trkpt lat="42.91334" lon="0.13062">
        <ele>1976.31</ele>
        <time>2018-04-19T11:56:27Z</time>
      </trkpt>
      <trkpt lat="42.91313" lon="0.13051">
        <ele>1972.57</ele>
        <time>2018-04-19T11:56:29Z</time>
      </trkpt>
      <trkpt lat="42.91288" lon="0.13038">
        <ele>1964.83</ele>
        <time>2018-04-19T11:56:31Z</time>
      </trkpt>
      <trkpt lat="42.91266" lon="0.13012">
        <ele>1961.87</ele>
        <time>2018-04-19T11:56:34Z</time>
      </trkpt>
      <trkpt lat="42.91249" lon="0.13001">
        <ele>1957.66</ele>
        <time>2018-04-19T11:56:37Z</time>
      </trkpt>
      <trkpt lat="42.91242" lon="0.13">
        <ele>1955.45</ele>
        <time>2018-04-19T11:56:38Z</time>
      </trkpt>
      <trkpt lat="42.9121" lon="0.13001">
        <ele>1949.09</ele>
        <time>2018-04-19T11:56:42Z</time>
      </trkpt>
      <trkpt lat="42.91183" lon="0.12988">
        <ele>1946.24</ele>
        <time>2018-04-19T11:56:46Z</time>
      </trkpt>
      <trkpt lat="42.91158" lon="0.12973">
        <ele>1946.27</ele>
        <time>2018-04-19T11:56:54Z</time>
      </trkpt>
      <trkpt lat="42.91156" lon="0.12978">
        <ele>1945.79</ele>
        <time>2018-04-19T11:57:08Z</time>
      </trkpt>
      <trkpt lat="42.91157" lon="0.1298">
        <ele>1945.72</ele>
        <time>2018-04-19T11:57:29Z</time>
      </trkpt>
      <trkpt lat="42.91152" lon="0.12986">
        <ele>1944.77</ele>
        <time>2018-04-19T11:57:37Z</time>
      </trkpt>
      <trkpt lat="42.91138" lon="0.13">
        <ele>1943.94</ele>
        <time>2018-04-19T11:57:54Z</time>
      </trkpt>
      <trkpt lat="42.91119" lon="0.13024">
        <ele>1940.98</ele>
        <time>2018-04-19T11:58:06Z</time>
      </trkpt>
      <trkpt lat="42.9111" lon="0.1305">
        <ele>1937.96</ele>
        <time>2018-04-19T11:58:16Z</time>
      </trkpt>
      <trkpt lat="42.91107" lon="0.13063">
        <ele>1935.71</ele>
        <time>2018-04-19T11:58:19Z</time>
      </trkpt>
      <trkpt lat="42.91099" lon="0.1307">
        <ele>1929.34</ele>
        <time>2018-04-19T11:58:22Z</time>
      </trkpt>
      <trkpt lat="42.91086" lon="0.13064">
        <ele>1924.58</ele>
        <time>2018-04-19T11:58:25Z</time>
      </trkpt>
      <trkpt lat="42.91077" lon="0.13074">
        <ele>1921.31</ele>
        <time>2018-04-19T11:58:27Z</time>
      </trkpt>
      <trkpt lat="42.91066" lon="0.13073">
        <ele>1917.12</ele>
        <time>2018-04-19T11:58:29Z</time>
      </trkpt>
      <trkpt lat="42.9105" lon="0.13082">
        <ele>1912.4</ele>
        <time>2018-04-19T11:58:32Z</time>
      </trkpt>
      <trkpt lat="42.91044" lon="0.1308">
        <ele>1908.98</ele>
        <time>2018-04-19T11:58:33Z</time>
      </trkpt>
      <trkpt lat="42.91033" lon="0.13078">
        <ele>1905.2</ele>
        <time>2018-04-19T11:58:35Z</time>
      </trkpt>
      <trkpt lat="42.91021" lon="0.13087">
        <ele>1899.74</ele>
        <time>2018-04-19T11:58:37Z</time>
      </trkpt>
      <trkpt lat="42.9101" lon="0.13084">
        <ele>1895.55</ele>
        <time>2018-04-19T11:58:39Z</time>
      </trkpt>
      <trkpt lat="42.91003" lon="0.13085">
        <ele>1892.19</ele>
        <time>2018-04-19T11:58:40Z</time>
      </trkpt>
      <trkpt lat="42.90997" lon="0.13091">
        <ele>1889.19</ele>
        <time>2018-04-19T11:58:41Z</time>
      </trkpt>
      <trkpt lat="42.90991" lon="0.13095">
        <ele>1885.93</ele>
        <time>2018-04-19T11:58:42Z</time>
      </trkpt>
      <trkpt lat="42.90981" lon="0.13092">
        <ele>1881.1</ele>
        <time>2018-04-19T11:58:44Z</time>
      </trkpt>
      <trkpt lat="42.90977" lon="0.13094">
        <ele>1877.35</ele>
        <time>2018-04-19T11:58:45Z</time>
      </trkpt>
      <trkpt lat="42.90973" lon="0.131">
        <ele>1875.6</ele>
        <time>2018-04-19T11:58:46Z</time>
      </trkpt>
      <trkpt lat="42.90962" lon="0.13106">
        <ele>1870.03</ele>
        <time>2018-04-19T11:58:48Z</time>
      </trkpt>
      <trkpt lat="42.90936" lon="0.13112">
        <ele>1857.99</ele>
        <time>2018-04-19T11:58:52Z</time>
      </trkpt>
      <trkpt lat="42.90922" lon="0.1311">
        <ele>1853.24</ele>
        <time>2018-04-19T11:58:54Z</time>
      </trkpt>
      <trkpt lat="42.90909" lon="0.13118">
        <ele>1847.46</ele>
        <time>2018-04-19T11:58:56Z</time>
      </trkpt>
      <trkpt lat="42.90894" lon="0.13115">
        <ele>1842.65</ele>
        <time>2018-04-19T11:58:58Z</time>
      </trkpt>
      <trkpt lat="42.90882" lon="0.13127">
        <ele>1838.92</ele>
        <time>2018-04-19T11:59:00Z</time>
      </trkpt>
      <trkpt lat="42.90875" lon="0.13133">
        <ele>1834.5</ele>
        <time>2018-04-19T11:59:01Z</time>
      </trkpt>
      <trkpt lat="42.90864" lon="0.13126">
        <ele>1829.54</ele>
        <time>2018-04-19T11:59:03Z</time>
      </trkpt>
      <trkpt lat="42.90863" lon="0.13118">
        <ele>1829.95</ele>
        <time>2018-04-19T11:59:08Z</time>
      </trkpt>
      <trkpt lat="42.90862" lon="0.13117">
        <ele>1830.21</ele>
        <time>2018-04-19T11:59:19Z</time>
      </trkpt>
      <trkpt lat="42.90853" lon="0.13119">
        <ele>1827.77</ele>
        <time>2018-04-19T11:59:22Z</time>
      </trkpt>
      <trkpt lat="42.90843" lon="0.13136">
        <ele>1822.64</ele>
        <time>2018-04-19T11:59:25Z</time>
      </trkpt>
      <trkpt lat="42.9083" lon="0.13138">
        <ele>1818.03</ele>
        <time>2018-04-19T11:59:27Z</time>
      </trkpt>
      <trkpt lat="42.90817" lon="0.13144">
        <ele>1813.25</ele>
        <time>2018-04-19T11:59:29Z</time>
      </trkpt>
      <trkpt lat="42.90813" lon="0.13151">
        <ele>1812.06</ele>
        <time>2018-04-19T11:59:30Z</time>
      </trkpt>
      <trkpt lat="42.90808" lon="0.13162">
        <ele>1810.88</ele>
        <time>2018-04-19T11:59:32Z</time>
      </trkpt>
      <trkpt lat="42.90789" lon="0.1318">
        <ele>1805.87</ele>
        <time>2018-04-19T11:59:36Z</time>
      </trkpt>
      <trkpt lat="42.9077" lon="0.13179">
        <ele>1799.29</ele>
        <time>2018-04-19T11:59:39Z</time>
      </trkpt>
      <trkpt lat="42.90756" lon="0.13177">
        <ele>1793.45</ele>
        <time>2018-04-19T11:59:41Z</time>
      </trkpt>
      <trkpt lat="42.9075" lon="0.13176">
        <ele>1792.46</ele>
        <time>2018-04-19T11:59:42Z</time>
      </trkpt>
      <trkpt lat="42.90724" lon="0.13177">
        <ele>1783.68</ele>
        <time>2018-04-19T11:59:46Z</time>
      </trkpt>
      <trkpt lat="42.90704" lon="0.13178">
        <ele>1777.03</ele>
        <time>2018-04-19T11:59:49Z</time>
      </trkpt>
      <trkpt lat="42.90687" lon="0.13185">
        <ele>1771.47</ele>
        <time>2018-04-19T11:59:52Z</time>
      </trkpt>
      <trkpt lat="42.90676" lon="0.13191">
        <ele>1765.43</ele>
        <time>2018-04-19T11:59:54Z</time>
      </trkpt>
      <trkpt lat="42.9067" lon="0.13188">
        <ele>1765.23</ele>
        <time>2018-04-19T11:59:55Z</time>
      </trkpt>
      <trkpt lat="42.90658" lon="0.13188">
        <ele>1760.7</ele>
        <time>2018-04-19T11:59:57Z</time>
      </trkpt>
      <trkpt lat="42.90628" lon="0.13188">
        <ele>1756.38</ele>
        <time>2018-04-19T12:00:02Z</time>
      </trkpt>
      <trkpt lat="42.90619" lon="0.13179">
        <ele>1754.49</ele>
        <time>2018-04-19T12:00:05Z</time>
      </trkpt>
      <trkpt lat="42.90618" lon="0.13177">
        <ele>1755.08</ele>
        <time>2018-04-19T12:00:06Z</time>
      </trkpt>
      <trkpt lat="42.90614" lon="0.13157">
        <ele>1753.55</ele>
        <time>2018-04-19T12:00:16Z</time>
      </trkpt>
      <trkpt lat="42.90614" lon="0.1315">
        <ele>1754.31</ele>
        <time>2018-04-19T12:00:37Z</time>
      </trkpt>
      <trkpt lat="42.90614" lon="0.13148">
        <ele>1753.39</ele>
        <time>2018-04-19T12:00:38Z</time>
      </trkpt>
      <trkpt lat="42.90618" lon="0.13144">
        <ele>1753.11</ele>
        <time>2018-04-19T12:00:41Z</time>
      </trkpt>
      <trkpt lat="42.90619" lon="0.13142">
        <ele>1752.83</ele>
        <time>2018-04-19T12:00:42Z</time>
      </trkpt>
      <trkpt lat="42.9062" lon="0.13141">
        <ele>1752.77</ele>
        <time>2018-04-19T12:00:43Z</time>
      </trkpt>
      <trkpt lat="42.90628" lon="0.13133">
        <ele>1753.5</ele>
        <time>2018-04-19T12:00:56Z</time>
      </trkpt>
      <trkpt lat="42.90646" lon="0.13112">
        <ele>1753.17</ele>
        <time>2018-04-19T12:01:12Z</time>
      </trkpt>
      <trkpt lat="42.90655" lon="0.13091">
        <ele>1752.34</ele>
        <time>2018-04-19T12:01:26Z</time>
      </trkpt>
      <trkpt lat="42.9066" lon="0.13076">
        <ele>1751.88</ele>
        <time>2018-04-19T12:01:39Z</time>
      </trkpt>
      <trkpt lat="42.90664" lon="0.13076">
        <ele>1751.16</ele>
        <time>2018-04-19T12:02:04Z</time>
      </trkpt>
      <trkpt lat="42.90664" lon="0.13076">
        <ele>1750.47</ele>
        <time>2018-04-19T12:02:17Z</time>
      </trkpt>
      <trkpt lat="42.90664" lon="0.13076">
        <ele>1750.29</ele>
        <time>2018-04-19T12:02:23Z</time>
      </trkpt>
      <trkpt lat="42.90663" lon="0.13076">
        <ele>1750.17</ele>
        <time>2018-04-19T12:02:40Z</time>
      </trkpt>
      <trkpt lat="42.90663" lon="0.13077">
        <ele>1749.91</ele>
        <time>2018-04-19T12:03:00Z</time>
      </trkpt>
      <trkpt lat="42.90666" lon="0.13073">
        <ele>1749.79</ele>
        <time>2018-04-19T12:03:10Z</time>
      </trkpt>
      <trkpt lat="42.90667" lon="0.13071">
        <ele>1749.78</ele>
        <time>2018-04-19T12:03:12Z</time>
      </trkpt>
      <trkpt lat="42.9067" lon="0.1306">
        <ele>1749.87</ele>
        <time>2018-04-19T12:03:24Z</time>
      </trkpt>
      <trkpt lat="42.90669" lon="0.13063">
        <ele>1750.12</ele>
        <time>2018-04-19T12:03:35Z</time>
      </trkpt>
      <trkpt lat="42.90668" lon="0.13065">
        <ele>1748.68</ele>
        <time>2018-04-19T12:03:58Z</time>
      </trkpt>
      <trkpt lat="42.9067" lon="0.13064">
        <ele>1747.66</ele>
        <time>2018-04-19T12:04:57Z</time>
      </trkpt>
      <trkpt lat="42.90671" lon="0.13065">
        <ele>1747.68</ele>
        <time>2018-04-19T12:05:47Z</time>
      </trkpt>
      <trkpt lat="42.90671" lon="0.13064">
        <ele>1748.3</ele>
        <time>2018-04-19T12:06:29Z</time>
      </trkpt>
    </trkseg>
  </trk>
</gpx>